Wetterdaten: aktuell Mittwoch, 25.11.2020 23:06
Datum Zeit Temp. A. Feuchte A. Luftdruck Regen Wind Richtung Richtung Sonnenschein ET UV Solar Taupunkt Windchill Windben Empfang
25.11.2020 23:06 -2,9 C 98 % 1025,5 hPa 0,0 l/m 1,6 km/h (1 Bft) W-SW 247 0 min 0,000 mm 0,0 UV-I 0 W/m -3,2 C -2,9 C 3,2 km/h (1 Bft) 100,00 %
25.11.2020 23:05 -2,9 C 98 % 1025,5 hPa 0,0 l/m 1,6 km/h (1 Bft) W-SW 247 0 min 0,000 mm 0,0 UV-I 0 W/m -3,2 C -2,9 C 3,2 km/h (1 Bft) 95,65 %
25.11.2020 23:04 -2,9 C 98 % 1025,5 hPa 0,0 l/m 1,6 km/h (1 Bft) W-SW 247 0 min 0,000 mm 0,0 UV-I 0 W/m -3,2 C -2,9 C 4,8 km/h (1 Bft) 100,00 %
25.11.2020 23:03 -3,0 C 98 % 1025,5 hPa 0,0 l/m 3,2 km/h (1 Bft) W-SW 247 0 min 0,000 mm 0,0 UV-I 0 W/m -3,3 C -3,0 C 3,2 km/h (1 Bft) 100,00 %
25.11.2020 23:02 -3,0 C 98 % 1025,5 hPa 0,0 l/m 3,2 km/h (1 Bft) W-SW 247 0 min 0,000 mm 0,0 UV-I 0 W/m -3,3 C -3,0 C 4,8 km/h (1 Bft) 100,00 %
25.11.2020 23:01 -3,0 C 98 % 1025,5 hPa 0,0 l/m 3,2 km/h (1 Bft) W-SW 247 0 min 0,000 mm 0,0 UV-I 0 W/m -3,3 C -3,0 C 4,8 km/h (1 Bft) 95,65 %
25.11.2020 23:00 -3,0 C 98 % 1025,3 hPa 0,0 l/m 4,8 km/h (1 Bft) W-SW 247 0 min 0,000 mm 0,0 UV-I 0 W/m -3,3 C -4,9 C 6,4 km/h (2 Bft) 100,00 %
25.11.2020 22:59 -3,0 C 98 % 1025,3 hPa 0,0 l/m 4,8 km/h (1 Bft) W-SW 247 0 min 0,000 mm 0,0 UV-I 0 W/m -3,3 C -4,9 C 6,4 km/h (2 Bft) 100,00 %
25.11.2020 22:58 -3,1 C 98 % 1025,3 hPa 0,0 l/m 4,8 km/h (1 Bft) SW 225 0 min 0,000 mm 0,0 UV-I 0 W/m -3,4 C -5,0 C 6,4 km/h (2 Bft) 95,65 %
25.11.2020 22:57 -3,1 C 98 % 1025,2 hPa 0,0 l/m 4,8 km/h (1 Bft) S-SW 202 0 min 0,000 mm 0,0 UV-I 0 W/m -3,4 C -5,0 C 6,4 km/h (2 Bft) 100,00 %
25.11.2020 22:56 -3,1 C 98 % 1025,3 hPa 0,0 l/m 6,4 km/h (2 Bft) S-SW 202 0 min 0,000 mm 0,0 UV-I 0 W/m -3,4 C -5,8 C 8,0 km/h (2 Bft) 95,65 %
25.11.2020 22:55 -3,1 C 98 % 1025,2 hPa 0,0 l/m 3,2 km/h (1 Bft) SW 225 0 min 0,000 mm 0,0 UV-I 0 W/m -3,4 C -3,1 C 4,8 km/h (1 Bft) 100,00 %
25.11.2020 22:54 -3,1 C 98 % 1025,2 hPa 0,0 l/m 4,8 km/h (1 Bft) SW 225 0 min 0,000 mm 0,0 UV-I 0 W/m -3,4 C -5,0 C 6,4 km/h (2 Bft) 100,00 %
25.11.2020 22:53 -3,1 C 98 % 1025,3 hPa 0,0 l/m 4,8 km/h (1 Bft) W-SW 247 0 min 0,000 mm 0,0 UV-I 0 W/m -3,4 C -5,0 C 6,4 km/h (2 Bft) 95,65 %
25.11.2020 22:52 -3,1 C 98 % 1025,2 hPa 0,0 l/m 4,8 km/h (1 Bft) SW 225 0 min 0,000 mm 0,0 UV-I 0 W/m -3,4 C -5,0 C 6,4 km/h (2 Bft) 100,00 %
25.11.2020 22:51 -3,1 C 98 % 1025,3 hPa 0,0 l/m 6,4 km/h (2 Bft) W-SW 247 0 min 0,000 mm 0,0 UV-I 0 W/m -3,4 C -5,8 C 8,0 km/h (2 Bft) 95,65 %
25.11.2020 22:50 -3,1 C 98 % 1025,3 hPa 0,0 l/m 8,0 km/h (2 Bft) SW 225 0 min 0,000 mm 0,0 UV-I 0 W/m -3,4 C -6,4 C 9,7 km/h (2 Bft) 100,00 %
25.11.2020 22:49 -3,1 C 98 % 1025,3 hPa 0,0 l/m 8,0 km/h (2 Bft) W-SW 247 0 min 0,000 mm 0,0 UV-I 0 W/m -3,4 C -6,4 C 9,7 km/h (2 Bft) 100,00 %
25.11.2020 22:48 -3,1 C 98 % 1025,3 hPa 0,0 l/m 6,4 km/h (2 Bft) W-SW 247 0 min 0,000 mm 0,0 UV-I 0 W/m -3,4 C -5,8 C 8,0 km/h (2 Bft) 91,30 %
25.11.2020 22:47 -3,1 C 98 % 1025,3 hPa 0,0 l/m 6,4 km/h (2 Bft) W-SW 247 0 min 0,000 mm 0,0 UV-I 0 W/m -3,4 C -5,8 C 8,0 km/h (2 Bft) 100,00 %
25.11.2020 22:46 -3,1 C 98 % 1025,3 hPa 0,0 l/m 8,0 km/h (2 Bft) W-SW 247 0 min 0,000 mm 0,0 UV-I 0 W/m -3,4 C -6,4 C 9,7 km/h (2 Bft) 100,00 %
25.11.2020 22:45 -3,1 C 98 % 1025,2 hPa 0,0 l/m 8,0 km/h (2 Bft) SW 225 0 min 0,000 mm 0,0 UV-I 0 W/m -3,4 C -6,4 C 9,7 km/h (2 Bft) 100,00 %
25.11.2020 22:44 -3,1 C 98 % 1025,2 hPa 0,0 l/m 6,4 km/h (2 Bft) W-SW 247 0 min 0,000 mm 0,0 UV-I 0 W/m -3,4 C -5,8 C 8,0 km/h (2 Bft) 91,30 %
25.11.2020 22:43 -3,1 C 98 % 1025,3 hPa 0,0 l/m 6,4 km/h (2 Bft) W-SW 247 0 min 0,000 mm 0,0 UV-I 0 W/m -3,4 C -5,8 C 8,0 km/h (2 Bft) 91,30 %
25.11.2020 22:42 -3,1 C 98 % 1025,2 hPa 0,0 l/m 8,0 km/h (2 Bft) W-SW 247 0 min 0,000 mm 0,0 UV-I 0 W/m -3,4 C -6,4 C 8,0 km/h (2 Bft) 100,00 %
25.11.2020 22:41 -3,1 C 98 % 1025,2 hPa 0,0 l/m 6,4 km/h (2 Bft) W-SW 247 0 min 0,000 mm 0,0 UV-I 0 W/m -3,4 C -5,8 C 8,0 km/h (2 Bft) 100,00 %
25.11.2020 22:40 -3,1 C 98 % 1025,2 hPa 0,0 l/m 4,8 km/h (1 Bft) W-SW 247 0 min 0,000 mm 0,0 UV-I 0 W/m -3,4 C -5,0 C 6,4 km/h (2 Bft) 100,00 %
25.11.2020 22:39 -3,1 C 98 % 1025,3 hPa 0,0 l/m 6,4 km/h (2 Bft) W-SW 247 0 min 0,000 mm 0,0 UV-I 0 W/m -3,4 C -5,8 C 8,0 km/h (2 Bft) 95,65 %
25.11.2020 22:38 -3,1 C 98 % 1025,1 hPa 0,0 l/m 6,4 km/h (2 Bft) SW 225 0 min 0,000 mm 0,0 UV-I 0 W/m -3,4 C -5,8 C 8,0 km/h (2 Bft) 100,00 %
25.11.2020 22:37 -3,1 C 98 % 1025,2 hPa 0,0 l/m 4,8 km/h (1 Bft) W-SW 247 0 min 0,000 mm 0,0 UV-I 0 W/m -3,4 C -5,0 C 6,4 km/h (2 Bft) 100,00 %
25.11.2020 22:36 -3,1 C 98 % 1025,2 hPa 0,0 l/m 6,4 km/h (2 Bft) SW 225 0 min 0,000 mm 0,0 UV-I 0 W/m -3,4 C -5,8 C 8,0 km/h (2 Bft) 95,65 %
25.11.2020 22:35 -3,1 C 98 % 1025,2 hPa 0,0 l/m 6,4 km/h (2 Bft) SW 225 0 min 0,000 mm 0,0 UV-I 0 W/m -3,4 C -5,8 C 8,0 km/h (2 Bft) 100,00 %
25.11.2020 22:34 -3,0 C 98 % 1025,2 hPa 0,0 l/m 6,4 km/h (2 Bft) W-SW 247 0 min 0,000 mm 0,0 UV-I 0 W/m -3,3 C -5,6 C 6,4 km/h (2 Bft) 95,65 %
25.11.2020 22:33 -3,1 C 98 % 1025,2 hPa 0,0 l/m 6,4 km/h (2 Bft) SW 225 0 min 0,000 mm 0,0 UV-I 0 W/m -3,4 C -5,8 C 6,4 km/h (2 Bft) 95,65 %
25.11.2020 22:32 -3,0 C 98 % 1025,3 hPa 0,0 l/m 6,4 km/h (2 Bft) SW 225 0 min 0,000 mm 0,0 UV-I 0 W/m -3,3 C -5,6 C 8,0 km/h (2 Bft) 100,00 %
25.11.2020 22:31 -3,1 C 98 % 1025,3 hPa 0,0 l/m 6,4 km/h (2 Bft) SW 225 0 min 0,000 mm 0,0 UV-I 0 W/m -3,4 C -5,8 C 8,0 km/h (2 Bft) 95,65 %
25.11.2020 22:30 -3,1 C 98 % 1025,3 hPa 0,0 l/m 4,8 km/h (1 Bft) SW 225 0 min 0,000 mm 0,0 UV-I 0 W/m -3,4 C -5,0 C 8,0 km/h (2 Bft) 100,00 %
25.11.2020 22:29 -3,1 C 98 % 1025,3 hPa 0,0 l/m 4,8 km/h (1 Bft) SW 225 0 min 0,000 mm 0,0 UV-I 0 W/m -3,4 C -5,0 C 6,4 km/h (2 Bft) 95,65 %
25.11.2020 22:28 -3,0 C 98 % 1025,4 hPa 0,0 l/m 8,0 km/h (2 Bft) SW 225 0 min 0,000 mm 0,0 UV-I 0 W/m -3,3 C -6,3 C 9,7 km/h (2 Bft) 100,00 %
25.11.2020 22:27 -3,1 C 98 % 1025,4 hPa 0,0 l/m 6,4 km/h (2 Bft) SW 225 0 min 0,000 mm 0,0 UV-I 0 W/m -3,4 C -5,8 C 8,0 km/h (2 Bft) 100,00 %
25.11.2020 22:26 -3,1 C 98 % 1025,3 hPa 0,0 l/m 6,4 km/h (2 Bft) W-SW 247 0 min 0,000 mm 0,0 UV-I 0 W/m -3,4 C -5,8 C 8,0 km/h (2 Bft) 95,65 %
25.11.2020 22:25 -3,1 C 98 % 1025,4 hPa 0,0 l/m 6,4 km/h (2 Bft) W-SW 247 0 min 0,000 mm 0,0 UV-I 0 W/m -3,4 C -5,8 C 6,4 km/h (2 Bft) 100,00 %
25.11.2020 22:24 -3,1 C 98 % 1025,4 hPa 0,0 l/m 6,4 km/h (2 Bft) W-SW 247 0 min 0,000 mm 0,0 UV-I 0 W/m -3,4 C -5,8 C 6,4 km/h (2 Bft) 100,00 %
25.11.2020 22:23 -3,1 C 98 % 1025,3 hPa 0,0 l/m 6,4 km/h (2 Bft) SW 225 0 min 0,000 mm 0,0 UV-I 0 W/m -3,4 C -5,8 C 8,0 km/h (2 Bft) 100,00 %
25.11.2020 22:22 -3,1 C 98 % 1025,3 hPa 0,0 l/m 6,4 km/h (2 Bft) SW 225 0 min 0,000 mm 0,0 UV-I 0 W/m -3,4 C -5,8 C 8,0 km/h (2 Bft) 100,00 %
25.11.2020 22:21 -3,1 C 98 % 1025,4 hPa 0,0 l/m 6,4 km/h (2 Bft) W-SW 247 0 min 0,000 mm 0,0 UV-I 0 W/m -3,4 C -5,8 C 8,0 km/h (2 Bft) 100,00 %
25.11.2020 22:20 -3,1 C 98 % 1025,4 hPa 0,0 l/m 6,4 km/h (2 Bft) W-SW 247 0 min 0,000 mm 0,0 UV-I 0 W/m -3,4 C -5,8 C 8,0 km/h (2 Bft) 95,65 %
25.11.2020 22:19 -3,1 C 98 % 1025,5 hPa 0,0 l/m 8,0 km/h (2 Bft) W-SW 247 0 min 0,000 mm 0,0 UV-I 0 W/m -3,4 C -6,4 C 9,7 km/h (2 Bft) 100,00 %
25.11.2020 22:18 -3,1 C 98 % 1025,5 hPa 0,0 l/m 8,0 km/h (2 Bft) SW 225 0 min 0,000 mm 0,0 UV-I 0 W/m -3,4 C -6,4 C 11,3 km/h (2 Bft) 100,00 %
25.11.2020 22:17 -3,2 C 98 % 1025,5 hPa 0,0 l/m 6,4 km/h (2 Bft) W-SW 247 0 min 0,000 mm 0,0 UV-I 0 W/m -3,5 C -5,9 C 9,7 km/h (2 Bft) 91,30 %
25.11.2020 22:16 -3,2 C 98 % 1025,5 hPa 0,0 l/m 6,4 km/h (2 Bft) W-SW 247 0 min 0,000 mm 0,0 UV-I 0 W/m -3,5 C -5,9 C 11,3 km/h (2 Bft) 100,00 %
25.11.2020 22:15 -3,2 C 98 % 1025,3 hPa 0,0 l/m 8,0 km/h (2 Bft) W-SW 247 0 min 0,000 mm 0,0 UV-I 0 W/m -3,5 C -6,5 C 11,3 km/h (2 Bft) 95,65 %
25.11.2020 22:14 -3,2 C 98 % 1025,4 hPa 0,0 l/m 6,4 km/h (2 Bft) W-SW 247 0 min 0,000 mm 0,0 UV-I 0 W/m -3,5 C -5,9 C 8,0 km/h (2 Bft) 95,65 %
25.11.2020 22:13 -3,2 C 98 % 1025,4 hPa 0,0 l/m 6,4 km/h (2 Bft) W-SW 247 0 min 0,000 mm 0,0 UV-I 0 W/m -3,5 C -5,9 C 9,7 km/h (2 Bft) 100,00 %
25.11.2020 22:12 -3,2 C 98 % 1025,3 hPa 0,0 l/m 6,4 km/h (2 Bft) W-SW 247 0 min 0,000 mm 0,0 UV-I 0 W/m -3,5 C -5,9 C 8,0 km/h (2 Bft) 100,00 %
25.11.2020 22:11 -3,2 C 98 % 1025,4 hPa 0,0 l/m 6,4 km/h (2 Bft) W-SW 247 0 min 0,000 mm 0,0 UV-I 0 W/m -3,5 C -5,9 C 8,0 km/h (2 Bft) 95,65 %
25.11.2020 22:10 -3,2 C 98 % 1025,3 hPa 0,0 l/m 6,4 km/h (2 Bft) W-SW 247 0 min 0,000 mm 0,0 UV-I 0 W/m -3,5 C -5,9 C 8,0 km/h (2 Bft) 95,65 %
25.11.2020 22:09 -3,2 C 98 % 1025,4 hPa 0,0 l/m 6,4 km/h (2 Bft) SW 225 0 min 0,000 mm 0,0 UV-I 0 W/m -3,5 C -5,9 C 8,0 km/h (2 Bft) 100,00 %
25.11.2020 22:08 -3,1 C 98 % 1025,3 hPa 0,0 l/m 6,4 km/h (2 Bft) W-SW 247 0 min 0,000 mm 0,0 UV-I 0 W/m -3,4 C -5,8 C 8,0 km/h (2 Bft) 100,00 %
25.11.2020 22:07 -3,2 C 98 % 1025,3 hPa 0,0 l/m 6,4 km/h (2 Bft) SW 225 0 min 0,000 mm 0,0 UV-I 0 W/m -3,5 C -5,9 C 9,7 km/h (2 Bft) 100,00 %
25.11.2020 22:06 -3,1 C 98 % 1025,3 hPa 0,0 l/m 6,4 km/h (2 Bft) W-SW 247 0 min 0,000 mm 0,0 UV-I 0 W/m -3,4 C -5,8 C 8,0 km/h (2 Bft) 100,00 %
25.11.2020 22:05 -3,1 C 98 % 1025,3 hPa 0,0 l/m 8,0 km/h (2 Bft) W-SW 247 0 min 0,000 mm 0,0 UV-I 0 W/m -3,4 C -6,4 C 9,7 km/h (2 Bft) 100,00 %
25.11.2020 22:04 -3,1 C 98 % 1025,3 hPa 0,0 l/m 6,4 km/h (2 Bft) W 270 0 min 0,000 mm 0,0 UV-I 0 W/m -3,4 C -5,8 C 6,4 km/h (2 Bft) 95,65 %
25.11.2020 22:03 -3,0 C 98 % 1025,4 hPa 0,0 l/m 6,4 km/h (2 Bft) W-SW 247 0 min 0,000 mm 0,0 UV-I 0 W/m -3,3 C -5,6 C 6,4 km/h (2 Bft) 86,96 %
25.11.2020 22:02 -3,0 C 98 % 1025,3 hPa 0,0 l/m 6,4 km/h (2 Bft) W-SW 247 0 min 0,000 mm 0,0 UV-I 0 W/m -3,3 C -5,6 C 8,0 km/h (2 Bft) 100,00 %
25.11.2020 22:01 -3,0 C 98 % 1025,4 hPa 0,0 l/m 4,8 km/h (1 Bft) SW 225 0 min 0,000 mm 0,0 UV-I 0 W/m -3,3 C -4,9 C 6,4 km/h (2 Bft) 100,00 %
25.11.2020 22:00 -3,0 C 98 % 1025,3 hPa 0,0 l/m 4,8 km/h (1 Bft) W-SW 247 0 min 0,000 mm 0,0 UV-I 0 W/m -3,3 C -4,9 C 6,4 km/h (2 Bft) 100,00 %
25.11.2020 21:59 -2,9 C 98 % 1025,4 hPa 0,0 l/m 4,8 km/h (1 Bft) W 270 0 min 0,000 mm 0,0 UV-I 0 W/m -3,2 C -4,8 C 6,4 km/h (2 Bft) 100,00 %
25.11.2020 21:58 -2,9 C 98 % 1025,4 hPa 0,0 l/m 4,8 km/h (1 Bft) W-SW 247 0 min 0,000 mm 0,0 UV-I 0 W/m -3,2 C -4,8 C 4,8 km/h (1 Bft) 95,65 %
25.11.2020 21:57 -2,9 C 98 % 1025,3 hPa 0,0 l/m 6,4 km/h (2 Bft) W-SW 247 0 min 0,000 mm 0,0 UV-I 0 W/m -3,2 C -5,5 C 6,4 km/h (2 Bft) 95,65 %
25.11.2020 21:56 -2,9 C 98 % 1025,4 hPa 0,0 l/m 6,4 km/h (2 Bft) SW 225 0 min 0,000 mm 0,0 UV-I 0 W/m -3,2 C -5,5 C 6,4 km/h (2 Bft) 100,00 %
25.11.2020 21:55 -2,9 C 98 % 1025,4 hPa 0,0 l/m 6,4 km/h (2 Bft) W-SW 247 0 min 0,000 mm 0,0 UV-I 0 W/m -3,2 C -5,5 C 8,0 km/h (2 Bft) 95,65 %
25.11.2020 21:54 -2,9 C 98 % 1025,4 hPa 0,0 l/m 6,4 km/h (2 Bft) SW 225 0 min 0,000 mm 0,0 UV-I 0 W/m -3,2 C -5,5 C 6,4 km/h (2 Bft) 100,00 %
25.11.2020 21:53 -2,9 C 98 % 1025,4 hPa 0,0 l/m 4,8 km/h (1 Bft) W-SW 247 0 min 0,000 mm 0,0 UV-I 0 W/m -3,2 C -4,8 C 6,4 km/h (2 Bft) 100,00 %
25.11.2020 21:52 -2,9 C 98 % 1025,4 hPa 0,0 l/m 6,4 km/h (2 Bft) SW 225 0 min 0,000 mm 0,0 UV-I 0 W/m -3,2 C -5,5 C 8,0 km/h (2 Bft) 95,65 %
25.11.2020 21:51 -2,9 C 98 % 1025,4 hPa 0,0 l/m 6,4 km/h (2 Bft) SW 225 0 min 0,000 mm 0,0 UV-I 0 W/m -3,2 C -5,5 C 8,0 km/h (2 Bft) 95,65 %
25.11.2020 21:50 -2,8 C 98 % 1025,4 hPa 0,0 l/m 6,4 km/h (2 Bft) W-SW 247 0 min 0,000 mm 0,0 UV-I 0 W/m -3,1 C -5,4 C 6,4 km/h (2 Bft) 100,00 %
25.11.2020 21:49 -2,8 C 98 % 1025,4 hPa 0,0 l/m 4,8 km/h (1 Bft) W-SW 247 0 min 0,000 mm 0,0 UV-I 0 W/m -3,1 C -4,7 C 8,0 km/h (2 Bft) 95,65 %
25.11.2020 21:48 -2,9 C 98 % 1025,5 hPa 0,0 l/m 4,8 km/h (1 Bft) SW 225 0 min 0,000 mm 0,0 UV-I 0 W/m -3,2 C -4,8 C 4,8 km/h (1 Bft) 95,65 %
25.11.2020 21:47 -2,9 C 98 % 1025,4 hPa 0,0 l/m 3,2 km/h (1 Bft) SW 225 0 min 0,000 mm 0,0 UV-I 0 W/m -3,2 C -2,9 C 4,8 km/h (1 Bft) 100,00 %
25.11.2020 21:46 -2,8 C 98 % 1025,5 hPa 0,0 l/m 4,8 km/h (1 Bft) SW 225 0 min 0,000 mm 0,0 UV-I 0 W/m -3,1 C -4,7 C 4,8 km/h (1 Bft) 100,00 %
25.11.2020 21:45 -2,8 C 98 % 1025,5 hPa 0,0 l/m 3,2 km/h (1 Bft) W-SW 247 0 min 0,000 mm 0,0 UV-I 0 W/m -3,1 C -2,8 C 6,4 km/h (2 Bft) 95,65 %
25.11.2020 21:44 -2,8 C 98 % 1025,5 hPa 0,0 l/m 1,6 km/h (1 Bft) W 270 0 min 0,000 mm 0,0 UV-I 0 W/m -3,1 C -2,8 C 3,2 km/h (1 Bft) 100,00 %
25.11.2020 21:43 -2,8 C 98 % 1025,4 hPa 0,0 l/m 1,6 km/h (1 Bft) W 270 0 min 0,000 mm 0,0 UV-I 0 W/m -3,1 C -2,8 C 3,2 km/h (1 Bft) 100,00 %
25.11.2020 21:42 -2,8 C 98 % 1025,5 hPa 0,0 l/m 3,2 km/h (1 Bft) W 270 0 min 0,000 mm 0,0 UV-I 0 W/m -3,1 C -2,8 C 4,8 km/h (1 Bft) 100,00 %
25.11.2020 21:41 -2,8 C 98 % 1025,5 hPa 0,0 l/m 3,2 km/h (1 Bft) W-SW 247 0 min 0,000 mm 0,0 UV-I 0 W/m -3,1 C -2,8 C 4,8 km/h (1 Bft) 100,00 %
25.11.2020 21:40 -2,8 C 98 % 1025,4 hPa 0,0 l/m 3,2 km/h (1 Bft) W-SW 247 0 min 0,000 mm 0,0 UV-I 0 W/m -3,1 C -2,8 C 4,8 km/h (1 Bft) 100,00 %
25.11.2020 21:39 -2,8 C 98 % 1025,5 hPa 0,0 l/m 3,2 km/h (1 Bft) W-SW 247 0 min 0,000 mm 0,0 UV-I 0 W/m -3,1 C -2,8 C 3,2 km/h (1 Bft) 100,00 %
25.11.2020 21:38 -2,8 C 98 % 1025,4 hPa 0,0 l/m 1,6 km/h (1 Bft) W-SW 247 0 min 0,000 mm 0,0 UV-I 0 W/m -3,1 C -2,8 C 3,2 km/h (1 Bft) 95,65 %
25.11.2020 21:37 -2,8 C 98 % 1025,4 hPa 0,0 l/m 1,6 km/h (1 Bft) W-SW 247 0 min 0,000 mm 0,0 UV-I 0 W/m -3,1 C -2,8 C 3,2 km/h (1 Bft) 100,00 %
25.11.2020 21:36 -2,8 C 98 % 1025,5 hPa 0,0 l/m 3,2 km/h (1 Bft) W-SW 247 0 min 0,000 mm 0,0 UV-I 0 W/m -3,1 C -2,8 C 3,2 km/h (1 Bft) 100,00 %
25.11.2020 21:35 -2,8 C 98 % 1025,4 hPa 0,0 l/m 3,2 km/h (1 Bft) W-SW 247 0 min 0,000 mm 0,0 UV-I 0 W/m -3,1 C -2,8 C 3,2 km/h (1 Bft) 100,00 %
25.11.2020 21:34 -2,8 C 98 % 1025,4 hPa 0,0 l/m 1,6 km/h (1 Bft) W-SW 247 0 min 0,000 mm 0,0 UV-I 0 W/m -3,1 C -2,8 C 3,2 km/h (1 Bft) 100,00 %
25.11.2020 21:33 -2,8 C 98 % 1025,4 hPa 0,0 l/m 3,2 km/h (1 Bft) W-SW 247 0 min 0,000 mm 0,0 UV-I 0 W/m -3,1 C -2,8 C 4,8 km/h (1 Bft) 100,00 %
25.11.2020 21:32 -2,8 C 98 % 1025,4 hPa 0,0 l/m 0,0 km/h (0 Bft) W-SW 247 0 min 0,000 mm 0,0 UV-I 0 W/m -3,1 C -2,8 C 1,6 km/h (1 Bft) 100,00 %
25.11.2020 21:31 -2,8 C 98 % 1025,4 hPa 0,0 l/m 0,0 km/h (0 Bft) N 0 0 min 0,000 mm 0,0 UV-I 0 W/m -3,1 C -2,8 C 0,0 km/h (0 Bft) 100,00 %
25.11.2020 21:30 -2,8 C 98 % 1025,4 hPa 0,0 l/m 0,0 km/h (0 Bft) N 0 0 min 0,000 mm 0,0 UV-I 0 W/m -3,1 C -2,8 C 0,0 km/h (0 Bft) 100,00 %
25.11.2020 21:29 -2,8 C 98 % 1025,4 hPa 0,0 l/m 0,0 km/h (0 Bft) N 0 0 min 0,000 mm 0,0 UV-I 0 W/m -3,1 C -2,8 C 0,0 km/h (0 Bft) 100,00 %
25.11.2020 21:28 -2,7 C 98 % 1025,4 hPa 0,0 l/m 0,0 km/h (0 Bft) N 0 0 min 0,000 mm 0,0 UV-I 0 W/m -3,0 C -2,7 C 0,0 km/h (0 Bft) 100,00 %
25.11.2020 21:27 -2,8 C 98 % 1025,4 hPa 0,0 l/m 0,0 km/h (0 Bft) N 0 0 min 0,000 mm 0,0 UV-I 0 W/m -3,1 C -2,8 C 0,0 km/h (0 Bft) 95,65 %
25.11.2020 21:26 -2,8 C 98 % 1025,3 hPa 0,0 l/m 1,6 km/h (1 Bft) W-SW 247 0 min 0,000 mm 0,0 UV-I 0 W/m -3,1 C -2,8 C 3,2 km/h (1 Bft) 100,00 %
25.11.2020 21:25 -2,8 C 98 % 1025,3 hPa 0,0 l/m 3,2 km/h (1 Bft) W-SW 247 0 min 0,000 mm 0,0 UV-I 0 W/m -3,1 C -2,8 C 3,2 km/h (1 Bft) 100,00 %
25.11.2020 21:24 -2,7 C 98 % 1025,4 hPa 0,0 l/m 0,0 km/h (0 Bft) W-SW 247 0 min 0,000 mm 0,0 UV-I 0 W/m -3,0 C -2,7 C 1,6 km/h (1 Bft) 100,00 %
25.11.2020 21:23 -2,7 C 98 % 1025,3 hPa 0,0 l/m 1,6 km/h (1 Bft) W-SW 247 0 min 0,000 mm 0,0 UV-I 0 W/m -3,0 C -2,7 C 3,2 km/h (1 Bft) 100,00 %
25.11.2020 21:22 -2,7 C 98 % 1025,4 hPa 0,0 l/m 1,6 km/h (1 Bft) W-SW 247 0 min 0,000 mm 0,0 UV-I 0 W/m -3,0 C -2,7 C 1,6 km/h (1 Bft) 100,00 %
25.11.2020 21:21 -2,7 C 98 % 1025,3 hPa 0,0 l/m 1,6 km/h (1 Bft) W-SW 247 0 min 0,000 mm 0,0 UV-I 0 W/m -3,0 C -2,7 C 3,2 km/h (1 Bft) 100,00 %
25.11.2020 21:20 -2,7 C 98 % 1025,3 hPa 0,0 l/m 3,2 km/h (1 Bft) W-SW 247 0 min 0,000 mm 0,0 UV-I 0 W/m -3,0 C -2,7 C 3,2 km/h (1 Bft) 100,00 %
25.11.2020 21:19 -2,7 C 98 % 1025,3 hPa 0,0 l/m 3,2 km/h (1 Bft) W-SW 247 0 min 0,000 mm 0,0 UV-I 0 W/m -3,0 C -2,7 C 3,2 km/h (1 Bft) 95,65 %
25.11.2020 21:18 -2,7 C 98 % 1025,2 hPa 0,0 l/m 3,2 km/h (1 Bft) W-SW 247 0 min 0,000 mm 0,0 UV-I 0 W/m -3,0 C -2,7 C 4,8 km/h (1 Bft) 95,65 %
25.11.2020 21:17 -2,7 C 98 % 1025,3 hPa 0,0 l/m 1,6 km/h (1 Bft) W-SW 247 0 min 0,000 mm 0,0 UV-I 0 W/m -3,0 C -2,7 C 3,2 km/h (1 Bft) 100,00 %
25.11.2020 21:16 -2,7 C 98 % 1025,3 hPa 0,0 l/m 1,6 km/h (1 Bft) W-SW 247 0 min 0,000 mm 0,0 UV-I 0 W/m -3,0 C -2,7 C 3,2 km/h (1 Bft) 100,00 %
25.11.2020 21:15 -2,7 C 98 % 1025,2 hPa 0,0 l/m 3,2 km/h (1 Bft) W-SW 247 0 min 0,000 mm 0,0 UV-I 0 W/m -3,0 C -2,7 C 4,8 km/h (1 Bft) 95,65 %
25.11.2020 21:14 -2,7 C 98 % 1025,2 hPa 0,0 l/m 3,2 km/h (1 Bft) W-SW 247 0 min 0,000 mm 0,0 UV-I 0 W/m -3,0 C -2,7 C 6,4 km/h (2 Bft) 100,00 %
25.11.2020 21:13 -2,7 C 98 % 1025,2 hPa 0,0 l/m 4,8 km/h (1 Bft) W-SW 247 0 min 0,000 mm 0,0 UV-I 0 W/m -3,0 C -4,5 C 6,4 km/h (2 Bft) 100,00 %
25.11.2020 21:12 -2,6 C 98 % 1025,4 hPa 0,0 l/m 6,4 km/h (2 Bft) W-SW 247 0 min 0,000 mm 0,0 UV-I 0 W/m -2,9 C -5,2 C 6,4 km/h (2 Bft) 100,00 %
25.11.2020 21:11 -2,6 C 98 % 1025,3 hPa 0,0 l/m 4,8 km/h (1 Bft) W-SW 247 0 min 0,000 mm 0,0 UV-I 0 W/m -2,9 C -4,4 C 6,4 km/h (2 Bft) 100,00 %
25.11.2020 21:10 -2,6 C 98 % 1025,3 hPa 0,0 l/m 4,8 km/h (1 Bft) SW 225 0 min 0,000 mm 0,0 UV-I 0 W/m -2,9 C -4,4 C 6,4 km/h (2 Bft) 95,65 %
25.11.2020 21:09 -2,6 C 98 % 1025,3 hPa 0,0 l/m 4,8 km/h (1 Bft) W-SW 247 0 min 0,000 mm 0,0 UV-I 0 W/m -2,9 C -4,4 C 6,4 km/h (2 Bft) 100,00 %
25.11.2020 21:08 -2,6 C 98 % 1025,3 hPa 0,0 l/m 4,8 km/h (1 Bft) W-SW 247 0 min 0,000 mm 0,0 UV-I 0 W/m -2,9 C -4,4 C 8,0 km/h (2 Bft) 100,00 %
25.11.2020 21:07 -2,6 C 98 % 1025,3 hPa 0,0 l/m 4,8 km/h (1 Bft) SW 225 0 min 0,000 mm 0,0 UV-I 0 W/m -2,9 C -4,4 C 6,4 km/h (2 Bft) 100,00 %
25.11.2020 21:06 -2,6 C 98 % 1025,3 hPa 0,0 l/m 6,4 km/h (2 Bft) SW 225 0 min 0,000 mm 0,0 UV-I 0 W/m -2,9 C -5,2 C 8,0 km/h (2 Bft) 100,00 %
25.11.2020 21:05 -2,6 C 98 % 1025,3 hPa 0,0 l/m 4,8 km/h (1 Bft) SW 225 0 min 0,000 mm 0,0 UV-I 0 W/m -2,9 C -4,4 C 8,0 km/h (2 Bft) 100,00 %
25.11.2020 21:04 -2,6 C 98 % 1025,3 hPa 0,0 l/m 4,8 km/h (1 Bft) SW 225 0 min 0,000 mm 0,0 UV-I 0 W/m -2,9 C -4,4 C 6,4 km/h (2 Bft) 100,00 %
25.11.2020 21:03 -2,6 C 98 % 1025,3 hPa 0,0 l/m 6,4 km/h (2 Bft) W-SW 247 0 min 0,000 mm 0,0 UV-I 0 W/m -2,9 C -5,2 C 8,0 km/h (2 Bft) 100,00 %
25.11.2020 21:02 -2,6 C 98 % 1025,4 hPa 0,0 l/m 6,4 km/h (2 Bft) W-SW 247 0 min 0,000 mm 0,0 UV-I 0 W/m -2,9 C -5,2 C 8,0 km/h (2 Bft) 100,00 %
25.11.2020 21:01 -2,6 C 98 % 1025,3 hPa 0,0 l/m 6,4 km/h (2 Bft) W-SW 247 0 min 0,000 mm 0,0 UV-I 0 W/m -2,9 C -5,2 C 11,3 km/h (2 Bft) 100,00 %
25.11.2020 21:00 -2,6 C 98 % 1025,3 hPa 0,0 l/m 6,4 km/h (2 Bft) W-SW 247 0 min 0,000 mm 0,0 UV-I 0 W/m -2,9 C -5,2 C 8,0 km/h (2 Bft) 100,00 %
25.11.2020 20:59 -2,6 C 98 % 1025,3 hPa 0,0 l/m 4,8 km/h (1 Bft) W-SW 247 0 min 0,000 mm 0,0 UV-I 0 W/m -2,9 C -4,4 C 8,0 km/h (2 Bft) 100,00 %
25.11.2020 20:58 -2,6 C 98 % 1025,3 hPa 0,0 l/m 6,4 km/h (2 Bft) W-SW 247 0 min 0,000 mm 0,0 UV-I 0 W/m -2,9 C -5,2 C 9,7 km/h (2 Bft) 95,65 %
25.11.2020 20:57 -2,6 C 98 % 1025,4 hPa 0,0 l/m 6,4 km/h (2 Bft) W-SW 247 0 min 0,000 mm 0,0 UV-I 0 W/m -2,9 C -5,2 C 8,0 km/h (2 Bft) 100,00 %
25.11.2020 20:56 -2,6 C 98 % 1025,4 hPa 0,0 l/m 4,8 km/h (1 Bft) W 270 0 min 0,000 mm 0,0 UV-I 0 W/m -2,9 C -4,4 C 6,4 km/h (2 Bft) 100,00 %
25.11.2020 20:55 -2,6 C 98 % 1025,4 hPa 0,0 l/m 4,8 km/h (1 Bft) W-SW 247 0 min 0,000 mm 0,0 UV-I 0 W/m -2,9 C -4,4 C 6,4 km/h (2 Bft) 95,65 %
25.11.2020 20:54 -2,6 C 98 % 1025,4 hPa 0,0 l/m 6,4 km/h (2 Bft) W-SW 247 0 min 0,000 mm 0,0 UV-I 0 W/m -2,9 C -5,2 C 8,0 km/h (2 Bft) 100,00 %
25.11.2020 20:53 -2,6 C 98 % 1025,4 hPa 0,0 l/m 6,4 km/h (2 Bft) W-SW 247 0 min 0,000 mm 0,0 UV-I 0 W/m -2,9 C -5,2 C 8,0 km/h (2 Bft) 100,00 %
25.11.2020 20:52 -2,6 C 98 % 1025,4 hPa 0,0 l/m 4,8 km/h (1 Bft) W-SW 247 0 min 0,000 mm 0,0 UV-I 0 W/m -2,9 C -4,4 C 6,4 km/h (2 Bft) 95,65 %
25.11.2020 20:51 -2,6 C 98 % 1025,4 hPa 0,0 l/m 4,8 km/h (1 Bft) W-SW 247 0 min 0,000 mm 0,0 UV-I 0 W/m -2,9 C -4,4 C 6,4 km/h (2 Bft) 100,00 %
25.11.2020 20:50 -2,6 C 98 % 1025,4 hPa 0,0 l/m 4,8 km/h (1 Bft) W-SW 247 0 min 0,000 mm 0,0 UV-I 0 W/m -2,9 C -4,4 C 6,4 km/h (2 Bft) 100,00 %
25.11.2020 20:49 -2,6 C 98 % 1025,4 hPa 0,0 l/m 4,8 km/h (1 Bft) W-SW 247 0 min 0,000 mm 0,0 UV-I 0 W/m -2,9 C -4,4 C 6,4 km/h (2 Bft) 100,00 %
25.11.2020 20:48 -2,6 C 98 % 1025,4 hPa 0,0 l/m 4,8 km/h (1 Bft) SW 225 0 min 0,000 mm 0,0 UV-I 0 W/m -2,9 C -4,4 C 6,4 km/h (2 Bft) 100,00 %
25.11.2020 20:47 -2,6 C 98 % 1025,4 hPa 0,0 l/m 4,8 km/h (1 Bft) W-SW 247 0 min 0,000 mm 0,0 UV-I 0 W/m -2,9 C -4,4 C 8,0 km/h (2 Bft) 100,00 %
25.11.2020 20:46 -2,6 C 98 % 1025,5 hPa 0,0 l/m 4,8 km/h (1 Bft) W-SW 247 0 min 0,000 mm 0,0 UV-I 0 W/m -2,9 C -4,4 C 6,4 km/h (2 Bft) 100,00 %
25.11.2020 20:45 -2,6 C 98 % 1025,4 hPa 0,0 l/m 4,8 km/h (1 Bft) W-SW 247 0 min 0,000 mm 0,0 UV-I 0 W/m -2,9 C -4,4 C 6,4 km/h (2 Bft) 95,65 %
25.11.2020 20:44 -2,6 C 98 % 1025,4 hPa 0,0 l/m 3,2 km/h (1 Bft) W-SW 247 0 min 0,000 mm 0,0 UV-I 0 W/m -2,9 C -2,6 C 4,8 km/h (1 Bft) 100,00 %
25.11.2020 20:43 -2,6 C 98 % 1025,4 hPa 0,0 l/m 3,2 km/h (1 Bft) W-SW 247 0 min 0,000 mm 0,0 UV-I 0 W/m -2,9 C -2,6 C 4,8 km/h (1 Bft) 95,65 %
25.11.2020 20:42 -2,6 C 98 % 1025,4 hPa 0,0 l/m 4,8 km/h (1 Bft) SW 225 0 min 0,000 mm 0,0 UV-I 0 W/m -2,9 C -4,4 C 4,8 km/h (1 Bft) 100,00 %
25.11.2020 20:41 -2,6 C 98 % 1025,4 hPa 0,0 l/m 3,2 km/h (1 Bft) W-SW 247 0 min 0,000 mm 0,0 UV-I 0 W/m -2,9 C -2,6 C 4,8 km/h (1 Bft) 100,00 %
25.11.2020 20:40 -2,6 C 98 % 1025,3 hPa 0,0 l/m 3,2 km/h (1 Bft) W-SW 247 0 min 0,000 mm 0,0 UV-I 0 W/m -2,9 C -2,6 C 3,2 km/h (1 Bft) 100,00 %
25.11.2020 20:39 -2,6 C 98 % 1025,4 hPa 0,0 l/m 3,2 km/h (1 Bft) SW 225 0 min 0,000 mm 0,0 UV-I 0 W/m -2,9 C -2,6 C 4,8 km/h (1 Bft) 100,00 %
25.11.2020 20:38 -2,6 C 98 % 1025,4 hPa 0,0 l/m 3,2 km/h (1 Bft) SW 225 0 min 0,000 mm 0,0 UV-I 0 W/m -2,9 C -2,6 C 4,8 km/h (1 Bft) 100,00 %
25.11.2020 20:37 -2,6 C 98 % 1025,4 hPa 0,0 l/m 3,2 km/h (1 Bft) W-SW 247 0 min 0,000 mm 0,0 UV-I 0 W/m -2,9 C -2,6 C 4,8 km/h (1 Bft) 100,00 %
25.11.2020 20:36 -2,6 C 98 % 1025,4 hPa 0,0 l/m 3,2 km/h (1 Bft) W 270 0 min 0,000 mm 0,0 UV-I 0 W/m -2,9 C -2,6 C 4,8 km/h (1 Bft) 100,00 %
25.11.2020 20:35 -2,6 C 98 % 1025,4 hPa 0,0 l/m 3,2 km/h (1 Bft) W 270 0 min 0,000 mm 0,0 UV-I 0 W/m -2,9 C -2,6 C 4,8 km/h (1 Bft) 100,00 %
25.11.2020 20:34 -2,6 C 98 % 1025,3 hPa 0,0 l/m 3,2 km/h (1 Bft) W-SW 247 0 min 0,000 mm 0,0 UV-I 0 W/m -2,9 C -2,6 C 4,8 km/h (1 Bft) 100,00 %
25.11.2020 20:33 -2,6 C 98 % 1025,4 hPa 0,0 l/m 4,8 km/h (1 Bft) SW 225 0 min 0,000 mm 0,0 UV-I 0 W/m -2,9 C -4,4 C 6,4 km/h (2 Bft) 100,00 %
25.11.2020 20:32 -2,6 C 98 % 1025,4 hPa 0,0 l/m 4,8 km/h (1 Bft) SW 225 0 min 0,000 mm 0,0 UV-I 0 W/m -2,9 C -4,4 C 6,4 km/h (2 Bft) 100,00 %
25.11.2020 20:31 -2,6 C 98 % 1025,3 hPa 0,0 l/m 6,4 km/h (2 Bft) SW 225 0 min 0,000 mm 0,0 UV-I 0 W/m -2,9 C -5,2 C 8,0 km/h (2 Bft) 91,30 %
25.11.2020 20:30 -2,6 C 98 % 1025,4 hPa 0,0 l/m 4,8 km/h (1 Bft) SW 225 0 min 0,000 mm 0,0 UV-I 0 W/m -2,9 C -4,4 C 8,0 km/h (2 Bft) 100,00 %
25.11.2020 20:29 -2,6 C 98 % 1025,4 hPa 0,0 l/m 6,4 km/h (2 Bft) W-SW 247 0 min 0,000 mm 0,0 UV-I 0 W/m -2,9 C -5,2 C 8,0 km/h (2 Bft) 100,00 %
25.11.2020 20:28 -2,6 C 98 % 1025,3 hPa 0,0 l/m 6,4 km/h (2 Bft) W-SW 247 0 min 0,000 mm 0,0 UV-I 0 W/m -2,9 C -5,2 C 9,7 km/h (2 Bft) 100,00 %
25.11.2020 20:27 -2,6 C 98 % 1025,3 hPa 0,0 l/m 6,4 km/h (2 Bft) SW 225 0 min 0,000 mm 0,0 UV-I 0 W/m -2,9 C -5,2 C 9,7 km/h (2 Bft) 100,00 %
25.11.2020 20:26 -2,7 C 98 % 1025,3 hPa 0,0 l/m 6,4 km/h (2 Bft) W-SW 247 0 min 0,000 mm 0,0 UV-I 0 W/m -3,0 C -5,3 C 6,4 km/h (2 Bft) 95,65 %
25.11.2020 20:25 -2,6 C 98 % 1025,4 hPa 0,0 l/m 4,8 km/h (1 Bft) W-SW 247 0 min 0,000 mm 0,0 UV-I 0 W/m -2,9 C -4,4 C 6,4 km/h (2 Bft) 100,00 %
25.11.2020 20:24 -2,7 C 98 % 1025,4 hPa 0,0 l/m 6,4 km/h (2 Bft) W-SW 247 0 min 0,000 mm 0,0 UV-I 0 W/m -3,0 C -5,3 C 8,0 km/h (2 Bft) 95,65 %
25.11.2020 20:23 -2,7 C 98 % 1025,2 hPa 0,0 l/m 8,0 km/h (2 Bft) W-SW 247 0 min 0,000 mm 0,0 UV-I 0 W/m -3,0 C -5,9 C 9,7 km/h (2 Bft) 95,65 %
25.11.2020 20:22 -2,7 C 98 % 1025,2 hPa 0,0 l/m 8,0 km/h (2 Bft) W-SW 247 0 min 0,000 mm 0,0 UV-I 0 W/m -3,0 C -5,9 C 11,3 km/h (2 Bft) 100,00 %
25.11.2020 20:21 -2,7 C 98 % 1025,3 hPa 0,0 l/m 6,4 km/h (2 Bft) W 270 0 min 0,000 mm 0,0 UV-I 0 W/m -3,0 C -5,3 C 12,9 km/h (3 Bft) 100,00 %
25.11.2020 20:20 -2,7 C 98 % 1025,2 hPa 0,0 l/m 8,0 km/h (2 Bft) W-SW 247 0 min 0,000 mm 0,0 UV-I 0 W/m -3,0 C -5,9 C 12,9 km/h (3 Bft) 95,65 %
25.11.2020 20:19 -2,7 C 98 % 1025,3 hPa 0,0 l/m 8,0 km/h (2 Bft) SW 225 0 min 0,000 mm 0,0 UV-I 0 W/m -3,0 C -5,9 C 12,9 km/h (3 Bft) 100,00 %
25.11.2020 20:18 -2,7 C 98 % 1025,4 hPa 0,0 l/m 6,4 km/h (2 Bft) W-SW 247 0 min 0,000 mm 0,0 UV-I 0 W/m -3,0 C -5,3 C 8,0 km/h (2 Bft) 100,00 %
25.11.2020 20:17 -2,7 C 98 % 1025,3 hPa 0,0 l/m 6,4 km/h (2 Bft) SW 225 0 min 0,000 mm 0,0 UV-I 0 W/m -3,0 C -5,3 C 8,0 km/h (2 Bft) 95,65 %
25.11.2020 20:16 -2,7 C 98 % 1025,2 hPa 0,0 l/m 8,0 km/h (2 Bft) SW 225 0 min 0,000 mm 0,0 UV-I 0 W/m -3,0 C -5,9 C 9,7 km/h (2 Bft) 100,00 %
25.11.2020 20:15 -2,7 C 98 % 1025,3 hPa 0,0 l/m 6,4 km/h (2 Bft) W-SW 247 0 min 0,000 mm 0,0 UV-I 0 W/m -3,0 C -5,3 C 8,0 km/h (2 Bft) 100,00 %
25.11.2020 20:14 -2,7 C 98 % 1025,4 hPa 0,0 l/m 8,0 km/h (2 Bft) W-SW 247 0 min 0,000 mm 0,0 UV-I 0 W/m -3,0 C -5,9 C 9,7 km/h (2 Bft) 95,65 %
25.11.2020 20:13 -2,8 C 98 % 1025,3 hPa 0,0 l/m 6,4 km/h (2 Bft) W-SW 247 0 min 0,000 mm 0,0 UV-I 0 W/m -3,1 C -5,4 C 8,0 km/h (2 Bft) 100,00 %
25.11.2020 20:12 -2,7 C 98 % 1025,3 hPa 0,0 l/m 6,4 km/h (2 Bft) W-SW 247 0 min 0,000 mm 0,0 UV-I 0 W/m -3,0 C -5,3 C 8,0 km/h (2 Bft) 100,00 %
25.11.2020 20:11 -2,7 C 98 % 1025,2 hPa 0,0 l/m 6,4 km/h (2 Bft) W-SW 247 0 min 0,000 mm 0,0 UV-I 0 W/m -3,0 C -5,3 C 9,7 km/h (2 Bft) 100,00 %
25.11.2020 20:10 -2,7 C 98 % 1025,4 hPa 0,0 l/m 6,4 km/h (2 Bft) W 270 0 min 0,000 mm 0,0 UV-I 0 W/m -3,0 C -5,3 C 9,7 km/h (2 Bft) 100,00 %
25.11.2020 20:09 -2,7 C 98 % 1025,3 hPa 0,0 l/m 8,0 km/h (2 Bft) W-SW 247 0 min 0,000 mm 0,0 UV-I 0 W/m -3,0 C -5,9 C 11,3 km/h (2 Bft) 100,00 %
25.11.2020 20:08 -2,7 C 98 % 1025,2 hPa 0,0 l/m 8,0 km/h (2 Bft) W-SW 247 0 min 0,000 mm 0,0 UV-I 0 W/m -3,0 C -5,9 C 8,0 km/h (2 Bft) 100,00 %
25.11.2020 20:07 -2,7 C 98 % 1025,2 hPa 0,0 l/m 6,4 km/h (2 Bft) SW 225 0 min 0,000 mm 0,0 UV-I 0 W/m -3,0 C -5,3 C 8,0 km/h (2 Bft) 95,65 %
25.11.2020 20:06 -2,7 C 98 % 1025,3 hPa 0,0 l/m 6,4 km/h (2 Bft) SW 225 0 min 0,000 mm 0,0 UV-I 0 W/m -3,0 C -5,3 C 8,0 km/h (2 Bft) 100,00 %
25.11.2020 20:05 -2,7 C 98 % 1025,3 hPa 0,0 l/m 4,8 km/h (1 Bft) W-SW 247 0 min 0,000 mm 0,0 UV-I 0 W/m -3,0 C -4,5 C 8,0 km/h (2 Bft) 95,65 %
25.11.2020 20:04 -2,7 C 98 % 1025,3 hPa 0,0 l/m 6,4 km/h (2 Bft) SW 225 0 min 0,000 mm 0,0 UV-I 0 W/m -3,0 C -5,3 C 8,0 km/h (2 Bft) 100,00 %
25.11.2020 20:03 -2,7 C 98 % 1025,3 hPa 0,0 l/m 4,8 km/h (1 Bft) W-SW 247 0 min 0,000 mm 0,0 UV-I 0 W/m -3,0 C -4,5 C 6,4 km/h (2 Bft) 100,00 %
25.11.2020 20:02 -2,7 C 98 % 1025,2 hPa 0,0 l/m 3,2 km/h (1 Bft) W-SW 247 0 min 0,000 mm 0,0 UV-I 0 W/m -3,0 C -2,7 C 4,8 km/h (1 Bft) 100,00 %
25.11.2020 20:01 -2,7 C 98 % 1025,3 hPa 0,0 l/m 4,8 km/h (1 Bft) SW 225 0 min 0,000 mm 0,0 UV-I 0 W/m -3,0 C -4,5 C 6,4 km/h (2 Bft) 100,00 %
25.11.2020 20:00 -2,7 C 98 % 1025,3 hPa 0,0 l/m 3,2 km/h (1 Bft) SW 225 0 min 0,000 mm 0,0 UV-I 0 W/m -3,0 C -2,7 C 4,8 km/h (1 Bft) 95,65 %
25.11.2020 19:59 -2,7 C 98 % 1025,4 hPa 0,0 l/m 4,8 km/h (1 Bft) W-SW 247 0 min 0,000 mm 0,0 UV-I 0 W/m -3,0 C -4,5 C 6,4 km/h (2 Bft) 100,00 %
25.11.2020 19:58 -2,7 C 98 % 1025,3 hPa 0,0 l/m 6,4 km/h (2 Bft) W-SW 247 0 min 0,000 mm 0,0 UV-I 0 W/m -3,0 C -5,3 C 8,0 km/h (2 Bft) 100,00 %
25.11.2020 19:57 -2,7 C 98 % 1025,3 hPa 0,0 l/m 4,8 km/h (1 Bft) W-SW 247 0 min 0,000 mm 0,0 UV-I 0 W/m -3,0 C -4,5 C 6,4 km/h (2 Bft) 95,65 %
25.11.2020 19:56 -2,7 C 98 % 1025,3 hPa 0,0 l/m 6,4 km/h (2 Bft) SW 225 0 min 0,000 mm 0,0 UV-I 0 W/m -3,0 C -5,3 C 8,0 km/h (2 Bft) 100,00 %
25.11.2020 19:55 -2,7 C 98 % 1025,3 hPa 0,0 l/m 6,4 km/h (2 Bft) SW 225 0 min 0,000 mm 0,0 UV-I 0 W/m -3,0 C -5,3 C 8,0 km/h (2 Bft) 100,00 %
25.11.2020 19:54 -2,7 C 98 % 1025,3 hPa 0,0 l/m 6,4 km/h (2 Bft) W-SW 247 0 min 0,000 mm 0,0 UV-I 0 W/m -3,0 C -5,3 C 8,0 km/h (2 Bft) 100,00 %
25.11.2020 19:53 -2,7 C 98 % 1025,3 hPa 0,0 l/m 6,4 km/h (2 Bft) SW 225 0 min 0,000 mm 0,0 UV-I 0 W/m -3,0 C -5,3 C 8,0 km/h (2 Bft) 100,00 %
25.11.2020 19:52 -2,7 C 98 % 1025,2 hPa 0,0 l/m 4,8 km/h (1 Bft) W-SW 247 0 min 0,000 mm 0,0 UV-I 0 W/m -3,0 C -4,5 C 6,4 km/h (2 Bft) 100,00 %
25.11.2020 19:51 -2,7 C 98 % 1025,3 hPa 0,0 l/m 4,8 km/h (1 Bft) W-SW 247 0 min 0,000 mm 0,0 UV-I 0 W/m -3,0 C -4,5 C 6,4 km/h (2 Bft) 100,00 %
25.11.2020 19:50 -2,7 C 98 % 1025,3 hPa 0,0 l/m 4,8 km/h (1 Bft) W-SW 247 0 min 0,000 mm 0,0 UV-I 0 W/m -3,0 C -4,5 C 6,4 km/h (2 Bft) 100,00 %
25.11.2020 19:49 -2,7 C 98 % 1025,2 hPa 0,0 l/m 4,8 km/h (1 Bft) W-SW 247 0 min 0,000 mm 0,0 UV-I 0 W/m -3,0 C -4,5 C 6,4 km/h (2 Bft) 100,00 %
25.11.2020 19:48 -2,7 C 98 % 1025,2 hPa 0,0 l/m 6,4 km/h (2 Bft) W-SW 247 0 min 0,000 mm 0,0 UV-I 0 W/m -3,0 C -5,3 C 8,0 km/h (2 Bft) 91,30 %
25.11.2020 19:47 -2,7 C 98 % 1025,2 hPa 0,0 l/m 6,4 km/h (2 Bft) SW 225 0 min 0,000 mm 0,0 UV-I 0 W/m -3,0 C -5,3 C 6,4 km/h (2 Bft) 100,00 %
25.11.2020 19:46 -2,7 C 98 % 1025,2 hPa 0,0 l/m 4,8 km/h (1 Bft) W-SW 247 0 min 0,000 mm 0,0 UV-I 0 W/m -3,0 C -4,5 C 6,4 km/h (2 Bft) 100,00 %
25.11.2020 19:45 -2,7 C 98 % 1025,2 hPa 0,0 l/m 3,2 km/h (1 Bft) W-SW 247 0 min 0,000 mm 0,0 UV-I 0 W/m -3,0 C -2,7 C 4,8 km/h (1 Bft) 100,00 %
25.11.2020 19:44 -2,7 C 98 % 1025,3 hPa 0,0 l/m 4,8 km/h (1 Bft) SW 225 0 min 0,000 mm 0,0 UV-I 0 W/m -3,0 C -4,5 C 6,4 km/h (2 Bft) 100,00 %
25.11.2020 19:43 -2,7 C 98 % 1025,2 hPa 0,0 l/m 1,6 km/h (1 Bft) W-SW 247 0 min 0,000 mm 0,0 UV-I 0 W/m -3,0 C -2,7 C 3,2 km/h (1 Bft) 100,00 %
25.11.2020 19:42 -2,6 C 98 % 1025,2 hPa 0,0 l/m 0,0 km/h (0 Bft) N 0 0 min 0,000 mm 0,0 UV-I 0 W/m -2,9 C -2,6 C 0,0 km/h (0 Bft) 95,65 %
25.11.2020 19:41 -2,6 C 98 % 1025,1 hPa 0,0 l/m 0,0 km/h (0 Bft) N 0 0 min 0,000 mm 0,0 UV-I 0 W/m -2,9 C -2,6 C 0,0 km/h (0 Bft) 100,00 %
25.11.2020 19:40 -2,6 C 98 % 1025,2 hPa 0,0 l/m 0,0 km/h (0 Bft) SW 225 0 min 0,000 mm 0,0 UV-I 0 W/m -2,9 C -2,6 C 1,6 km/h (1 Bft) 95,65 %
25.11.2020 19:39 -2,6 C 98 % 1025,2 hPa 0,0 l/m 3,2 km/h (1 Bft) SW 225 0 min 0,000 mm 0,0 UV-I 0 W/m -2,9 C -2,6 C 3,2 km/h (1 Bft) 100,00 %
25.11.2020 19:38 -2,6 C 98 % 1025,2 hPa 0,0 l/m 0,0 km/h (0 Bft) SW 225 0 min 0,000 mm 0,0 UV-I 0 W/m -2,9 C -2,6 C 1,6 km/h (1 Bft) 100,00 %
25.11.2020 19:37 -2,6 C 98 % 1025,3 hPa 0,0 l/m 1,6 km/h (1 Bft) SW 225 0 min 0,000 mm 0,0 UV-I 0 W/m -2,9 C -2,6 C 4,8 km/h (1 Bft) 100,00 %
25.11.2020 19:36 -2,6 C 98 % 1025,1 hPa 0,0 l/m 1,6 km/h (1 Bft) SW 225 0 min 0,000 mm 0,0 UV-I 0 W/m -2,9 C -2,6 C 4,8 km/h (1 Bft) 100,00 %
25.11.2020 19:35 -2,6 C 98 % 1025,1 hPa 0,0 l/m 0,0 km/h (0 Bft) N 0 0 min 0,000 mm 0,0 UV-I 0 W/m -2,9 C -2,6 C 0,0 km/h (0 Bft) 100,00 %
25.11.2020 19:34 -2,6 C 98 % 1025,2 hPa 0,0 l/m 0,0 km/h (0 Bft) N 0 0 min 0,000 mm 0,0 UV-I 0 W/m -2,9 C -2,6 C 0,0 km/h (0 Bft) 100,00 %
25.11.2020 19:33 -2,6 C 98 % 1025,2 hPa 0,0 l/m 0,0 km/h (0 Bft) SW 225 0 min 0,000 mm 0,0 UV-I 0 W/m -2,9 C -2,6 C 1,6 km/h (1 Bft) 100,00 %
25.11.2020 19:32 -2,6 C 98 % 1025,3 hPa 0,0 l/m 0,0 km/h (0 Bft) SW 225 0 min 0,000 mm 0,0 UV-I 0 W/m -2,9 C -2,6 C 1,6 km/h (1 Bft) 100,00 %
25.11.2020 19:31 -2,6 C 98 % 1025,1 hPa 0,0 l/m 1,6 km/h (1 Bft) SW 225 0 min 0,000 mm 0,0 UV-I 0 W/m -2,9 C -2,6 C 3,2 km/h (1 Bft) 95,65 %
25.11.2020 19:30 -2,6 C 98 % 1025,1 hPa 0,0 l/m 3,2 km/h (1 Bft) SW 225 0 min 0,000 mm 0,0 UV-I 0 W/m -2,9 C -2,6 C 4,8 km/h (1 Bft) 100,00 %
25.11.2020 19:29 -2,6 C 98 % 1025,3 hPa 0,0 l/m 3,2 km/h (1 Bft) W-SW 247 0 min 0,000 mm 0,0 UV-I 0 W/m -2,9 C -2,6 C 3,2 km/h (1 Bft) 100,00 %
25.11.2020 19:28 -2,6 C 98 % 1025,2 hPa 0,0 l/m 1,6 km/h (1 Bft) W-SW 247 0 min 0,000 mm 0,0 UV-I 0 W/m -2,9 C -2,6 C 3,2 km/h (1 Bft) 100,00 %
25.11.2020 19:27 -2,6 C 98 % 1025,2 hPa 0,0 l/m 1,6 km/h (1 Bft) W-SW 247 0 min 0,000 mm 0,0 UV-I 0 W/m -2,9 C -2,6 C 3,2 km/h (1 Bft) 100,00 %
25.11.2020 19:26 -2,6 C 98 % 1025,1 hPa 0,0 l/m 3,2 km/h (1 Bft) W-SW 247 0 min 0,000 mm 0,0 UV-I 0 W/m -2,9 C -2,6 C 4,8 km/h (1 Bft) 100,00 %
25.11.2020 19:25 -2,6 C 98 % 1025,2 hPa 0,0 l/m 3,2 km/h (1 Bft) W 270 0 min 0,000 mm 0,0 UV-I 0 W/m -2,9 C -2,6 C 3,2 km/h (1 Bft) 95,65 %
25.11.2020 19:24 -2,6 C 98 % 1025,2 hPa 0,0 l/m 1,6 km/h (1 Bft) W-SW 247 0 min 0,000 mm 0,0 UV-I 0 W/m -2,9 C -2,6 C 3,2 km/h (1 Bft) 95,65 %
25.11.2020 19:23 -2,6 C 98 % 1025,2 hPa 0,0 l/m 1,6 km/h (1 Bft) W-SW 247 0 min 0,000 mm 0,0 UV-I 0 W/m -2,9 C -2,6 C 3,2 km/h (1 Bft) 100,00 %
25.11.2020 19:22 -2,6 C 98 % 1025,1 hPa 0,0 l/m 1,6 km/h (1 Bft) W-SW 247 0 min 0,000 mm 0,0 UV-I 0 W/m -2,9 C -2,6 C 3,2 km/h (1 Bft) 100,00 %
25.11.2020 19:21 -2,6 C 98 % 1025,2 hPa 0,0 l/m 1,6 km/h (1 Bft) W-SW 247 0 min 0,000 mm 0,0 UV-I 0 W/m -2,9 C -2,6 C 3,2 km/h (1 Bft) 100,00 %
25.11.2020 19:20 -2,6 C 98 % 1025,2 hPa 0,0 l/m 0,0 km/h (0 Bft) W-SW 247 0 min 0,000 mm 0,0 UV-I 0 W/m -2,9 C -2,6 C 1,6 km/h (1 Bft) 100,00 %
25.11.2020 19:19 -2,6 C 98 % 1025,3 hPa 0,0 l/m 0,0 km/h (0 Bft) N 0 0 min 0,000 mm 0,0 UV-I 0 W/m -2,9 C -2,6 C 0,0 km/h (0 Bft) 91,30 %
25.11.2020 19:18 -2,6 C 98 % 1025,1 hPa 0,0 l/m 0,0 km/h (0 Bft) N 0 0 min 0,000 mm 0,0 UV-I 0 W/m -2,9 C -2,6 C 0,0 km/h (0 Bft) 86,96 %
25.11.2020 19:17 -2,6 C 98 % 1025,1 hPa 0,0 l/m 0,0 km/h (0 Bft) W-SW 247 0 min 0,000 mm 0,0 UV-I 0 W/m -2,9 C -2,6 C 1,6 km/h (1 Bft) 100,00 %
25.11.2020 19:16 -2,6 C 98 % 1025,2 hPa 0,0 l/m 3,2 km/h (1 Bft) W-SW 247 0 min 0,000 mm 0,0 UV-I 0 W/m -2,9 C -2,6 C 3,2 km/h (1 Bft) 100,00 %
25.11.2020 19:15 -2,6 C 98 % 1025,2 hPa 0,0 l/m 3,2 km/h (1 Bft) W-SW 247 0 min 0,000 mm 0,0 UV-I 0 W/m -2,9 C -2,6 C 4,8 km/h (1 Bft) 100,00 %
25.11.2020 19:14 -2,6 C 98 % 1025,2 hPa 0,0 l/m 3,2 km/h (1 Bft) SW 225 0 min 0,000 mm 0,0 UV-I 0 W/m -2,9 C -2,6 C 4,8 km/h (1 Bft) 100,00 %
25.11.2020 19:13 -2,6 C 98 % 1025,2 hPa 0,0 l/m 3,2 km/h (1 Bft) SW 225 0 min 0,000 mm 0,0 UV-I 0 W/m -2,9 C -2,6 C 4,8 km/h (1 Bft) 100,00 %
25.11.2020 19:12 -2,6 C 98 % 1025,2 hPa 0,0 l/m 1,6 km/h (1 Bft) SW 225 0 min 0,000 mm 0,0 UV-I 0 W/m -2,9 C -2,6 C 3,2 km/h (1 Bft) 95,65 %
25.11.2020 19:11 -2,6 C 98 % 1025,2 hPa 0,0 l/m 3,2 km/h (1 Bft) S-SW 202 0 min 0,000 mm 0,0 UV-I 0 W/m -2,9 C -2,6 C 4,8 km/h (1 Bft) 100,00 %
25.11.2020 19:10 -2,6 C 98 % 1025,2 hPa 0,0 l/m 3,2 km/h (1 Bft) SW 225 0 min 0,000 mm 0,0 UV-I 0 W/m -2,9 C -2,6 C 4,8 km/h (1 Bft) 100,00 %
25.11.2020 19:09 -2,6 C 98 % 1025,1 hPa 0,0 l/m 3,2 km/h (1 Bft) SW 225 0 min 0,000 mm 0,0 UV-I 0 W/m -2,9 C -2,6 C 4,8 km/h (1 Bft) 100,00 %
25.11.2020 19:08 -2,6 C 98 % 1025,2 hPa 0,0 l/m 3,2 km/h (1 Bft) W-SW 247 0 min 0,000 mm 0,0 UV-I 0 W/m -2,9 C -2,6 C 4,8 km/h (1 Bft) 100,00 %
25.11.2020 19:07 -2,6 C 98 % 1025,2 hPa 0,0 l/m 4,8 km/h (1 Bft) W-SW 247 0 min 0,000 mm 0,0 UV-I 0 W/m -2,9 C -4,4 C 8,0 km/h (2 Bft) 95,65 %
25.11.2020 19:06 -2,6 C 98 % 1025,2 hPa 0,0 l/m 4,8 km/h (1 Bft) W-SW 247 0 min 0,000 mm 0,0 UV-I 0 W/m -2,9 C -4,4 C 6,4 km/h (2 Bft) 100,00 %
25.11.2020 19:05 -2,6 C 98 % 1025,2 hPa 0,0 l/m 4,8 km/h (1 Bft) W-SW 247 0 min 0,000 mm 0,0 UV-I 0 W/m -2,9 C -4,4 C 6,4 km/h (2 Bft) 100,00 %
25.11.2020 19:04 -2,6 C 98 % 1025,1 hPa 0,0 l/m 4,8 km/h (1 Bft) SW 225 0 min 0,000 mm 0,0 UV-I 0 W/m -2,9 C -4,4 C 6,4 km/h (2 Bft) 100,00 %
25.11.2020 19:03 -2,7 C 98 % 1025,1 hPa 0,0 l/m 6,4 km/h (2 Bft) W-SW 247 0 min 0,000 mm 0,0 UV-I 0 W/m -3,0 C -5,3 C 6,4 km/h (2 Bft) 100,00 %
25.11.2020 19:02 -2,7 C 98 % 1025,2 hPa 0,0 l/m 4,8 km/h (1 Bft) W 270 0 min 0,000 mm 0,0 UV-I 0 W/m -3,0 C -4,5 C 6,4 km/h (2 Bft) 95,65 %
25.11.2020 19:01 -2,7 C 98 % 1025,1 hPa 0,0 l/m 3,2 km/h (1 Bft) W-SW 247 0 min 0,000 mm 0,0 UV-I 0 W/m -3,0 C -2,7 C 4,8 km/h (1 Bft) 100,00 %
25.11.2020 19:00 -2,7 C 98 % 1025,2 hPa 0,0 l/m 3,2 km/h (1 Bft) W-SW 247 0 min 0,000 mm 0,0 UV-I 0 W/m -3,0 C -2,7 C 4,8 km/h (1 Bft) 100,00 %
25.11.2020 18:59 -2,7 C 98 % 1025,2 hPa 0,0 l/m 1,6 km/h (1 Bft) W-SW 247 0 min 0,000 mm 0,0 UV-I 0 W/m -3,0 C -2,7 C 3,2 km/h (1 Bft) 100,00 %
25.11.2020 18:58 -2,7 C 98 % 1025,2 hPa 0,0 l/m 3,2 km/h (1 Bft) W-SW 247 0 min 0,000 mm 0,0 UV-I 0 W/m -3,0 C -2,7 C 4,8 km/h (1 Bft) 100,00 %
25.11.2020 18:57 -2,7 C 98 % 1025,2 hPa 0,0 l/m 3,2 km/h (1 Bft) W 270 0 min 0,000 mm 0,0 UV-I 0 W/m -3,0 C -2,7 C 4,8 km/h (1 Bft) 100,00 %
25.11.2020 18:56 -2,7 C 98 % 1025,2 hPa 0,0 l/m 3,2 km/h (1 Bft) W 270 0 min 0,000 mm 0,0 UV-I 0 W/m -3,0 C -2,7 C 4,8 km/h (1 Bft) 100,00 %
25.11.2020 18:55 -2,7 C 98 % 1025,2 hPa 0,0 l/m 4,8 km/h (1 Bft) SW 225 0 min 0,000 mm 0,0 UV-I 0 W/m -3,0 C -4,5 C 6,4 km/h (2 Bft) 95,65 %
25.11.2020 18:54 -2,7 C 98 % 1025,1 hPa 0,0 l/m 4,8 km/h (1 Bft) SW 225 0 min 0,000 mm 0,0 UV-I 0 W/m -3,0 C -4,5 C 6,4 km/h (2 Bft) 100,00 %
25.11.2020 18:53 -2,7 C 98 % 1025,1 hPa 0,0 l/m 3,2 km/h (1 Bft) S-SW 202 0 min 0,000 mm 0,0 UV-I 0 W/m -3,0 C -2,7 C 4,8 km/h (1 Bft) 100,00 %
25.11.2020 18:52 -2,7 C 98 % 1025,2 hPa 0,0 l/m 3,2 km/h (1 Bft) S-SW 202 0 min 0,000 mm 0,0 UV-I 0 W/m -3,0 C -2,7 C 4,8 km/h (1 Bft) 100,00 %
25.11.2020 18:51 -2,7 C 98 % 1025,1 hPa 0,0 l/m 3,2 km/h (1 Bft) S-SW 202 0 min 0,000 mm 0,0 UV-I 0 W/m -3,0 C -2,7 C 4,8 km/h (1 Bft) 100,00 %
25.11.2020 18:50 -2,7 C 98 % 1025,1 hPa 0,0 l/m 3,2 km/h (1 Bft) S-SW 202 0 min 0,000 mm 0,0 UV-I 0 W/m -3,0 C -2,7 C 4,8 km/h (1 Bft) 100,00 %
25.11.2020 18:49 -2,7 C 98 % 1025,2 hPa 0,0 l/m 3,2 km/h (1 Bft) S-SW 202 0 min 0,000 mm 0,0 UV-I 0 W/m -3,0 C -2,7 C 4,8 km/h (1 Bft) 100,00 %
25.11.2020 18:48 -2,7 C 98 % 1025,1 hPa 0,0 l/m 0,0 km/h (0 Bft) N 0 0 min 0,000 mm 0,0 UV-I 0 W/m -3,0 C -2,7 C 0,0 km/h (0 Bft) 100,00 %
25.11.2020 18:47 -2,7 C 98 % 1025,1 hPa 0,0 l/m 0,0 km/h (0 Bft) N 0 0 min 0,000 mm 0,0 UV-I 0 W/m -3,0 C -2,7 C 0,0 km/h (0 Bft) 100,00 %
25.11.2020 18:46 -2,7 C 98 % 1025,0 hPa 0,0 l/m 0,0 km/h (0 Bft) N 0 0 min 0,000 mm 0,0 UV-I 0 W/m -3,0 C -2,7 C 0,0 km/h (0 Bft) 100,00 %
25.11.2020 18:45 -2,7 C 98 % 1025,1 hPa 0,0 l/m 0,0 km/h (0 Bft) N 0 0 min 0,000 mm 0,0 UV-I 0 W/m -3,0 C -2,7 C 0,0 km/h (0 Bft) 100,00 %
25.11.2020 18:44 -2,7 C 98 % 1025,1 hPa 0,0 l/m 0,0 km/h (0 Bft) N 0 0 min 0,000 mm 0,0 UV-I 0 W/m -3,0 C -2,7 C 0,0 km/h (0 Bft) 100,00 %
25.11.2020 18:43 -2,6 C 98 % 1025,0 hPa 0,0 l/m 0,0 km/h (0 Bft) N 0 0 min 0,000 mm 0,0 UV-I 0 W/m -2,9 C -2,6 C 0,0 km/h (0 Bft) 100,00 %
25.11.2020 18:42 -2,6 C 98 % 1025,1 hPa 0,0 l/m 0,0 km/h (0 Bft) N 0 0 min 0,000 mm 0,0 UV-I 0 W/m -2,9 C -2,6 C 0,0 km/h (0 Bft) 100,00 %
25.11.2020 18:41 -2,6 C 98 % 1025,1 hPa 0,0 l/m 0,0 km/h (0 Bft) N 0 0 min 0,000 mm 0,0 UV-I 0 W/m -2,9 C -2,6 C 0,0 km/h (0 Bft) 95,65 %
25.11.2020 18:40 -2,6 C 98 % 1025,1 hPa 0,0 l/m 0,0 km/h (0 Bft) N 0 0 min 0,000 mm 0,0 UV-I 0 W/m -2,9 C -2,6 C 0,0 km/h (0 Bft) 95,65 %
25.11.2020 18:39 -2,6 C 98 % 1025,1 hPa 0,0 l/m 0,0 km/h (0 Bft) N 0 0 min 0,000 mm 0,0 UV-I 0 W/m -2,9 C -2,6 C 0,0 km/h (0 Bft) 100,00 %
25.11.2020 18:38 -2,6 C 98 % 1025,1 hPa 0,0 l/m 0,0 km/h (0 Bft) N 0 0 min 0,000 mm 0,0 UV-I 0 W/m -2,9 C -2,6 C 0,0 km/h (0 Bft) 86,96 %
25.11.2020 18:37 -2,6 C 98 % 1025,1 hPa 0,0 l/m 0,0 km/h (0 Bft) N 0 0 min 0,000 mm 0,0 UV-I 0 W/m -2,9 C -2,6 C 0,0 km/h (0 Bft) 100,00 %
25.11.2020 18:36 -2,6 C 98 % 1025,1 hPa 0,0 l/m 0,0 km/h (0 Bft) N 0 0 min 0,000 mm 0,0 UV-I 0 W/m -2,9 C -2,6 C 0,0 km/h (0 Bft) 100,00 %
25.11.2020 18:35 -2,6 C 98 % 1025,1 hPa 0,0 l/m 0,0 km/h (0 Bft) N 0 0 min 0,000 mm 0,0 UV-I 0 W/m -2,9 C -2,6 C 0,0 km/h (0 Bft) 95,65 %
25.11.2020 18:34 -2,6 C 98 % 1025,1 hPa 0,0 l/m 0,0 km/h (0 Bft) N 0 0 min 0,000 mm 0,0 UV-I 0 W/m -2,9 C -2,6 C 0,0 km/h (0 Bft) 100,00 %
25.11.2020 18:33 -2,6 C 98 % 1025,1 hPa 0,0 l/m 0,0 km/h (0 Bft) N 0 0 min 0,000 mm 0,0 UV-I 0 W/m -2,9 C -2,6 C 0,0 km/h (0 Bft) 100,00 %
25.11.2020 18:32 -2,5 C 98 % 1025,1 hPa 0,0 l/m 0,0 km/h (0 Bft) N 0 0 min 0,000 mm 0,0 UV-I 0 W/m -2,8 C -2,5 C 0,0 km/h (0 Bft) 100,00 %
25.11.2020 18:31 -2,6 C 98 % 1025,1 hPa 0,0 l/m 0,0 km/h (0 Bft) N 0 0 min 0,000 mm 0,0 UV-I 0 W/m -2,9 C -2,6 C 0,0 km/h (0 Bft) 100,00 %
25.11.2020 18:30 -2,5 C 98 % 1025,1 hPa 0,0 l/m 0,0 km/h (0 Bft) N 0 0 min 0,000 mm 0,0 UV-I 0 W/m -2,8 C -2,5 C 0,0 km/h (0 Bft) 100,00 %
25.11.2020 18:29 -2,5 C 98 % 1025,0 hPa 0,0 l/m 0,0 km/h (0 Bft) N 0 0 min 0,000 mm 0,0 UV-I 0 W/m -2,8 C -2,5 C 0,0 km/h (0 Bft) 100,00 %
25.11.2020 18:28 -2,5 C 98 % 1025,1 hPa 0,0 l/m 0,0 km/h (0 Bft) N 0 0 min 0,000 mm 0,0 UV-I 0 W/m -2,8 C -2,5 C 0,0 km/h (0 Bft) 100,00 %
25.11.2020 18:27 -2,5 C 98 % 1025,1 hPa 0,0 l/m 0,0 km/h (0 Bft) N 0 0 min 0,000 mm 0,0 UV-I 0 W/m -2,8 C -2,5 C 0,0 km/h (0 Bft) 100,00 %
25.11.2020 18:26 -2,5 C 98 % 1025,1 hPa 0,0 l/m 0,0 km/h (0 Bft) N 0 0 min 0,000 mm 0,0 UV-I 0 W/m -2,8 C -2,5 C 0,0 km/h (0 Bft) 100,00 %
25.11.2020 18:25 -2,5 C 98 % 1025,0 hPa 0,0 l/m 0,0 km/h (0 Bft) N 0 0 min 0,000 mm 0,0 UV-I 0 W/m -2,8 C -2,5 C 0,0 km/h (0 Bft) 95,65 %
25.11.2020 18:24 -2,5 C 98 % 1025,0 hPa 0,0 l/m 0,0 km/h (0 Bft) N 0 0 min 0,000 mm 0,0 UV-I 0 W/m -2,8 C -2,5 C 0,0 km/h (0 Bft) 100,00 %
25.11.2020 18:23 -2,5 C 98 % 1025,0 hPa 0,0 l/m 0,0 km/h (0 Bft) N 0 0 min 0,000 mm 0,0 UV-I 0 W/m -2,8 C -2,5 C 0,0 km/h (0 Bft) 100,00 %
25.11.2020 18:22 -2,5 C 98 % 1024,9 hPa 0,0 l/m 0,0 km/h (0 Bft) N 0 0 min 0,000 mm 0,0 UV-I 0 W/m -2,8 C -2,5 C 0,0 km/h (0 Bft) 100,00 %
25.11.2020 18:21 -2,4 C 98 % 1025,0 hPa 0,0 l/m 0,0 km/h (0 Bft) N 0 0 min 0,000 mm 0,0 UV-I 0 W/m -2,7 C -2,4 C 0,0 km/h (0 Bft) 95,65 %
25.11.2020 18:20 -2,4 C 98 % 1025,0 hPa 0,0 l/m 0,0 km/h (0 Bft) N 0 0 min 0,000 mm 0,0 UV-I 0 W/m -2,7 C -2,4 C 0,0 km/h (0 Bft) 100,00 %
25.11.2020 18:19 -2,4 C 98 % 1025,0 hPa 0,0 l/m 0,0 km/h (0 Bft) N 0 0 min 0,000 mm 0,0 UV-I 0 W/m -2,7 C -2,4 C 0,0 km/h (0 Bft) 95,65 %
25.11.2020 18:18 -2,4 C 98 % 1024,9 hPa 0,0 l/m 0,0 km/h (0 Bft) N 0 0 min 0,000 mm 0,0 UV-I 0 W/m -2,7 C -2,4 C 0,0 km/h (0 Bft) 100,00 %
25.11.2020 18:17 -2,4 C 98 % 1024,9 hPa 0,0 l/m 0,0 km/h (0 Bft) N 0 0 min 0,000 mm 0,0 UV-I 0 W/m -2,7 C -2,4 C 0,0 km/h (0 Bft) 100,00 %
25.11.2020 18:16 -2,4 C 98 % 1025,0 hPa 0,0 l/m 0,0 km/h (0 Bft) N 0 0 min 0,000 mm 0,0 UV-I 0 W/m -2,7 C -2,4 C 0,0 km/h (0 Bft) 95,65 %
25.11.2020 18:15 -2,4 C 98 % 1024,9 hPa 0,0 l/m 0,0 km/h (0 Bft) N 0 0 min 0,000 mm 0,0 UV-I 0 W/m -2,7 C -2,4 C 0,0 km/h (0 Bft) 100,00 %
25.11.2020 18:14 -2,4 C 98 % 1024,9 hPa 0,0 l/m 0,0 km/h (0 Bft) N 0 0 min 0,000 mm 0,0 UV-I 0 W/m -2,7 C -2,4 C 0,0 km/h (0 Bft) 100,00 %
25.11.2020 18:13 -2,4 C 98 % 1024,8 hPa 0,0 l/m 0,0 km/h (0 Bft) N 0 0 min 0,000 mm 0,0 UV-I 0 W/m -2,7 C -2,4 C 0,0 km/h (0 Bft) 100,00 %
25.11.2020 18:12 -2,4 C 98 % 1024,8 hPa 0,0 l/m 0,0 km/h (0 Bft) N 0 0 min 0,000 mm 0,0 UV-I 0 W/m -2,7 C -2,4 C 0,0 km/h (0 Bft) 100,00 %
25.11.2020 18:11 -2,4 C 98 % 1024,7 hPa 0,0 l/m 0,0 km/h (0 Bft) N 0 0 min 0,000 mm 0,0 UV-I 0 W/m -2,7 C -2,4 C 0,0 km/h (0 Bft) 100,00 %
25.11.2020 18:10 -2,4 C 98 % 1024,8 hPa 0,0 l/m 0,0 km/h (0 Bft) N 0 0 min 0,000 mm 0,0 UV-I 0 W/m -2,7 C -2,4 C 0,0 km/h (0 Bft) 100,00 %
25.11.2020 18:09 -2,4 C 98 % 1024,7 hPa 0,0 l/m 0,0 km/h (0 Bft) S 180 0 min 0,000 mm 0,0 UV-I 0 W/m -2,7 C -2,4 C 1,6 km/h (1 Bft) 100,00 %
25.11.2020 18:08 -2,4 C 98 % 1024,7 hPa 0,0 l/m 0,0 km/h (0 Bft) S 180 0 min 0,000 mm 0,0 UV-I 0 W/m -2,7 C -2,4 C 1,6 km/h (1 Bft) 100,00 %
25.11.2020 18:07 -2,3 C 98 % 1024,8 hPa 0,0 l/m 0,0 km/h (0 Bft) N 0 0 min 0,000 mm 0,0 UV-I 0 W/m -2,6 C -2,3 C 0,0 km/h (0 Bft) 100,00 %
25.11.2020 18:06 -2,3 C 98 % 1024,8 hPa 0,0 l/m 0,0 km/h (0 Bft) N 0 0 min 0,000 mm 0,0 UV-I 0 W/m -2,6 C -2,3 C 0,0 km/h (0 Bft) 100,00 %
25.11.2020 18:05 -2,3 C 98 % 1024,7 hPa 0,0 l/m 0,0 km/h (0 Bft) N 0 0 min 0,000 mm 0,0 UV-I 0 W/m -2,6 C -2,3 C 0,0 km/h (0 Bft) 100,00 %
25.11.2020 18:04 -2,3 C 98 % 1024,7 hPa 0,0 l/m 0,0 km/h (0 Bft) N 0 0 min 0,000 mm 0,0 UV-I 0 W/m -2,6 C -2,3 C 0,0 km/h (0 Bft) 100,00 %
25.11.2020 18:03 -2,3 C 98 % 1024,7 hPa 0,0 l/m 0,0 km/h (0 Bft) N 0 0 min 0,000 mm 0,0 UV-I 0 W/m -2,6 C -2,3 C 0,0 km/h (0 Bft) 100,00 %
25.11.2020 18:02 -2,3 C 98 % 1024,7 hPa 0,0 l/m 0,0 km/h (0 Bft) S-SW 202 0 min 0,000 mm 0,0 UV-I 0 W/m -2,6 C -2,3 C 1,6 km/h (1 Bft) 95,65 %
25.11.2020 18:01 -2,3 C 98 % 1024,7 hPa 0,0 l/m 0,0 km/h (0 Bft) SW 225 0 min 0,000 mm 0,0 UV-I 0 W/m -2,6 C -2,3 C 1,6 km/h (1 Bft) 100,00 %
25.11.2020 18:00 -2,2 C 98 % 1024,7 hPa 0,0 l/m 0,0 km/h (0 Bft) SW 225 0 min 0,000 mm 0,0 UV-I 0 W/m -2,5 C -2,2 C 1,6 km/h (1 Bft) 100,00 %
25.11.2020 17:59 -2,3 C 98 % 1024,7 hPa 0,0 l/m 0,0 km/h (0 Bft) N 0 0 min 0,000 mm 0,0 UV-I 0 W/m -2,6 C -2,3 C 0,0 km/h (0 Bft) 100,00 %
25.11.2020 17:58 -2,3 C 98 % 1024,6 hPa 0,0 l/m 0,0 km/h (0 Bft) N 0 0 min 0,000 mm 0,0 UV-I 0 W/m -2,6 C -2,3 C 0,0 km/h (0 Bft) 100,00 %
25.11.2020 17:57 -2,3 C 98 % 1024,7 hPa 0,0 l/m 0,0 km/h (0 Bft) SW 225 0 min 0,000 mm 0,0 UV-I 0 W/m -2,6 C -2,3 C 1,6 km/h (1 Bft) 100,00 %
25.11.2020 17:56 -2,3 C 98 % 1024,7 hPa 0,0 l/m 1,6 km/h (1 Bft) SW 225 0 min 0,000 mm 0,0 UV-I 0 W/m -2,6 C -2,3 C 3,2 km/h (1 Bft) 100,00 %
25.11.2020 17:55 -2,2 C 98 % 1024,6 hPa 0,0 l/m 0,0 km/h (0 Bft) SW 225 0 min 0,000 mm 0,0 UV-I 0 W/m -2,5 C -2,2 C 1,6 km/h (1 Bft) 100,00 %
25.11.2020 17:54 -2,2 C 98 % 1024,6 hPa 0,0 l/m 1,6 km/h (1 Bft) SW 225 0 min 0,000 mm 0,0 UV-I 0 W/m -2,5 C -2,2 C 3,2 km/h (1 Bft) 100,00 %
25.11.2020 17:53 -2,2 C 98 % 1024,6 hPa 0,0 l/m 3,2 km/h (1 Bft) SW 225 0 min 0,000 mm 0,0 UV-I 0 W/m -2,5 C -2,2 C 4,8 km/h (1 Bft) 100,00 %
25.11.2020 17:52 -2,2 C 98 % 1024,6 hPa 0,0 l/m 3,2 km/h (1 Bft) W-SW 247 0 min 0,000 mm 0,0 UV-I 0 W/m -2,5 C -2,2 C 4,8 km/h (1 Bft) 95,65 %
25.11.2020 17:51 -2,2 C 98 % 1024,6 hPa 0,0 l/m 4,8 km/h (1 Bft) W-SW 247 0 min 0,000 mm 0,0 UV-I 0 W/m -2,5 C -4,0 C 4,8 km/h (1 Bft) 100,00 %
25.11.2020 17:50 -2,2 C 98 % 1024,6 hPa 0,0 l/m 3,2 km/h (1 Bft) W-SW 247 0 min 0,000 mm 0,0 UV-I 0 W/m -2,5 C -2,2 C 4,8 km/h (1 Bft) 100,00 %
25.11.2020 17:49 -2,2 C 98 % 1024,6 hPa 0,0 l/m 3,2 km/h (1 Bft) W-SW 247 0 min 0,000 mm 0,0 UV-I 0 W/m -2,5 C -2,2 C 4,8 km/h (1 Bft) 100,00 %
25.11.2020 17:48 -2,2 C 98 % 1024,7 hPa 0,0 l/m 3,2 km/h (1 Bft) W-SW 247 0 min 0,000 mm 0,0 UV-I 0 W/m -2,5 C -2,2 C 4,8 km/h (1 Bft) 100,00 %
25.11.2020 17:47 -2,2 C 98 % 1024,7 hPa 0,0 l/m 3,2 km/h (1 Bft) W-SW 247 0 min 0,000 mm 0,0 UV-I 0 W/m -2,5 C -2,2 C 4,8 km/h (1 Bft) 95,65 %
25.11.2020 17:46 -2,2 C 98 % 1024,8 hPa 0,0 l/m 4,8 km/h (1 Bft) W-SW 247 0 min 0,000 mm 0,0 UV-I 0 W/m -2,5 C -4,0 C 6,4 km/h (2 Bft) 100,00 %
25.11.2020 17:45 -2,1 C 98 % 1024,7 hPa 0,0 l/m 4,8 km/h (1 Bft) W-SW 247 0 min 0,000 mm 0,0 UV-I 0 W/m -2,4 C -3,9 C 6,4 km/h (2 Bft) 95,65 %
25.11.2020 17:44 -2,1 C 98 % 1024,6 hPa 0,0 l/m 4,8 km/h (1 Bft) W-SW 247 0 min 0,000 mm 0,0 UV-I 0 W/m -2,4 C -3,9 C 6,4 km/h (2 Bft) 100,00 %
25.11.2020 17:43 -2,1 C 98 % 1024,6 hPa 0,0 l/m 4,8 km/h (1 Bft) W-SW 247 0 min 0,000 mm 0,0 UV-I 0 W/m -2,4 C -3,9 C 6,4 km/h (2 Bft) 100,00 %
25.11.2020 17:42 -2,1 C 98 % 1024,6 hPa 0,0 l/m 6,4 km/h (2 Bft) SW 225 0 min 0,000 mm 0,0 UV-I 0 W/m -2,4 C -4,6 C 8,0 km/h (2 Bft) 91,30 %
25.11.2020 17:41 -2,1 C 98 % 1024,7 hPa 0,0 l/m 6,4 km/h (2 Bft) SW 225 0 min 0,000 mm 0,0 UV-I 0 W/m -2,4 C -4,6 C 8,0 km/h (2 Bft) 95,65 %
25.11.2020 17:40 -2,1 C 98 % 1024,6 hPa 0,0 l/m 4,8 km/h (1 Bft) W-SW 247 0 min 0,000 mm 0,0 UV-I 0 W/m -2,4 C -3,9 C 8,0 km/h (2 Bft) 95,65 %
25.11.2020 17:39 -2,1 C 98 % 1024,7 hPa 0,0 l/m 4,8 km/h (1 Bft) W-SW 247 0 min 0,000 mm 0,0 UV-I 0 W/m -2,4 C -3,9 C 4,8 km/h (1 Bft) 100,00 %
25.11.2020 17:38 -2,1 C 98 % 1024,6 hPa 0,0 l/m 3,2 km/h (1 Bft) W 270 0 min 0,000 mm 0,0 UV-I 0 W/m -2,4 C -2,1 C 4,8 km/h (1 Bft) 100,00 %
25.11.2020 17:37 -2,1 C 98 % 1024,6 hPa 0,0 l/m 3,2 km/h (1 Bft) W 270 0 min 0,000 mm 0,0 UV-I 0 W/m -2,4 C -2,1 C 3,2 km/h (1 Bft) 100,00 %
25.11.2020 17:36 -2,1 C 98 % 1024,6 hPa 0,0 l/m 4,8 km/h (1 Bft) W 270 0 min 0,000 mm 0,0 UV-I 0 W/m -2,4 C -3,9 C 6,4 km/h (2 Bft) 100,00 %
25.11.2020 17:35 -2,1 C 98 % 1024,6 hPa 0,0 l/m 1,6 km/h (1 Bft) W-SW 247 0 min 0,000 mm 0,0 UV-I 0 W/m -2,4 C -2,1 C 3,2 km/h (1 Bft) 100,00 %
25.11.2020 17:34 -2,1 C 98 % 1024,6 hPa 0,0 l/m 3,2 km/h (1 Bft) W-SW 247 0 min 0,000 mm 0,0 UV-I 0 W/m -2,4 C -2,1 C 3,2 km/h (1 Bft) 100,00 %
25.11.2020 17:33 -2,1 C 98 % 1024,6 hPa 0,0 l/m 1,6 km/h (1 Bft) W-SW 247 0 min 0,000 mm 0,0 UV-I 0 W/m -2,4 C -2,1 C 3,2 km/h (1 Bft) 100,00 %
25.11.2020 17:32 -2,1 C 98 % 1024,5 hPa 0,0 l/m 3,2 km/h (1 Bft) W-SW 247 0 min 0,000 mm 0,0 UV-I 0 W/m -2,4 C -2,1 C 4,8 km/h (1 Bft) 100,00 %
25.11.2020 17:31 -2,1 C 98 % 1024,5 hPa 0,0 l/m 1,6 km/h (1 Bft) W-SW 247 0 min 0,000 mm 0,0 UV-I 0 W/m -2,4 C -2,1 C 3,2 km/h (1 Bft) 100,00 %
25.11.2020 17:30 -2,1 C 98 % 1024,6 hPa 0,0 l/m 1,6 km/h (1 Bft) W-SW 247 0 min 0,000 mm 0,0 UV-I 0 W/m -2,4 C -2,1 C 3,2 km/h (1 Bft) 95,65 %
25.11.2020 17:29 -2,1 C 98 % 1024,5 hPa 0,0 l/m 3,2 km/h (1 Bft) W-SW 247 0 min 0,000 mm 0,0 UV-I 0 W/m -2,4 C -2,1 C 4,8 km/h (1 Bft) 100,00 %
25.11.2020 17:28 -2,1 C 98 % 1024,6 hPa 0,0 l/m 1,6 km/h (1 Bft) W-SW 247 0 min 0,000 mm 0,0 UV-I 0 W/m -2,4 C -2,1 C 4,8 km/h (1 Bft) 95,65 %
25.11.2020 17:27 -2,1 C 98 % 1024,6 hPa 0,0 l/m 0,0 km/h (0 Bft) W-SW 247 0 min 0,000 mm 0,0 UV-I 0 W/m -2,4 C -2,1 C 1,6 km/h (1 Bft) 100,00 %
25.11.2020 17:26 -2,1 C 98 % 1024,6 hPa 0,0 l/m 1,6 km/h (1 Bft) W-SW 247 0 min 0,000 mm 0,0 UV-I 0 W/m -2,4 C -2,1 C 3,2 km/h (1 Bft) 95,65 %
25.11.2020 17:25 -2,0 C 98 % 1024,6 hPa 0,0 l/m 1,6 km/h (1 Bft) W-SW 247 0 min 0,000 mm 0,0 UV-I 0 W/m -2,3 C -2,0 C 1,6 km/h (1 Bft) 100,00 %
25.11.2020 17:24 -2,1 C 98 % 1024,6 hPa 0,0 l/m 1,6 km/h (1 Bft) W-SW 247 0 min 0,000 mm 0,0 UV-I 0 W/m -2,4 C -2,1 C 3,2 km/h (1 Bft) 100,00 %
25.11.2020 17:23 -2,1 C 98 % 1024,6 hPa 0,0 l/m 1,6 km/h (1 Bft) S-SO 157 0 min 0,000 mm 0,0 UV-I 0 W/m -2,4 C -2,1 C 3,2 km/h (1 Bft) 100,00 %
25.11.2020 17:22 -2,0 C 98 % 1024,6 hPa 0,0 l/m 0,0 km/h (0 Bft) N 0 0 min 0,000 mm 0,0 UV-I 0 W/m -2,3 C -2,0 C 0,0 km/h (0 Bft) 100,00 %
25.11.2020 17:21 -2,0 C 98 % 1024,5 hPa 0,0 l/m 0,0 km/h (0 Bft) N 0 0 min 0,000 mm 0,0 UV-I 0 W/m -2,3 C -2,0 C 0,0 km/h (0 Bft) 91,30 %
25.11.2020 17:20 -2,0 C 98 % 1024,5 hPa 0,0 l/m 0,0 km/h (0 Bft) N 0 0 min 0,000 mm 0,0 UV-I 0 W/m -2,3 C -2,0 C 0,0 km/h (0 Bft) 100,00 %
25.11.2020 17:19 -2,0 C 98 % 1024,5 hPa 0,0 l/m 0,0 km/h (0 Bft) N 0 0 min 0,000 mm 0,0 UV-I 0 W/m -2,3 C -2,0 C 0,0 km/h (0 Bft) 100,00 %
25.11.2020 17:18 -2,0 C 98 % 1024,4 hPa 0,0 l/m 0,0 km/h (0 Bft) N 0 0 min 0,000 mm 0,0 UV-I 0 W/m -2,3 C -2,0 C 0,0 km/h (0 Bft) 95,65 %
25.11.2020 17:17 -1,9 C 98 % 1024,5 hPa 0,0 l/m 0,0 km/h (0 Bft) N 0 0 min 0,000 mm 0,0 UV-I 0 W/m -2,2 C -1,9 C 0,0 km/h (0 Bft) 100,00 %
25.11.2020 17:16 -1,9 C 98 % 1024,5 hPa 0,0 l/m 0,0 km/h (0 Bft) N 0 0 min 0,000 mm 0,0 UV-I 0 W/m -2,2 C -1,9 C 0,0 km/h (0 Bft) 100,00 %
25.11.2020 17:15 -1,9 C 98 % 1024,3 hPa 0,0 l/m 0,0 km/h (0 Bft) O-SO 112 0 min 0,000 mm 0,0 UV-I 0 W/m -2,2 C -1,9 C 1,6 km/h (1 Bft) 95,65 %
25.11.2020 17:14 -1,9 C 98 % 1024,3 hPa 0,0 l/m 1,6 km/h (1 Bft) O-SO 112 0 min 0,000 mm 0,0 UV-I 0 W/m -2,2 C -1,9 C 1,6 km/h (1 Bft) 100,00 %
25.11.2020 17:13 -1,9 C 98 % 1024,4 hPa 0,0 l/m 0,0 km/h (0 Bft) O-SO 112 0 min 0,000 mm 0,0 UV-I 0 W/m -2,2 C -1,9 C 1,6 km/h (1 Bft) 95,65 %
25.11.2020 17:12 -1,9 C 98 % 1024,3 hPa 0,0 l/m 0,0 km/h (0 Bft) N 0 0 min 0,000 mm 0,0 UV-I 0 W/m -2,2 C -1,9 C 0,0 km/h (0 Bft) 100,00 %
25.11.2020 17:11 -1,9 C 98 % 1024,4 hPa 0,0 l/m 0,0 km/h (0 Bft) N 0 0 min 0,000 mm 0,0 UV-I 0 W/m -2,2 C -1,9 C 0,0 km/h (0 Bft) 95,65 %
25.11.2020 17:10 -1,9 C 98 % 1024,3 hPa 0,0 l/m 0,0 km/h (0 Bft) N 0 0 min 0,000 mm 0,0 UV-I 0 W/m -2,2 C -1,9 C 0,0 km/h (0 Bft) 100,00 %
25.11.2020 17:09 -1,9 C 98 % 1024,3 hPa 0,0 l/m 0,0 km/h (0 Bft) N 0 0 min 0,000 mm 0,0 UV-I 0 W/m -2,2 C -1,9 C 0,0 km/h (0 Bft) 100,00 %
25.11.2020 17:08 -1,9 C 98 % 1024,3 hPa 0,0 l/m 0,0 km/h (0 Bft) N 0 0 min 0,000 mm 0,0 UV-I 0 W/m -2,2 C -1,9 C 0,0 km/h (0 Bft) 100,00 %
25.11.2020 17:07 -1,8 C 98 % 1024,3 hPa 0,0 l/m 0,0 km/h (0 Bft) N 0 0 min 0,000 mm 0,0 UV-I 0 W/m -2,1 C -1,8 C 0,0 km/h (0 Bft) 100,00 %
25.11.2020 17:06 -1,8 C 98 % 1024,3 hPa 0,0 l/m 0,0 km/h (0 Bft) N 0 0 min 0,000 mm 0,0 UV-I 0 W/m -2,1 C -1,8 C 0,0 km/h (0 Bft) 100,00 %
25.11.2020 17:05 -1,8 C 98 % 1024,3 hPa 0,0 l/m 1,6 km/h (1 Bft) O-SO 112 0 min 0,000 mm 0,0 UV-I 0 W/m -2,1 C -1,8 C 3,2 km/h (1 Bft) 100,00 %
25.11.2020 17:04 -1,8 C 98 % 1024,3 hPa 0,0 l/m 1,6 km/h (1 Bft) O-SO 112 0 min 0,000 mm 0,0 UV-I 0 W/m -2,1 C -1,8 C 3,2 km/h (1 Bft) 100,00 %
25.11.2020 17:03 -1,8 C 98 % 1024,3 hPa 0,0 l/m 1,6 km/h (1 Bft) SO 135 0 min 0,000 mm 0,0 UV-I 0 W/m -2,1 C -1,8 C 3,2 km/h (1 Bft) 100,00 %
25.11.2020 17:02 -1,8 C 98 % 1024,2 hPa 0,0 l/m 1,6 km/h (1 Bft) SO 135 0 min 0,000 mm 0,0 UV-I 0 W/m -2,1 C -1,8 C 3,2 km/h (1 Bft) 100,00 %
25.11.2020 17:01 -1,7 C 98 % 1024,3 hPa 0,0 l/m 1,6 km/h (1 Bft) W-SW 247 0 min 0,000 mm 0,0 UV-I 0 W/m -2,0 C -1,7 C 3,2 km/h (1 Bft) 91,30 %
25.11.2020 17:00 -1,7 C 98 % 1024,2 hPa 0,0 l/m 3,2 km/h (1 Bft) W-SW 247 0 min 0,000 mm 0,0 UV-I 0 W/m -2,0 C -1,7 C 3,2 km/h (1 Bft) 100,00 %
25.11.2020 16:59 -1,7 C 98 % 1024,3 hPa 0,0 l/m 3,2 km/h (1 Bft) W-SW 247 0 min 0,000 mm 0,0 UV-I 0 W/m -2,0 C -1,7 C 4,8 km/h (1 Bft) 100,00 %
25.11.2020 16:58 -1,7 C 98 % 1024,2 hPa 0,0 l/m 1,6 km/h (1 Bft) W-SW 247 0 min 0,000 mm 0,0 UV-I 0 W/m -2,0 C -1,7 C 3,2 km/h (1 Bft) 100,00 %
25.11.2020 16:57 -1,7 C 98 % 1024,3 hPa 0,0 l/m 0,0 km/h (0 Bft) N 0 0 min 0,000 mm 0,0 UV-I 0 W/m -2,0 C -1,7 C 0,0 km/h (0 Bft) 100,00 %
25.11.2020 16:56 -1,7 C 98 % 1024,2 hPa 0,0 l/m 0,0 km/h (0 Bft) N 0 0 min 0,000 mm 0,0 UV-I 0 W/m -2,0 C -1,7 C 0,0 km/h (0 Bft) 100,00 %
25.11.2020 16:55 -1,7 C 98 % 1024,3 hPa 0,0 l/m 0,0 km/h (0 Bft) N 0 0 min 0,000 mm 0,0 UV-I 0 W/m -2,0 C -1,7 C 0,0 km/h (0 Bft) 100,00 %
25.11.2020 16:54 -1,7 C 98 % 1024,2 hPa 0,0 l/m 0,0 km/h (0 Bft) N 0 0 min 0,000 mm 0,0 UV-I 0 W/m -2,0 C -1,7 C 0,0 km/h (0 Bft) 95,65 %
25.11.2020 16:53 -1,7 C 98 % 1024,3 hPa 0,0 l/m 1,6 km/h (1 Bft) W-SW 247 0 min 0,000 mm 0,0 UV-I 0 W/m -2,0 C -1,7 C 3,2 km/h (1 Bft) 100,00 %
25.11.2020 16:52 -1,7 C 98 % 1024,3 hPa 0,0 l/m 1,6 km/h (1 Bft) W-SW 247 0 min 0,000 mm 0,0 UV-I 0 W/m -2,0 C -1,7 C 3,2 km/h (1 Bft) 100,00 %
25.11.2020 16:51 -1,6 C 98 % 1024,3 hPa 0,0 l/m 1,6 km/h (1 Bft) W-SW 247 0 min 0,000 mm 0,0 UV-I 0 W/m -1,9 C -1,6 C 3,2 km/h (1 Bft) 100,00 %
25.11.2020 16:50 -1,6 C 98 % 1024,2 hPa 0,0 l/m 1,6 km/h (1 Bft) W-SW 247 0 min 0,000 mm 0,0 UV-I 0 W/m -1,9 C -1,6 C 3,2 km/h (1 Bft) 100,00 %
25.11.2020 16:49 -1,6 C 98 % 1024,3 hPa 0,0 l/m 3,2 km/h (1 Bft) W-SW 247 0 min 0,000 mm 0,0 UV-I 0 W/m -1,9 C -1,6 C 4,8 km/h (1 Bft) 100,00 %
25.11.2020 16:48 -1,5 C 98 % 1024,3 hPa 0,0 l/m 3,2 km/h (1 Bft) W-SW 247 0 min 0,000 mm 0,0 UV-I 0 W/m -1,8 C -1,5 C 3,2 km/h (1 Bft) 100,00 %
25.11.2020 16:47 -1,5 C 98 % 1024,2 hPa 0,0 l/m 3,2 km/h (1 Bft) W-SW 247 0 min 0,000 mm 0,0 UV-I 0 W/m -1,8 C -1,5 C 4,8 km/h (1 Bft) 100,00 %
25.11.2020 16:46 -1,5 C 98 % 1024,2 hPa 0,0 l/m 3,2 km/h (1 Bft) W-SW 247 0 min 0,000 mm 0,0 UV-I 0 W/m -1,8 C -1,5 C 4,8 km/h (1 Bft) 100,00 %
25.11.2020 16:45 -1,5 C 98 % 1024,3 hPa 0,0 l/m 3,2 km/h (1 Bft) SW 225 0 min 0,000 mm 0,0 UV-I 0 W/m -1,8 C -1,5 C 3,2 km/h (1 Bft) 95,65 %
25.11.2020 16:44 -1,4 C 98 % 1024,2 hPa 0,0 l/m 3,2 km/h (1 Bft) SW 225 0 min 0,000 mm 0,0 UV-I 0 W/m -1,7 C -1,4 C 4,8 km/h (1 Bft) 100,00 %
25.11.2020 16:43 -1,4 C 98 % 1024,3 hPa 0,0 l/m 3,2 km/h (1 Bft) SW 225 0 min 0,000 mm 0,0 UV-I 0 W/m -1,7 C -1,4 C 4,8 km/h (1 Bft) 100,00 %
25.11.2020 16:42 -1,4 C 98 % 1024,3 hPa 0,0 l/m 4,8 km/h (1 Bft) SW 225 0 min 0,000 mm 0,0 UV-I 0 W/m -1,7 C -3,1 C 6,4 km/h (2 Bft) 100,00 %
25.11.2020 16:41 -1,4 C 98 % 1024,2 hPa 0,0 l/m 3,2 km/h (1 Bft) SW 225 0 min 0,000 mm 0,0 UV-I 0 W/m -1,7 C -1,4 C 4,8 km/h (1 Bft) 100,00 %
25.11.2020 16:40 -1,4 C 98 % 1024,3 hPa 0,0 l/m 1,6 km/h (1 Bft) W-SW 247 0 min 0,000 mm 0,0 UV-I 0 W/m -1,7 C -1,4 C 3,2 km/h (1 Bft) 95,65 %
25.11.2020 16:39 -1,4 C 98 % 1024,3 hPa 0,0 l/m 3,2 km/h (1 Bft) W-SW 247 0 min 0,000 mm 0,0 UV-I 0 W/m -1,7 C -1,4 C 4,8 km/h (1 Bft) 100,00 %
25.11.2020 16:38 -1,4 C 98 % 1024,3 hPa 0,0 l/m 3,2 km/h (1 Bft) W-SW 247 0 min 0,000 mm 0,0 UV-I 0 W/m -1,7 C -1,4 C 4,8 km/h (1 Bft) 100,00 %
25.11.2020 16:37 -1,3 C 98 % 1024,3 hPa 0,0 l/m 4,8 km/h (1 Bft) W-SW 247 0 min 0,000 mm 0,0 UV-I 0 W/m -1,6 C -3,0 C 6,4 km/h (2 Bft) 95,65 %
25.11.2020 16:36 -1,3 C 98 % 1024,3 hPa 0,0 l/m 3,2 km/h (1 Bft) SW 225 0 min 0,000 mm 0,0 UV-I 0 W/m -1,6 C -1,3 C 3,2 km/h (1 Bft) 100,00 %
25.11.2020 16:35 -1,3 C 98 % 1024,3 hPa 0,0 l/m 3,2 km/h (1 Bft) SW 225 0 min 0,000 mm 0,0 UV-I 0 W/m -1,6 C -1,3 C 6,4 km/h (2 Bft) 95,65 %
25.11.2020 16:34 -1,2 C 98 % 1024,2 hPa 0,0 l/m 4,8 km/h (1 Bft) S-SW 202 0 min 0,000 mm 0,0 UV-I 0 W/m -1,5 C -2,9 C 6,4 km/h (2 Bft) 95,65 %
25.11.2020 16:33 -1,2 C 98 % 1024,2 hPa 0,0 l/m 6,4 km/h (2 Bft) SW 225 0 min 0,000 mm 0,0 UV-I 0 W/m -1,5 C -3,6 C 6,4 km/h (2 Bft) 100,00 %
25.11.2020 16:32 -1,2 C 98 % 1024,3 hPa 0,0 l/m 3,2 km/h (1 Bft) SW 225 0 min 0,000 mm 0,0 UV-I 0 W/m -1,5 C -1,2 C 6,4 km/h (2 Bft) 100,00 %
25.11.2020 16:31 -1,2 C 98 % 1024,2 hPa 0,0 l/m 3,2 km/h (1 Bft) SW 225 0 min 0,000 mm 0,0 UV-I 0 W/m -1,5 C -1,2 C 4,8 km/h (1 Bft) 100,00 %
25.11.2020 16:30 -1,2 C 98 % 1024,3 hPa 0,0 l/m 1,6 km/h (1 Bft) SW 225 0 min 0,000 mm 0,0 UV-I 0 W/m -1,5 C -1,2 C 4,8 km/h (1 Bft) 100,00 %
25.11.2020 16:29 -1,2 C 98 % 1024,3 hPa 0,0 l/m 0,0 km/h (0 Bft) N 0 0 min 0,000 mm 0,0 UV-I 0 W/m -1,5 C -1,2 C 0,0 km/h (0 Bft) 100,00 %
25.11.2020 16:28 -1,2 C 98 % 1024,3 hPa 0,0 l/m 0,0 km/h (0 Bft) N 0 0 min 0,000 mm 0,0 UV-I 0 W/m -1,5 C -1,2 C 0,0 km/h (0 Bft) 100,00 %
25.11.2020 16:27 -1,2 C 98 % 1024,2 hPa 0,0 l/m 0,0 km/h (0 Bft) N 0 0 min 0,000 mm 0,0 UV-I 0 W/m -1,5 C -1,2 C 0,0 km/h (0 Bft) 95,65 %
25.11.2020 16:26 -1,2 C 98 % 1024,3 hPa 0,0 l/m 0,0 km/h (0 Bft) W-SW 247 0 min 0,000 mm 0,0 UV-I 0 W/m -1,5 C -1,2 C 1,6 km/h (1 Bft) 100,00 %
25.11.2020 16:25 -1,2 C 98 % 1024,3 hPa 0,0 l/m 1,6 km/h (1 Bft) W-SW 247 0 min 0,000 mm 0,0 UV-I 0 W/m -1,5 C -1,2 C 1,6 km/h (1 Bft) 95,65 %
25.11.2020 16:24 -1,2 C 98 % 1024,3 hPa 0,0 l/m 1,6 km/h (1 Bft) W-SW 247 0 min 0,000 mm 0,0 UV-I 0 W/m -1,5 C -1,2 C 3,2 km/h (1 Bft) 100,00 %
25.11.2020 16:23 -1,2 C 98 % 1024,4 hPa 0,0 l/m 1,6 km/h (1 Bft) W-SW 247 0 min 0,000 mm 0,0 UV-I 0 W/m -1,5 C -1,2 C 3,2 km/h (1 Bft) 100,00 %
25.11.2020 16:22 -1,2 C 98 % 1024,3 hPa 0,0 l/m 1,6 km/h (1 Bft) W-SW 247 0 min 0,000 mm 0,0 UV-I 0 W/m -1,5 C -1,2 C 1,6 km/h (1 Bft) 95,65 %
25.11.2020 16:21 -1,1 C 98 % 1024,3 hPa 0,0 l/m 3,2 km/h (1 Bft) W-SW 247 0 min 0,000 mm 0,0 UV-I 0 W/m -1,4 C -1,1 C 6,4 km/h (2 Bft) 100,00 %
25.11.2020 16:20 -1,1 C 98 % 1024,3 hPa 0,0 l/m 3,2 km/h (1 Bft) W-SW 247 0 min 0,000 mm 0,0 UV-I 0 W/m -1,4 C -1,1 C 4,8 km/h (1 Bft) 95,65 %
25.11.2020 16:19 -1,1 C 98 % 1024,2 hPa 0,0 l/m 1,6 km/h (1 Bft) W-SW 247 0 min 0,000 mm 0,0 UV-I 0 W/m -1,4 C -1,1 C 4,8 km/h (1 Bft) 100,00 %
25.11.2020 16:18 -1,1 C 98 % 1024,2 hPa 0,0 l/m 1,6 km/h (1 Bft) SW 225 0 min 0,000 mm 0,0 UV-I 0 W/m -1,4 C -1,1 C 3,2 km/h (1 Bft) 100,00 %
25.11.2020 16:17 -1,1 C 98 % 1024,2 hPa 0,0 l/m 1,6 km/h (1 Bft) SW 225 0 min 0,000 mm 0,0 UV-I 0 W/m -1,4 C -1,1 C 3,2 km/h (1 Bft) 100,00 %
25.11.2020 16:16 -1,1 C 98 % 1024,2 hPa 0,0 l/m 3,2 km/h (1 Bft) SW 225 0 min 0,000 mm 0,0 UV-I 0 W/m -1,4 C -1,1 C 4,8 km/h (1 Bft) 95,65 %
25.11.2020 16:15 -1,1 C 98 % 1024,2 hPa 0,0 l/m 3,2 km/h (1 Bft) S-SW 202 0 min 0,000 mm 0,0 UV-I 0 W/m -1,4 C -1,1 C 4,8 km/h (1 Bft) 95,65 %
25.11.2020 16:14 -1,0 C 98 % 1024,2 hPa 0,0 l/m 3,2 km/h (1 Bft) SW 225 0 min 0,000 mm 0,0 UV-I 0 W/m -1,3 C -1,0 C 4,8 km/h (1 Bft) 100,00 %
25.11.2020 16:13 -1,0 C 98 % 1024,2 hPa 0,0 l/m 3,2 km/h (1 Bft) W-SW 247 0 min 0,000 mm 0,0 UV-I 5 W/m -1,3 C -1,0 C 4,8 km/h (1 Bft) 91,30 %
25.11.2020 16:12 -0,9 C 98 % 1024,2 hPa 0,0 l/m 4,8 km/h (1 Bft) W-SW 247 0 min 0,000 mm 0,0 UV-I 5 W/m -1,2 C -2,5 C 6,4 km/h (2 Bft) 100,00 %
25.11.2020 16:11 -0,9 C 98 % 1024,1 hPa 0,0 l/m 4,8 km/h (1 Bft) W-SW 247 0 min 0,000 mm 0,0 UV-I 5 W/m -1,2 C -2,5 C 6,4 km/h (2 Bft) 100,00 %
25.11.2020 16:10 -0,9 C 98 % 1024,2 hPa 0,0 l/m 4,8 km/h (1 Bft) W-SW 247 0 min 0,000 mm 0,0 UV-I 5 W/m -1,2 C -2,5 C 6,4 km/h (2 Bft) 95,65 %
25.11.2020 16:09 -0,8 C 98 % 1024,2 hPa 0,0 l/m 4,8 km/h (1 Bft) W-SW 247 0 min 0,000 mm 0,0 UV-I 5 W/m -1,1 C -2,4 C 6,4 km/h (2 Bft) 100,00 %
25.11.2020 16:08 -0,9 C 98 % 1024,2 hPa 0,0 l/m 6,4 km/h (2 Bft) SW 225 0 min 0,000 mm 0,0 UV-I 5 W/m -1,2 C -3,2 C 6,4 km/h (2 Bft) 100,00 %
25.11.2020 16:07 -0,8 C 98 % 1024,2 hPa 0,0 l/m 6,4 km/h (2 Bft) SW 225 0 min 0,000 mm 0,0 UV-I 5 W/m -1,1 C -3,1 C 8,0 km/h (2 Bft) 100,00 %
25.11.2020 16:06 -0,8 C 98 % 1024,2 hPa 0,0 l/m 6,4 km/h (2 Bft) SW 225 0 min 0,000 mm 0,0 UV-I 7 W/m -1,1 C -3,1 C 6,4 km/h (2 Bft) 95,65 %
25.11.2020 16:05 -0,8 C 98 % 1024,2 hPa 0,0 l/m 4,8 km/h (1 Bft) SW 225 0 min 0,000 mm 0,0 UV-I 7 W/m -1,1 C -2,4 C 8,0 km/h (2 Bft) 100,00 %
25.11.2020 16:04 -0,8 C 98 % 1024,2 hPa 0,0 l/m 4,8 km/h (1 Bft) SW 225 0 min 0,000 mm 0,0 UV-I 7 W/m -1,1 C -2,4 C 4,8 km/h (1 Bft) 95,65 %
25.11.2020 16:03 -0,8 C 98 % 1024,2 hPa 0,0 l/m 3,2 km/h (1 Bft) W-SW 247 0 min 0,000 mm 0,0 UV-I 7 W/m -1,1 C -0,8 C 4,8 km/h (1 Bft) 100,00 %
25.11.2020 16:02 -0,8 C 98 % 1024,2 hPa 0,0 l/m 3,2 km/h (1 Bft) W-SW 247 0 min 0,000 mm 0,0 UV-I 9 W/m -1,1 C -0,8 C 4,8 km/h (1 Bft) 100,00 %
25.11.2020 16:01 -0,7 C 98 % 1024,2 hPa 0,0 l/m 6,4 km/h (2 Bft) W-SW 247 0 min 0,000 mm 0,0 UV-I 9 W/m -1,0 C -3,0 C 8,0 km/h (2 Bft) 100,00 %
25.11.2020 16:00 -0,7 C 98 % 1024,0 hPa 0,0 l/m 3,2 km/h (1 Bft) SW 225 0 min 0,000 mm 0,0 UV-I 9 W/m -1,0 C -0,7 C 8,0 km/h (2 Bft) 100,00 %
25.11.2020 15:59 -0,7 C 98 % 1024,1 hPa 0,0 l/m 1,6 km/h (1 Bft) SW 225 0 min 0,000 mm 0,0 UV-I 9 W/m -1,0 C -0,7 C 3,2 km/h (1 Bft) 100,00 %
25.11.2020 15:58 -0,7 C 98 % 1024,1 hPa 0,0 l/m 1,6 km/h (1 Bft) SW 225 0 min 0,000 mm 0,0 UV-I 11 W/m -1,0 C -0,7 C 3,2 km/h (1 Bft) 100,00 %
25.11.2020 15:57 -0,7 C 98 % 1024,1 hPa 0,0 l/m 3,2 km/h (1 Bft) SW 225 0 min 0,000 mm 0,0 UV-I 12 W/m -1,0 C -0,7 C 4,8 km/h (1 Bft) 100,00 %
25.11.2020 15:56 -0,7 C 98 % 1024,0 hPa 0,0 l/m 3,2 km/h (1 Bft) SW 225 0 min 0,000 mm 0,0 UV-I 12 W/m -1,0 C -0,7 C 3,2 km/h (1 Bft) 100,00 %
25.11.2020 15:55 -0,7 C 98 % 1024,1 hPa 0,0 l/m 1,6 km/h (1 Bft) SW 225 0 min 0,000 mm 0,0 UV-I 12 W/m -1,0 C -0,7 C 3,2 km/h (1 Bft) 100,00 %
25.11.2020 15:54 -0,7 C 98 % 1024,1 hPa 0,0 l/m 1,6 km/h (1 Bft) SW 225 0 min 0,000 mm 0,0 UV-I 14 W/m -1,0 C -0,7 C 3,2 km/h (1 Bft) 100,00 %
25.11.2020 15:53 -0,7 C 98 % 1024,1 hPa 0,0 l/m 0,0 km/h (0 Bft) SW 225 0 min 0,000 mm 0,0 UV-I 14 W/m -1,0 C -0,7 C 1,6 km/h (1 Bft) 100,00 %
25.11.2020 15:52 -0,6 C 98 % 1024,0 hPa 0,0 l/m 1,6 km/h (1 Bft) SW 225 0 min 0,000 mm 0,0 UV-I 14 W/m -0,9 C -0,6 C 1,6 km/h (1 Bft) 100,00 %
25.11.2020 15:51 -0,6 C 98 % 1024,1 hPa 0,0 l/m 3,2 km/h (1 Bft) SW 225 0 min 0,000 mm 0,0 UV-I 18 W/m -0,9 C -0,6 C 4,8 km/h (1 Bft) 100,00 %
25.11.2020 15:50 -0,6 C 98 % 1024,1 hPa 0,0 l/m 3,2 km/h (1 Bft) W-SW 247 0 min 0,000 mm 0,0 UV-I 19 W/m -0,9 C -0,6 C 4,8 km/h (1 Bft) 100,00 %
25.11.2020 15:49 -0,6 C 98 % 1024,1 hPa 0,0 l/m 1,6 km/h (1 Bft) SW 225 0 min 0,000 mm 0,0 UV-I 18 W/m -0,9 C -0,6 C 3,2 km/h (1 Bft) 95,65 %
25.11.2020 15:48 -0,6 C 98 % 1024,1 hPa 0,0 l/m 3,2 km/h (1 Bft) SW 225 0 min 0,000 mm 0,0 UV-I 18 W/m -0,9 C -0,6 C 4,8 km/h (1 Bft) 100,00 %
25.11.2020 15:47 -0,6 C 98 % 1024,1 hPa 0,0 l/m 4,8 km/h (1 Bft) SW 225 0 min 0,000 mm 0,0 UV-I 18 W/m -0,9 C -2,2 C 6,4 km/h (2 Bft) 91,30 %
25.11.2020 15:46 -0,6 C 98 % 1024,0 hPa 0,0 l/m 3,2 km/h (1 Bft) SW 225 0 min 0,000 mm 0,0 UV-I 18 W/m -0,9 C -0,6 C 4,8 km/h (1 Bft) 100,00 %
25.11.2020 15:45 -0,6 C 98 % 1024,1 hPa 0,0 l/m 3,2 km/h (1 Bft) SW 225 0 min 0,000 mm 0,0 UV-I 21 W/m -0,9 C -0,6 C 4,8 km/h (1 Bft) 100,00 %
25.11.2020 15:44 -0,6 C 98 % 1024,1 hPa 0,0 l/m 1,6 km/h (1 Bft) W-SW 247 0 min 0,000 mm 0,0 UV-I 26 W/m -0,9 C -0,6 C 1,6 km/h (1 Bft) 100,00 %
25.11.2020 15:43 -0,6 C 98 % 1024,1 hPa 0,0 l/m 1,6 km/h (1 Bft) W-SW 247 0 min 0,000 mm 0,0 UV-I 32 W/m -0,9 C -0,6 C 3,2 km/h (1 Bft) 100,00 %
25.11.2020 15:42 -0,5 C 98 % 1024,1 hPa 0,0 l/m 3,2 km/h (1 Bft) W-SW 247 0 min 0,000 mm 0,0 UV-I 28 W/m -0,8 C -0,5 C 3,2 km/h (1 Bft) 91,30 %
25.11.2020 15:41 -0,6 C 98 % 1024,1 hPa 0,0 l/m 3,2 km/h (1 Bft) W-SW 247 0 min 0,000 mm 0,0 UV-I 33 W/m -0,9 C -0,6 C 4,8 km/h (1 Bft) 100,00 %
25.11.2020 15:40 -0,5 C 98 % 1024,1 hPa 0,0 l/m 3,2 km/h (1 Bft) S-SW 202 0 min 0,000 mm 0,0 UV-I 30 W/m -0,8 C -0,5 C 3,2 km/h (1 Bft) 100,00 %
25.11.2020 15:39 -0,5 C 98 % 1024,0 hPa 0,0 l/m 3,2 km/h (1 Bft) S-SW 202 0 min 0,000 mm 0,0 UV-I 28 W/m -0,8 C -0,5 C 3,2 km/h (1 Bft) 95,65 %
25.11.2020 15:38 -0,6 C 98 % 1024,0 hPa 0,0 l/m 1,6 km/h (1 Bft) S-SW 202 0 min 0,000 mm 0,0 UV-I 30 W/m -0,9 C -0,6 C 1,6 km/h (1 Bft) 8,70 %
25.11.2020 15:37 -0,6 C 98 % 1024,0 hPa 0,0 l/m 0,0 km/h (0 Bft) N 0 0 min 0,000 mm 0,0 UV-I 30 W/m -0,9 C -0,6 C 0,0 km/h (0 Bft) 43,48 %
25.11.2020 15:36 -0,6 C 98 % 1024,0 hPa 0,0 l/m 0,0 km/h (0 Bft) S-SW 202 0 min 0,000 mm 0,0 UV-I 28 W/m -0,9 C -0,6 C 1,6 km/h (1 Bft) 100,00 %
25.11.2020 15:35 -0,6 C 98 % 1024,1 hPa 0,0 l/m 1,6 km/h (1 Bft) S-SW 202 0 min 0,000 mm 0,0 UV-I 25 W/m -0,9 C -0,6 C 1,6 km/h (1 Bft) 95,65 %
25.11.2020 15:34 -0,6 C 98 % 1024,0 hPa 0,0 l/m 1,6 km/h (1 Bft) S-SW 202 0 min 0,000 mm 0,0 UV-I 28 W/m -0,9 C -0,6 C 3,2 km/h (1 Bft) 100,00 %
25.11.2020 15:33 -0,6 C 98 % 1024,0 hPa 0,0 l/m 1,6 km/h (1 Bft) S-SW 202 0 min 0,000 mm 0,0 UV-I 33 W/m -0,9 C -0,6 C 3,2 km/h (1 Bft) 100,00 %
25.11.2020 15:32 -0,6 C 98 % 1024,1 hPa 0,0 l/m 3,2 km/h (1 Bft) S-SW 202 0 min 0,000 mm 0,0 UV-I 37 W/m -0,9 C -0,6 C 4,8 km/h (1 Bft) 100,00 %
25.11.2020 15:31 -0,6 C 98 % 1024,1 hPa 0,0 l/m 3,2 km/h (1 Bft) S-SW 202 0 min 0,000 mm 0,0 UV-I 33 W/m -0,9 C -0,6 C 4,8 km/h (1 Bft) 100,00 %
25.11.2020 15:30 -0,6 C 98 % 1024,1 hPa 0,0 l/m 1,6 km/h (1 Bft) S-SW 202 0 min 0,000 mm 0,0 UV-I 33 W/m -0,9 C -0,6 C 4,8 km/h (1 Bft) 100,00 %
25.11.2020 15:29 -0,6 C 98 % 1024,0 hPa 0,0 l/m 1,6 km/h (1 Bft) SW 225 0 min 0,000 mm 0,0 UV-I 40 W/m -0,9 C -0,6 C 3,2 km/h (1 Bft) 95,65 %
25.11.2020 15:28 -0,6 C 98 % 1024,1 hPa 0,0 l/m 1,6 km/h (1 Bft) SW 225 0 min 0,000 mm 0,0 UV-I 39 W/m -0,9 C -0,6 C 3,2 km/h (1 Bft) 100,00 %
25.11.2020 15:27 -0,6 C 98 % 1024,0 hPa 0,0 l/m 3,2 km/h (1 Bft) SW 225 0 min 0,000 mm 0,0 UV-I 44 W/m -0,9 C -0,6 C 4,8 km/h (1 Bft) 95,65 %
25.11.2020 15:26 -0,6 C 98 % 1024,1 hPa 0,0 l/m 1,6 km/h (1 Bft) W-SW 247 0 min 0,000 mm 0,0 UV-I 46 W/m -0,9 C -0,6 C 3,2 km/h (1 Bft) 100,00 %
25.11.2020 15:25 -0,6 C 98 % 1024,0 hPa 0,0 l/m 1,6 km/h (1 Bft) W-SW 247 0 min 0,000 mm 0,0 UV-I 44 W/m -0,9 C -0,6 C 4,8 km/h (1 Bft) 100,00 %
25.11.2020 15:24 -0,6 C 98 % 1024,1 hPa 0,0 l/m 3,2 km/h (1 Bft) W-SW 247 0 min 0,000 mm 0,0 UV-I 40 W/m -0,9 C -0,6 C 4,8 km/h (1 Bft) 100,00 %
25.11.2020 15:23 -0,6 C 98 % 1024,0 hPa 0,0 l/m 3,2 km/h (1 Bft) W-SW 247 0 min 0,000 mm 0,0 UV-I 49 W/m -0,9 C -0,6 C 4,8 km/h (1 Bft) 95,65 %
25.11.2020 15:22 -0,6 C 98 % 1024,1 hPa 0,0 l/m 3,2 km/h (1 Bft) W-SW 247 0 min 0,000 mm 0,0 UV-I 46 W/m -0,9 C -0,6 C 4,8 km/h (1 Bft) 95,65 %
25.11.2020 15:21 -0,6 C 98 % 1024,0 hPa 0,0 l/m 4,8 km/h (1 Bft) SW 225 0 min 0,000 mm 0,0 UV-I 44 W/m -0,9 C -2,2 C 6,4 km/h (2 Bft) 100,00 %
25.11.2020 15:20 -0,5 C 98 % 1024,0 hPa 0,0 l/m 8,0 km/h (2 Bft) W-SW 247 0 min 0,000 mm 0,0 UV-I 39 W/m -0,8 C -3,3 C 11,3 km/h (2 Bft) 100,00 %
25.11.2020 15:19 -0,5 C 98 % 1024,0 hPa 0,0 l/m 6,4 km/h (2 Bft) W-SW 247 0 min 0,000 mm 0,0 UV-I 40 W/m -0,8 C -2,8 C 8,0 km/h (2 Bft) 100,00 %
25.11.2020 15:18 -0,5 C 98 % 1024,1 hPa 0,0 l/m 6,4 km/h (2 Bft) SW 225 0 min 0,000 mm 0,0 UV-I 44 W/m -0,8 C -2,8 C 8,0 km/h (2 Bft) 95,65 %
25.11.2020 15:17 -0,4 C 98 % 1024,1 hPa 0,0 l/m 6,4 km/h (2 Bft) W-SW 247 0 min 0,000 mm 0,0 UV-I 40 W/m -0,7 C -2,6 C 8,0 km/h (2 Bft) 100,00 %
25.11.2020 15:16 -0,4 C 98 % 1024,0 hPa 0,0 l/m 4,8 km/h (1 Bft) W-SW 247 0 min 0,000 mm 0,0 UV-I 58 W/m -0,7 C -1,9 C 6,4 km/h (2 Bft) 100,00 %
25.11.2020 15:15 -0,4 C 98 % 1024,0 hPa 0,0 l/m 4,8 km/h (1 Bft) W-SW 247 0 min 0,000 mm 0,0 UV-I 65 W/m -0,7 C -1,9 C 6,4 km/h (2 Bft) 95,65 %
25.11.2020 15:14 -0,5 C 98 % 1024,0 hPa 0,0 l/m 3,2 km/h (1 Bft) W-SW 247 0 min 0,000 mm 0,0 UV-I 62 W/m -0,8 C -0,5 C 4,8 km/h (1 Bft) 100,00 %
25.11.2020 15:13 -0,5 C 98 % 1024,0 hPa 0,0 l/m 3,2 km/h (1 Bft) W-SW 247 0 min 0,000 mm 0,0 UV-I 67 W/m -0,8 C -0,5 C 4,8 km/h (1 Bft) 95,65 %
25.11.2020 15:12 -0,5 C 98 % 1024,0 hPa 0,0 l/m 1,6 km/h (1 Bft) S 180 0 min 0,000 mm 0,0 UV-I 67 W/m -0,8 C -0,5 C 1,6 km/h (1 Bft) 100,00 %
25.11.2020 15:11 -0,5 C 98 % 1024,0 hPa 0,0 l/m 1,6 km/h (1 Bft) S 180 0 min 0,000 mm 0,0 UV-I 67 W/m -0,8 C -0,5 C 3,2 km/h (1 Bft) 100,00 %
25.11.2020 15:10 -0,5 C 98 % 1024,0 hPa 0,0 l/m 3,2 km/h (1 Bft) S 180 0 min 0,000 mm 0,0 UV-I 72 W/m -0,8 C -0,5 C 4,8 km/h (1 Bft) 95,65 %
25.11.2020 15:09 -0,5 C 98 % 1024,0 hPa 0,0 l/m 3,2 km/h (1 Bft) SW 225 0 min 0,000 mm 0,0 UV-I 81 W/m -0,8 C -0,5 C 4,8 km/h (1 Bft) 100,00 %
25.11.2020 15:08 -0,5 C 98 % 1023,9 hPa 0,0 l/m 3,2 km/h (1 Bft) SW 225 0 min 0,000 mm 0,0 UV-I 77 W/m -0,8 C -0,5 C 4,8 km/h (1 Bft) 100,00 %
25.11.2020 15:07 -0,5 C 98 % 1023,9 hPa 0,0 l/m 1,6 km/h (1 Bft) W-SW 247 0 min 0,000 mm 0,0 UV-I 60 W/m -0,8 C -0,5 C 3,2 km/h (1 Bft) 100,00 %
25.11.2020 15:06 -0,5 C 98 % 1024,0 hPa 0,0 l/m 3,2 km/h (1 Bft) SW 225 0 min 0,000 mm 0,0 UV-I 53 W/m -0,8 C -0,5 C 4,8 km/h (1 Bft) 100,00 %
25.11.2020 15:05 -0,5 C 98 % 1024,0 hPa 0,0 l/m 1,6 km/h (1 Bft) SW 225 0 min 0,000 mm 0,0 UV-I 60 W/m -0,8 C -0,5 C 4,8 km/h (1 Bft) 95,65 %
25.11.2020 15:04 -0,5 C 98 % 1024,1 hPa 0,0 l/m 3,2 km/h (1 Bft) SW 225 0 min 0,000 mm 0,0 UV-I 63 W/m -0,8 C -0,5 C 4,8 km/h (1 Bft) 100,00 %
25.11.2020 15:03 -0,5 C 98 % 1024,1 hPa 0,0 l/m 4,8 km/h (1 Bft) SW 225 0 min 0,000 mm 0,0 UV-I 58 W/m -0,8 C -2,1 C 6,4 km/h (2 Bft) 100,00 %
25.11.2020 15:02 -0,5 C 98 % 1024,1 hPa 0,0 l/m 3,2 km/h (1 Bft) W-SW 247 0 min 0,000 mm 0,0 UV-I 56 W/m -0,8 C -0,5 C 4,8 km/h (1 Bft) 100,00 %
25.11.2020 15:01 -0,4 C 98 % 1024,1 hPa 0,0 l/m 3,2 km/h (1 Bft) W 270 0 min 0,000 mm 0,0 UV-I 56 W/m -0,7 C -0,4 C 4,8 km/h (1 Bft) 100,00 %
25.11.2020 15:00 -0,4 C 98 % 1024,1 hPa 0,0 l/m 3,2 km/h (1 Bft) W 270 0 min 0,025 mm 0,0 UV-I 60 W/m -0,7 C -0,4 C 3,2 km/h (1 Bft) 100,00 %
25.11.2020 14:59 -0,5 C 98 % 1024,1 hPa 0,0 l/m 3,2 km/h (1 Bft) W-SW 247 0 min 0,000 mm 0,0 UV-I 56 W/m -0,8 C -0,5 C 4,8 km/h (1 Bft) 100,00 %
25.11.2020 14:58 -0,5 C 98 % 1024,1 hPa 0,0 l/m 4,8 km/h (1 Bft) W-SW 247 0 min 0,000 mm 0,0 UV-I 62 W/m -0,8 C -2,1 C 6,4 km/h (2 Bft) 100,00 %
25.11.2020 14:57 -0,5 C 98 % 1024,2 hPa 0,0 l/m 4,8 km/h (1 Bft) W-SW 247 0 min 0,000 mm 0,0 UV-I 65 W/m -0,8 C -2,1 C 6,4 km/h (2 Bft) 100,00 %
25.11.2020 14:56 -0,5 C 98 % 1024,1 hPa 0,0 l/m 6,4 km/h (2 Bft) SW 225 0 min 0,000 mm 0,0 UV-I 62 W/m -0,8 C -2,8 C 8,0 km/h (2 Bft) 100,00 %
25.11.2020 14:55 -0,6 C 98 % 1024,1 hPa 0,0 l/m 6,4 km/h (2 Bft) SW 225 0 min 0,000 mm 0,0 UV-I 69 W/m -0,9 C -2,9 C 6,4 km/h (2 Bft) 100,00 %
25.11.2020 14:54 -0,6 C 98 % 1024,1 hPa 0,0 l/m 4,8 km/h (1 Bft) SW 225 0 min 0,000 mm 0,0 UV-I 69 W/m -0,9 C -2,2 C 6,4 km/h (2 Bft) 100,00 %
25.11.2020 14:53 -0,7 C 98 % 1024,1 hPa 0,0 l/m 3,2 km/h (1 Bft) W-NW 292 0 min 0,000 mm 0,0 UV-I 70 W/m -1,0 C -0,7 C 6,4 km/h (2 Bft) 95,65 %
25.11.2020 14:52 -0,7 C 98 % 1024,2 hPa 0,0 l/m 1,6 km/h (1 Bft) SO 135 0 min 0,000 mm 0,0 UV-I 67 W/m -1,0 C -0,7 C 4,8 km/h (1 Bft) 100,00 %
25.11.2020 14:51 -0,7 C 98 % 1024,2 hPa 0,0 l/m 0,0 km/h (0 Bft) N 0 0 min 0,000 mm 0,0 UV-I 65 W/m -1,0 C -0,7 C 0,0 km/h (0 Bft) 100,00 %
25.11.2020 14:50 -0,7 C 98 % 1024,2 hPa 0,0 l/m 0,0 km/h (0 Bft) N 0 0 min 0,000 mm 0,0 UV-I 69 W/m -1,0 C -0,7 C 0,0 km/h (0 Bft) 100,00 %
25.11.2020 14:49 -0,7 C 98 % 1024,1 hPa 0,0 l/m 0,0 km/h (0 Bft) N 0 0 min 0,000 mm 0,0 UV-I 69 W/m -1,0 C -0,7 C 0,0 km/h (0 Bft) 100,00 %
25.11.2020 14:48 -0,7 C 98 % 1024,1 hPa 0,0 l/m 0,0 km/h (0 Bft) N 0 0 min 0,000 mm 0,0 UV-I 63 W/m -1,0 C -0,7 C 0,0 km/h (0 Bft) 95,65 %
25.11.2020 14:47 -0,7 C 98 % 1024,2 hPa 0,0 l/m 1,6 km/h (1 Bft) O-NO 67 0 min 0,000 mm 0,0 UV-I 62 W/m -1,0 C -0,7 C 1,6 km/h (1 Bft) 100,00 %
25.11.2020 14:46 -0,7 C 98 % 1024,2 hPa 0,0 l/m 1,6 km/h (1 Bft) O-NO 67 0 min 0,000 mm 0,0 UV-I 77 W/m -1,0 C -0,7 C 3,2 km/h (1 Bft) 100,00 %
25.11.2020 14:45 -0,7 C 98 % 1024,2 hPa 0,0 l/m 0,0 km/h (0 Bft) N 0 0 min 0,000 mm 0,0 UV-I 76 W/m -1,0 C -0,7 C 0,0 km/h (0 Bft) 100,00 %
25.11.2020 14:44 -0,7 C 98 % 1024,1 hPa 0,0 l/m 0,0 km/h (0 Bft) O-NO 67 0 min 0,000 mm 0,0 UV-I 72 W/m -1,0 C -0,7 C 1,6 km/h (1 Bft) 100,00 %
25.11.2020 14:43 -0,7 C 98 % 1024,1 hPa 0,0 l/m 0,0 km/h (0 Bft) O-NO 67 0 min 0,000 mm 0,0 UV-I 74 W/m -1,0 C -0,7 C 1,6 km/h (1 Bft) 100,00 %
25.11.2020 14:42 -0,7 C 98 % 1024,1 hPa 0,0 l/m 1,6 km/h (1 Bft) O-NO 67 0 min 0,000 mm 0,0 UV-I 74 W/m -1,0 C -0,7 C 3,2 km/h (1 Bft) 100,00 %
25.11.2020 14:41 -0,6 C 98 % 1024,2 hPa 0,0 l/m 1,6 km/h (1 Bft) O-NO 67 0 min 0,000 mm 0,0 UV-I 72 W/m -0,9 C -0,6 C 1,6 km/h (1 Bft) 100,00 %
25.11.2020 14:40 -0,6 C 98 % 1024,1 hPa 0,0 l/m 1,6 km/h (1 Bft) O-NO 67 0 min 0,000 mm 0,0 UV-I 74 W/m -0,9 C -0,6 C 1,6 km/h (1 Bft) 100,00 %
25.11.2020 14:39 -0,6 C 98 % 1024,1 hPa 0,0 l/m 1,6 km/h (1 Bft) O-NO 67 0 min 0,000 mm 0,0 UV-I 77 W/m -0,9 C -0,6 C 3,2 km/h (1 Bft) 100,00 %
25.11.2020 14:38 -0,5 C 98 % 1024,2 hPa 0,0 l/m 1,6 km/h (1 Bft) O-NO 67 0 min 0,000 mm 0,0 UV-I 77 W/m -0,8 C -0,5 C 3,2 km/h (1 Bft) 100,00 %
25.11.2020 14:37 -0,4 C 98 % 1024,2 hPa 0,0 l/m 3,2 km/h (1 Bft) O-NO 67 0 min 0,000 mm 0,0 UV-I 83 W/m -0,7 C -0,4 C 4,8 km/h (1 Bft) 100,00 %
25.11.2020 14:36 -0,3 C 98 % 1024,1 hPa 0,0 l/m 4,8 km/h (1 Bft) O-NO 67 0 min 0,000 mm 0,0 UV-I 84 W/m -0,6 C -1,8 C 6,4 km/h (2 Bft) 100,00 %
25.11.2020 14:35 -0,3 C 98 % 1024,2 hPa 0,0 l/m 4,8 km/h (1 Bft) O-NO 67 0 min 0,000 mm 0,0 UV-I 83 W/m -0,6 C -1,8 C 6,4 km/h (2 Bft) 100,00 %
25.11.2020 14:34 -0,3 C 98 % 1024,2 hPa 0,0 l/m 3,2 km/h (1 Bft) O-NO 67 0 min 0,000 mm 0,0 UV-I 79 W/m -0,6 C -0,3 C 6,4 km/h (2 Bft) 100,00 %
25.11.2020 14:33 -0,2 C 98 % 1024,1 hPa 0,0 l/m 3,2 km/h (1 Bft) O-NO 67 0 min 0,000 mm 0,0 UV-I 88 W/m -0,5 C -0,2 C 4,8 km/h (1 Bft) 100,00 %
25.11.2020 14:32 -0,1 C 98 % 1024,1 hPa 0,0 l/m 4,8 km/h (1 Bft) O-NO 67 0 min 0,000 mm 0,0 UV-I 97 W/m -0,4 C -1,6 C 4,8 km/h (1 Bft) 100,00 %
25.11.2020 14:31 -0,1 C 98 % 1024,1 hPa 0,0 l/m 3,2 km/h (1 Bft) O-NO 67 0 min 0,000 mm 0,0 UV-I 104 W/m -0,4 C -0,1 C 4,8 km/h (1 Bft) 100,00 %
25.11.2020 14:30 0,1 C 98 % 1024,2 hPa 0,0 l/m 3,2 km/h (1 Bft) O-NO 67 0 min 0,000 mm 0,0 UV-I 104 W/m -0,2 C 0,1 C 4,8 km/h (1 Bft) 95,65 %
25.11.2020 14:29 0,1 C 98 % 1024,1 hPa 0,0 l/m 3,2 km/h (1 Bft) O-NO 67 0 min 0,000 mm 0,0 UV-I 109 W/m -0,2 C 0,1 C 4,8 km/h (1 Bft) 100,00 %
25.11.2020 14:28 0,1 C 98 % 1024,1 hPa 0,0 l/m 3,2 km/h (1 Bft) O-NO 67 0 min 0,000 mm 0,0 UV-I 111 W/m -0,2 C 0,1 C 3,2 km/h (1 Bft) 100,00 %
25.11.2020 14:27 0,2 C 98 % 1024,0 hPa 0,0 l/m 3,2 km/h (1 Bft) O-NO 67 0 min 0,000 mm 0,0 UV-I 118 W/m -0,1 C 0,2 C 4,8 km/h (1 Bft) 100,00 %
25.11.2020 14:26 0,2 C 98 % 1024,1 hPa 0,0 l/m 1,6 km/h (1 Bft) O-NO 67 0 min 0,000 mm 0,0 UV-I 123 W/m -0,1 C 0,2 C 3,2 km/h (1 Bft) 100,00 %
25.11.2020 14:25 0,3 C 98 % 1024,1 hPa 0,0 l/m 0,0 km/h (0 Bft) N 0 0 min 0,000 mm 0,0 UV-I 130 W/m 0,0 C 0,3 C 0,0 km/h (0 Bft) 100,00 %
25.11.2020 14:24 0,3 C 98 % 1024,1 hPa 0,0 l/m 0,0 km/h (0 Bft) N 0 0 min 0,000 mm 0,0 UV-I 134 W/m 0,0 C 0,3 C 0,0 km/h (0 Bft) 100,00 %
25.11.2020 14:23 0,3 C 98 % 1024,1 hPa 0,0 l/m 0,0 km/h (0 Bft) N 0 0 min 0,000 mm 0,0 UV-I 128 W/m 0,0 C 0,3 C 0,0 km/h (0 Bft) 100,00 %
25.11.2020 14:22 0,2 C 98 % 1024,1 hPa 0,0 l/m 0,0 km/h (0 Bft) N 0 0 min 0,000 mm 0,0 UV-I 135 W/m -0,1 C 0,2 C 0,0 km/h (0 Bft) 100,00 %
25.11.2020 14:21 0,3 C 98 % 1024,1 hPa 0,0 l/m 0,0 km/h (0 Bft) S-SO 157 0 min 0,000 mm 0,0 UV-I 137 W/m 0,0 C 0,3 C 1,6 km/h (1 Bft) 100,00 %
25.11.2020 14:20 0,3 C 98 % 1024,1 hPa 0,0 l/m 1,6 km/h (1 Bft) S-SO 157 0 min 0,000 mm 0,5 UV-I 144 W/m 0,0 C 0,3 C 1,6 km/h (1 Bft) 95,65 %
25.11.2020 14:19 0,3 C 98 % 1024,1 hPa 0,0 l/m 1,6 km/h (1 Bft) S-SO 157 0 min 0,000 mm 0,5 UV-I 146 W/m 0,0 C 0,3 C 1,6 km/h (1 Bft) 100,00 %
25.11.2020 14:18 0,3 C 98 % 1024,1 hPa 0,0 l/m 0,0 km/h (0 Bft) S-SO 157 1 min 0,000 mm 0,5 UV-I 155 W/m 0,0 C 0,3 C 1,6 km/h (1 Bft) 95,65 %
25.11.2020 14:17 0,2 C 98 % 1024,1 hPa 0,0 l/m 1,6 km/h (1 Bft) S-SO 157 1 min 0,000 mm 0,5 UV-I 155 W/m -0,1 C 0,2 C 1,6 km/h (1 Bft) 95,65 %
25.11.2020 14:16 0,2 C 98 % 1024,0 hPa 0,0 l/m 0,0 km/h (0 Bft) S-SW 202 0 min 0,000 mm 0,5 UV-I 146 W/m -0,1 C 0,2 C 1,6 km/h (1 Bft) 100,00 %
25.11.2020 14:15 0,1 C 98 % 1024,0 hPa 0,0 l/m 0,0 km/h (0 Bft) N 0 1 min 0,000 mm 0,5 UV-I 179 W/m -0,2 C 0,1 C 0,0 km/h (0 Bft) 100,00 %
25.11.2020 14:14 0,1 C 98 % 1024,1 hPa 0,0 l/m 0,0 km/h (0 Bft) S-SW 202 1 min 0,000 mm 0,5 UV-I 172 W/m -0,2 C 0,1 C 1,6 km/h (1 Bft) 100,00 %
25.11.2020 14:13 0,0 C 98 % 1024,1 hPa 0,0 l/m 3,2 km/h (1 Bft) S-SW 202 1 min 0,000 mm 0,5 UV-I 156 W/m -0,3 C 0,0 C 3,2 km/h (1 Bft) 100,00 %
25.11.2020 14:12 -0,1 C 98 % 1024,0 hPa 0,0 l/m 1,6 km/h (1 Bft) S-SW 202 0 min 0,000 mm 0,5 UV-I 149 W/m -0,4 C -0,1 C 1,6 km/h (1 Bft) 95,65 %
25.11.2020 14:11 -0,1 C 98 % 1024,1 hPa 0,0 l/m 1,6 km/h (1 Bft) S-SW 202 0 min 0,000 mm 0,5 UV-I 148 W/m -0,4 C -0,1 C 3,2 km/h (1 Bft) 100,00 %
25.11.2020 14:10 -0,1 C 98 % 1024,1 hPa 0,0 l/m 3,2 km/h (1 Bft) S-SW 202 1 min 0,000 mm 0,5 UV-I 158 W/m -0,4 C -0,1 C 4,8 km/h (1 Bft) 100,00 %
25.11.2020 14:09 -0,2 C 98 % 1024,0 hPa 0,0 l/m 1,6 km/h (1 Bft) S 180 1 min 0,000 mm 0,6 UV-I 158 W/m -0,5 C -0,2 C 4,8 km/h (1 Bft) 100,00 %
25.11.2020 14:08 -0,2 C 98 % 1024,0 hPa 0,0 l/m 0,0 km/h (0 Bft) N 0 0 min 0,000 mm 0,6 UV-I 142 W/m -0,5 C -0,2 C 0,0 km/h (0 Bft) 100,00 %
25.11.2020 14:07 -0,2 C 98 % 1024,0 hPa 0,0 l/m 0,0 km/h (0 Bft) N 0 0 min 0,000 mm 0,6 UV-I 118 W/m -0,5 C -0,2 C 0,0 km/h (0 Bft) 100,00 %
25.11.2020 14:06 -0,2 C 98 % 1024,0 hPa 0,0 l/m 1,6 km/h (1 Bft) O-NO 67 0 min 0,000 mm 0,6 UV-I 135 W/m -0,5 C -0,2 C 1,6 km/h (1 Bft) 95,65 %
25.11.2020 14:05 -0,2 C 98 % 1024,1 hPa 0,0 l/m 1,6 km/h (1 Bft) O-NO 67 1 min 0,000 mm 0,6 UV-I 172 W/m -0,5 C -0,2 C 3,2 km/h (1 Bft) 100,00 %
25.11.2020 14:04 -0,2 C 98 % 1024,1 hPa 0,0 l/m 1,6 km/h (1 Bft) O-NO 67 1 min 0,000 mm 0,6 UV-I 167 W/m -0,5 C -0,2 C 3,2 km/h (1 Bft) 100,00 %
25.11.2020 14:03 -0,1 C 98 % 1024,0 hPa 0,0 l/m 1,6 km/h (1 Bft) O-NO 67 1 min 0,000 mm 0,6 UV-I 165 W/m -0,4 C -0,1 C 3,2 km/h (1 Bft) 95,65 %
25.11.2020 14:02 -0,2 C 98 % 1024,0 hPa 0,0 l/m 3,2 km/h (1 Bft) O-NO 67 0 min 0,000 mm 0,5 UV-I 139 W/m -0,5 C -0,2 C 4,8 km/h (1 Bft) 100,00 %
25.11.2020 14:01 -0,1 C 98 % 1024,1 hPa 0,0 l/m 3,2 km/h (1 Bft) O-NO 67 1 min 0,000 mm 0,6 UV-I 155 W/m -0,4 C -0,1 C 4,8 km/h (1 Bft) 100,00 %
25.11.2020 14:00 -0,1 C 98 % 1024,1 hPa 0,0 l/m 3,2 km/h (1 Bft) O-NO 67 0 min 0,076 mm 0,6 UV-I 148 W/m -0,4 C -0,1 C 4,8 km/h (1 Bft) 100,00 %
25.11.2020 13:59 -0,1 C 98 % 1024,1 hPa 0,0 l/m 3,2 km/h (1 Bft) O-NO 67 1 min 0,000 mm 0,6 UV-I 163 W/m -0,4 C -0,1 C 4,8 km/h (1 Bft) 100,00 %
25.11.2020 13:58 0,0 C 98 % 1024,1 hPa 0,0 l/m 1,6 km/h (1 Bft) O-NO 67 1 min 0,000 mm 0,6 UV-I 176 W/m -0,3 C 0,0 C 3,2 km/h (1 Bft) 95,65 %
25.11.2020 13:57 0,1 C 98 % 1024,1 hPa 0,0 l/m 1,6 km/h (1 Bft) O-NO 67 1 min 0,000 mm 0,6 UV-I 156 W/m -0,2 C 0,1 C 3,2 km/h (1 Bft) 100,00 %
25.11.2020 13:56 0,1 C 98 % 1024,1 hPa 0,0 l/m 3,2 km/h (1 Bft) O-NO 67 1 min 0,000 mm 0,6 UV-I 153 W/m -0,2 C 0,1 C 4,8 km/h (1 Bft) 95,65 %
25.11.2020 13:55 0,1 C 98 % 1024,1 hPa 0,0 l/m 3,2 km/h (1 Bft) O-NO 67 0 min 0,000 mm 0,6 UV-I 151 W/m -0,2 C 0,1 C 3,2 km/h (1 Bft) 100,00 %
25.11.2020 13:54 0,1 C 98 % 1024,1 hPa 0,0 l/m 3,2 km/h (1 Bft) O-NO 67 1 min 0,000 mm 0,6 UV-I 169 W/m -0,2 C 0,1 C 4,8 km/h (1 Bft) 100,00 %
25.11.2020 13:53 0,2 C 98 % 1024,1 hPa 0,0 l/m 3,2 km/h (1 Bft) O-NO 67 0 min 0,000 mm 0,6 UV-I 146 W/m -0,1 C 0,2 C 4,8 km/h (1 Bft) 100,00 %
25.11.2020 13:52 0,2 C 98 % 1024,1 hPa 0,0 l/m 3,2 km/h (1 Bft) O-NO 67 1 min 0,000 mm 0,7 UV-I 171 W/m -0,1 C 0,2 C 3,2 km/h (1 Bft) 100,00 %
25.11.2020 13:51 0,3 C 98 % 1024,0 hPa 0,0 l/m 3,2 km/h (1 Bft) O-NO 67 1 min 0,000 mm 0,7 UV-I 188 W/m 0,0 C 0,3 C 4,8 km/h (1 Bft) 100,00 %
25.11.2020 13:50 0,3 C 98 % 1024,1 hPa 0,0 l/m 1,6 km/h (1 Bft) O-NO 67 1 min 0,000 mm 0,7 UV-I 200 W/m 0,0 C 0,3 C 3,2 km/h (1 Bft) 100,00 %
25.11.2020 13:49 0,4 C 98 % 1024,0 hPa 0,0 l/m 1,6 km/h (1 Bft) O-NO 67 1 min 0,000 mm 0,7 UV-I 207 W/m 0,1 C 0,4 C 3,2 km/h (1 Bft) 100,00 %
25.11.2020 13:48 0,4 C 98 % 1024,1 hPa 0,0 l/m 1,6 km/h (1 Bft) O-NO 67 1 min 0,000 mm 0,7 UV-I 183 W/m 0,1 C 0,4 C 3,2 km/h (1 Bft) 95,65 %
25.11.2020 13:47 0,5 C 98 % 1024,0 hPa 0,0 l/m 3,2 km/h (1 Bft) O-NO 67 1 min 0,000 mm 0,7 UV-I 190 W/m 0,2 C 0,5 C 4,8 km/h (1 Bft) 100,00 %
25.11.2020 13:46 0,6 C 99 % 1024,1 hPa 0,0 l/m 1,6 km/h (1 Bft) O 90 1 min 0,000 mm 0,7 UV-I 181 W/m 0,5 C 0,6 C 3,2 km/h (1 Bft) 100,00 %
25.11.2020 13:45 0,7 C 99 % 1024,1 hPa 0,0 l/m 1,6 km/h (1 Bft) O 90 1 min 0,000 mm 0,7 UV-I 192 W/m 0,6 C 0,7 C 3,2 km/h (1 Bft) 100,00 %
25.11.2020 13:44 0,7 C 98 % 1024,1 hPa 0,0 l/m 1,6 km/h (1 Bft) O 90 1 min 0,000 mm 0,7 UV-I 181 W/m 0,4 C 0,7 C 3,2 km/h (1 Bft) 95,65 %
25.11.2020 13:43 0,8 C 98 % 1024,1 hPa 0,0 l/m 1,6 km/h (1 Bft) O 90 1 min 0,000 mm 0,8 UV-I 206 W/m 0,5 C 0,8 C 3,2 km/h (1 Bft) 100,00 %
25.11.2020 13:42 0,8 C 98 % 1024,0 hPa 0,0 l/m 1,6 km/h (1 Bft) O 90 1 min 0,000 mm 0,9 UV-I 318 W/m 0,5 C 0,8 C 3,2 km/h (1 Bft) 100,00 %
25.11.2020 13:41 0,8 C 98 % 1024,1 hPa 0,0 l/m 0,0 km/h (0 Bft) O-SO 112 1 min 0,000 mm 0,9 UV-I 306 W/m 0,5 C 0,8 C 3,2 km/h (1 Bft) 95,65 %
25.11.2020 13:40 0,7 C 99 % 1024,1 hPa 0,0 l/m 0,0 km/h (0 Bft) SW 225 1 min 0,000 mm 0,9 UV-I 241 W/m 0,6 C 0,7 C 3,2 km/h (1 Bft) 100,00 %
25.11.2020 13:39 0,7 C 99 % 1024,1 hPa 0,0 l/m 3,2 km/h (1 Bft) SW 225 1 min 0,000 mm 0,8 UV-I 221 W/m 0,6 C 0,7 C 4,8 km/h (1 Bft) 95,65 %
25.11.2020 13:38 0,7 C 99 % 1024,1 hPa 0,0 l/m 1,6 km/h (1 Bft) SW 225 1 min 0,000 mm 0,8 UV-I 246 W/m 0,6 C 0,7 C 3,2 km/h (1 Bft) 100,00 %
25.11.2020 13:37 0,7 C 99 % 1024,1 hPa 0,0 l/m 3,2 km/h (1 Bft) SW 225 1 min 0,000 mm 0,8 UV-I 179 W/m 0,6 C 0,7 C 4,8 km/h (1 Bft) 95,65 %
25.11.2020 13:36 0,7 C 99 % 1024,1 hPa 0,0 l/m 3,2 km/h (1 Bft) SW 225 1 min 0,000 mm 1,0 UV-I 234 W/m 0,6 C 0,7 C 4,8 km/h (1 Bft) 100,00 %
25.11.2020 13:35 0,7 C 99 % 1024,1 hPa 0,0 l/m 3,2 km/h (1 Bft) SW 225 1 min 0,000 mm 0,8 UV-I 213 W/m 0,6 C 0,7 C 4,8 km/h (1 Bft) 100,00 %
25.11.2020 13:34 0,7 C 99 % 1024,1 hPa 0,0 l/m 1,6 km/h (1 Bft) S-SW 202 1 min 0,000 mm 0,9 UV-I 255 W/m 0,6 C 0,7 C 4,8 km/h (1 Bft) 100,00 %
25.11.2020 13:33 0,6 C 99 % 1024,1 hPa 0,0 l/m 3,2 km/h (1 Bft) S-SW 202 1 min 0,000 mm 0,9 UV-I 239 W/m 0,5 C 0,6 C 4,8 km/h (1 Bft) 100,00 %
25.11.2020 13:32 0,7 C 99 % 1024,1 hPa 0,0 l/m 3,2 km/h (1 Bft) SW 225 1 min 0,000 mm 0,8 UV-I 183 W/m 0,6 C 0,7 C 4,8 km/h (1 Bft) 100,00 %
25.11.2020 13:31 0,6 C 99 % 1024,1 hPa 0,0 l/m 3,2 km/h (1 Bft) SW 225 1 min 0,000 mm 0,9 UV-I 243 W/m 0,5 C 0,6 C 6,4 km/h (2 Bft) 100,00 %
25.11.2020 13:30 0,6 C 99 % 1024,1 hPa 0,0 l/m 4,8 km/h (1 Bft) SW 225 1 min 0,000 mm 0,9 UV-I 248 W/m 0,5 C -0,8 C 6,4 km/h (2 Bft) 95,65 %
25.11.2020 13:29 0,6 C 98 % 1024,1 hPa 0,0 l/m 3,2 km/h (1 Bft) SW 225 1 min 0,000 mm 0,9 UV-I 197 W/m 0,3 C 0,6 C 4,8 km/h (1 Bft) 100,00 %
25.11.2020 13:28 0,6 C 99 % 1024,1 hPa 0,0 l/m 3,2 km/h (1 Bft) W-SW 247 1 min 0,000 mm 0,8 UV-I 214 W/m 0,5 C 0,6 C 6,4 km/h (2 Bft) 100,00 %
25.11.2020 13:27 0,6 C 98 % 1024,1 hPa 0,0 l/m 3,2 km/h (1 Bft) W-SW 247 1 min 0,000 mm 0,8 UV-I 202 W/m 0,3 C 0,6 C 4,8 km/h (1 Bft) 95,65 %
25.11.2020 13:26 0,5 C 98 % 1024,1 hPa 0,0 l/m 3,2 km/h (1 Bft) SW 225 1 min 0,000 mm 0,9 UV-I 183 W/m 0,2 C 0,5 C 4,8 km/h (1 Bft) 95,65 %
25.11.2020 13:25 0,4 C 98 % 1024,2 hPa 0,0 l/m 3,2 km/h (1 Bft) SW 225 1 min 0,000 mm 0,9 UV-I 213 W/m 0,1 C 0,4 C 4,8 km/h (1 Bft) 100,00 %
25.11.2020 13:24 0,3 C 99 % 1024,0 hPa 0,0 l/m 1,6 km/h (1 Bft) SW 225 1 min 0,000 mm 0,9 UV-I 230 W/m 0,2 C 0,3 C 3,2 km/h (1 Bft) 100,00 %
25.11.2020 13:23 0,2 C 98 % 1024,0 hPa 0,0 l/m 0,0 km/h (0 Bft) N 0 1 min 0,000 mm 0,9 UV-I 251 W/m -0,1 C 0,2 C 0,0 km/h (0 Bft) 100,00 %
25.11.2020 13:22 0,1 C 98 % 1024,0 hPa 0,0 l/m 0,0 km/h (0 Bft) S-SW 202 1 min 0,000 mm 0,9 UV-I 223 W/m -0,2 C 0,1 C 3,2 km/h (1 Bft) 100,00 %
25.11.2020 13:21 -0,1 C 98 % 1024,0 hPa 0,0 l/m 1,6 km/h (1 Bft) SW 225 1 min 0,000 mm 0,9 UV-I 255 W/m -0,4 C -0,1 C 4,8 km/h (1 Bft) 100,00 %
25.11.2020 13:20 -0,2 C 98 % 1024,0 hPa 0,0 l/m 0,0 km/h (0 Bft) O-SO 112 1 min 0,000 mm 0,8 UV-I 190 W/m -0,5 C -0,2 C 1,6 km/h (1 Bft) 100,00 %
25.11.2020 13:19 -0,3 C 98 % 1024,0 hPa 0,0 l/m 0,0 km/h (0 Bft) N 0 1 min 0,000 mm 0,8 UV-I 176 W/m -0,6 C -0,3 C 0,0 km/h (0 Bft) 95,65 %
25.11.2020 13:18 -0,4 C 98 % 1024,0 hPa 0,0 l/m 0,0 km/h (0 Bft) N 0 1 min 0,000 mm 0,8 UV-I 204 W/m -0,7 C -0,4 C 0,0 km/h (0 Bft) 100,00 %
25.11.2020 13:17 -0,4 C 98 % 1024,1 hPa 0,0 l/m 0,0 km/h (0 Bft) N 0 1 min 0,000 mm 0,8 UV-I 179 W/m -0,7 C -0,4 C 0,0 km/h (0 Bft) 95,65 %
25.11.2020 13:16 -0,4 C 98 % 1024,1 hPa 0,0 l/m 0,0 km/h (0 Bft) O 90 1 min 0,000 mm 0,8 UV-I 186 W/m -0,7 C -0,4 C 1,6 km/h (1 Bft) 100,00 %
25.11.2020 13:15 -0,4 C 98 % 1024,0 hPa 0,0 l/m 1,6 km/h (1 Bft) O 90 1 min 0,000 mm 0,9 UV-I 221 W/m -0,7 C -0,4 C 3,2 km/h (1 Bft) 95,65 %
25.11.2020 13:14 -0,5 C 98 % 1024,1 hPa 0,0 l/m 1,6 km/h (1 Bft) O 90 1 min 0,000 mm 0,9 UV-I 221 W/m -0,8 C -0,5 C 1,6 km/h (1 Bft) 100,00 %
25.11.2020 13:13 -0,5 C 98 % 1024,1 hPa 0,0 l/m 1,6 km/h (1 Bft) O 90 1 min 0,000 mm 0,8 UV-I 211 W/m -0,8 C -0,5 C 3,2 km/h (1 Bft) 100,00 %
25.11.2020 13:12 -0,4 C 98 % 1024,1 hPa 0,0 l/m 3,2 km/h (1 Bft) O 90 1 min 0,000 mm 0,9 UV-I 250 W/m -0,7 C -0,4 C 4,8 km/h (1 Bft) 100,00 %
25.11.2020 13:11 -0,5 C 98 % 1024,0 hPa 0,0 l/m 3,2 km/h (1 Bft) O 90 1 min 0,000 mm 0,9 UV-I 262 W/m -0,8 C -0,5 C 3,2 km/h (1 Bft) 100,00 %
25.11.2020 13:10 -0,5 C 98 % 1024,0 hPa 0,0 l/m 1,6 km/h (1 Bft) O 90 1 min 0,000 mm 0,9 UV-I 211 W/m -0,8 C -0,5 C 3,2 km/h (1 Bft) 95,65 %
25.11.2020 13:09 -0,5 C 98 % 1024,0 hPa 0,0 l/m 1,6 km/h (1 Bft) O 90 1 min 0,000 mm 0,9 UV-I 220 W/m -0,8 C -0,5 C 3,2 km/h (1 Bft) 100,00 %
25.11.2020 13:08 -0,6 C 98 % 1024,0 hPa 0,0 l/m 0,0 km/h (0 Bft) O 90 1 min 0,000 mm 0,9 UV-I 230 W/m -0,9 C -0,6 C 1,6 km/h (1 Bft) 100,00 %
25.11.2020 13:07 -0,6 C 98 % 1024,0 hPa 0,0 l/m 0,0 km/h (0 Bft) O 90 1 min 0,000 mm 0,9 UV-I 234 W/m -0,9 C -0,6 C 1,6 km/h (1 Bft) 100,00 %
25.11.2020 13:06 -0,6 C 98 % 1024,0 hPa 0,0 l/m 0,0 km/h (0 Bft) O 90 1 min 0,000 mm 0,9 UV-I 232 W/m -0,9 C -0,6 C 1,6 km/h (1 Bft) 100,00 %
25.11.2020 13:05 -0,7 C 98 % 1024,1 hPa 0,0 l/m 0,0 km/h (0 Bft) O 90 1 min 0,000 mm 0,9 UV-I 223 W/m -1,0 C -0,7 C 1,6 km/h (1 Bft) 95,65 %
25.11.2020 13:04 -0,7 C 98 % 1024,0 hPa 0,0 l/m 0,0 km/h (0 Bft) O-NO 67 1 min 0,000 mm 0,9 UV-I 218 W/m -1,0 C -0,7 C 1,6 km/h (1 Bft) 100,00 %
25.11.2020 13:03 -0,7 C 98 % 1024,0 hPa 0,0 l/m 1,6 km/h (1 Bft) O-NO 67 1 min 0,000 mm 0,8 UV-I 185 W/m -1,0 C -0,7 C 3,2 km/h (1 Bft) 100,00 %
25.11.2020 13:02 -0,6 C 98 % 1024,0 hPa 0,0 l/m 3,2 km/h (1 Bft) O-NO 67 1 min 0,000 mm 0,9 UV-I 186 W/m -0,9 C -0,6 C 4,8 km/h (1 Bft) 100,00 %
25.11.2020 13:01 -0,7 C 98 % 1024,0 hPa 0,0 l/m 3,2 km/h (1 Bft) O-NO 67 1 min 0,000 mm 0,9 UV-I 230 W/m -1,0 C -0,7 C 4,8 km/h (1 Bft) 100,00 %
25.11.2020 13:00 -0,7 C 98 % 1024,0 hPa 0,0 l/m 3,2 km/h (1 Bft) O-NO 67 1 min 0,076 mm 0,9 UV-I 236 W/m -1,0 C -0,7 C 3,2 km/h (1 Bft) 100,00 %
25.11.2020 12:59 -0,7 C 98 % 1024,0 hPa 0,0 l/m 3,2 km/h (1 Bft) O-NO 67 1 min 0,000 mm 0,8 UV-I 206 W/m -1,0 C -0,7 C 4,8 km/h (1 Bft) 100,00 %
25.11.2020 12:58 -0,7 C 98 % 1024,0 hPa 0,0 l/m 3,2 km/h (1 Bft) O-NO 67 1 min 0,000 mm 0,8 UV-I 211 W/m -1,0 C -0,7 C 4,8 km/h (1 Bft) 100,00 %
25.11.2020 12:57 -0,7 C 98 % 1024,0 hPa 0,0 l/m 3,2 km/h (1 Bft) O-NO 67 1 min 0,000 mm 0,8 UV-I 216 W/m -1,0 C -0,7 C 4,8 km/h (1 Bft) 100,00 %
25.11.2020 12:56 -0,7 C 98 % 1023,9 hPa 0,0 l/m 3,2 km/h (1 Bft) O-NO 67 1 min 0,000 mm 0,9 UV-I 214 W/m -1,0 C -0,7 C 3,2 km/h (1 Bft) 100,00 %
25.11.2020 12:55 -0,7 C 98 % 1023,9 hPa 0,0 l/m 3,2 km/h (1 Bft) O-NO 67 1 min 0,000 mm 0,8 UV-I 214 W/m -1,0 C -0,7 C 4,8 km/h (1 Bft) 100,00 %
25.11.2020 12:54 -0,7 C 98 % 1024,0 hPa 0,0 l/m 3,2 km/h (1 Bft) O-NO 67 1 min 0,000 mm 0,8 UV-I 207 W/m -1,0 C -0,7 C 4,8 km/h (1 Bft) 100,00 %
25.11.2020 12:53 -0,7 C 98 % 1024,0 hPa 0,0 l/m 3,2 km/h (1 Bft) O-NO 67 1 min 0,000 mm 0,9 UV-I 227 W/m -1,0 C -0,7 C 4,8 km/h (1 Bft) 100,00 %
25.11.2020 12:52 -0,7 C 98 % 1023,9 hPa 0,0 l/m 3,2 km/h (1 Bft) O-NO 67 1 min 0,000 mm 0,8 UV-I 202 W/m -1,0 C -0,7 C 3,2 km/h (1 Bft) 100,00 %
25.11.2020 12:51 -0,7 C 98 % 1024,0 hPa 0,0 l/m 3,2 km/h (1 Bft) O-NO 67 1 min 0,000 mm 0,8 UV-I 209 W/m -1,0 C -0,7 C 4,8 km/h (1 Bft) 100,00 %
25.11.2020 12:50 -0,7 C 98 % 1024,0 hPa 0,0 l/m 3,2 km/h (1 Bft) O-NO 67 1 min 0,000 mm 0,8 UV-I 193 W/m -1,0 C -0,7 C 3,2 km/h (1 Bft) 100,00 %
25.11.2020 12:49 -0,7 C 98 % 1024,1 hPa 0,0 l/m 3,2 km/h (1 Bft) O-NO 67 1 min 0,000 mm 0,8 UV-I 186 W/m -1,0 C -0,7 C 3,2 km/h (1 Bft) 100,00 %
25.11.2020 12:48 -0,7 C 98 % 1024,0 hPa 0,0 l/m 3,2 km/h (1 Bft) O-NO 67 1 min 0,000 mm 0,8 UV-I 193 W/m -1,0 C -0,7 C 4,8 km/h (1 Bft) 95,65 %
25.11.2020 12:47 -0,7 C 98 % 1024,1 hPa 0,0 l/m 1,6 km/h (1 Bft) O-NO 67 1 min 0,000 mm 0,8 UV-I 181 W/m -1,0 C -0,7 C 3,2 km/h (1 Bft) 100,00 %
25.11.2020 12:46 -0,7 C 98 % 1024,0 hPa 0,0 l/m 3,2 km/h (1 Bft) O-NO 67 1 min 0,000 mm 0,8 UV-I 190 W/m -1,0 C -0,7 C 4,8 km/h (1 Bft) 100,00 %
25.11.2020 12:45 -0,6 C 98 % 1023,9 hPa 0,0 l/m 3,2 km/h (1 Bft) O-NO 67 1 min 0,000 mm 0,8 UV-I 207 W/m -0,9 C -0,6 C 6,4 km/h (2 Bft) 100,00 %
25.11.2020 12:44 -0,6 C 98 % 1024,0 hPa 0,0 l/m 3,2 km/h (1 Bft) O-NO 67 1 min 0,000 mm 0,8 UV-I 207 W/m -0,9 C -0,6 C 4,8 km/h (1 Bft) 100,00 %
25.11.2020 12:43 -0,6 C 98 % 1024,0 hPa 0,0 l/m 3,2 km/h (1 Bft) O-NO 67 1 min 0,000 mm 0,8 UV-I 204 W/m -0,9 C -0,6 C 4,8 km/h (1 Bft) 95,65 %
25.11.2020 12:42 -0,6 C 98 % 1024,0 hPa 0,0 l/m 3,2 km/h (1 Bft) O-NO 67 1 min 0,000 mm 0,8 UV-I 199 W/m -0,9 C -0,6 C 4,8 km/h (1 Bft) 100,00 %
25.11.2020 12:41 -0,6 C 98 % 1024,0 hPa 0,0 l/m 3,2 km/h (1 Bft) O-NO 67 1 min 0,000 mm 0,8 UV-I 186 W/m -0,9 C -0,6 C 4,8 km/h (1 Bft) 100,00 %
25.11.2020 12:40 -0,4 C 98 % 1023,9 hPa 0,0 l/m 4,8 km/h (1 Bft) O-NO 67 1 min 0,000 mm 0,8 UV-I 200 W/m -0,7 C -1,9 C 4,8 km/h (1 Bft) 100,00 %
25.11.2020 12:39 -0,4 C 98 % 1024,0 hPa 0,0 l/m 4,8 km/h (1 Bft) O-NO 67 1 min 0,000 mm 0,9 UV-I 202 W/m -0,7 C -1,9 C 6,4 km/h (2 Bft) 95,65 %
25.11.2020 12:38 -0,4 C 98 % 1024,0 hPa 0,0 l/m 3,2 km/h (1 Bft) O-NO 67 1 min 0,000 mm 0,9 UV-I 220 W/m -0,7 C -0,4 C 4,8 km/h (1 Bft) 100,00 %
25.11.2020 12:37 -0,4 C 98 % 1024,0 hPa 0,0 l/m 4,8 km/h (1 Bft) O-NO 67 1 min 0,000 mm 0,8 UV-I 211 W/m -0,7 C -1,9 C 6,4 km/h (2 Bft) 100,00 %
25.11.2020 12:36 -0,3 C 98 % 1024,0 hPa 0,0 l/m 3,2 km/h (1 Bft) O-NO 67 1 min 0,000 mm 0,8 UV-I 193 W/m -0,6 C -0,3 C 4,8 km/h (1 Bft) 100,00 %
25.11.2020 12:35 -0,3 C 98 % 1024,0 hPa 0,0 l/m 4,8 km/h (1 Bft) O-NO 67 1 min 0,000 mm 0,8 UV-I 197 W/m -0,6 C -1,8 C 4,8 km/h (1 Bft) 100,00 %
25.11.2020 12:34 -0,3 C 98 % 1024,0 hPa 0,0 l/m 3,2 km/h (1 Bft) O-NO 67 1 min 0,000 mm 0,9 UV-I 206 W/m -0,6 C -0,3 C 4,8 km/h (1 Bft) 100,00 %
25.11.2020 12:33 -0,3 C 98 % 1024,0 hPa 0,0 l/m 3,2 km/h (1 Bft) O-NO 67 1 min 0,000 mm 0,8 UV-I 200 W/m -0,6 C -0,3 C 6,4 km/h (2 Bft) 100,00 %
25.11.2020 12:32 -0,3 C 98 % 1024,1 hPa 0,0 l/m 3,2 km/h (1 Bft) O-NO 67 1 min 0,000 mm 0,8 UV-I 188 W/m -0,6 C -0,3 C 4,8 km/h (1 Bft) 95,65 %
25.11.2020 12:31 -0,2 C 98 % 1024,0 hPa 0,0 l/m 3,2 km/h (1 Bft) O-NO 67 1 min 0,000 mm 0,9 UV-I 195 W/m -0,5 C -0,2 C 4,8 km/h (1 Bft) 95,65 %
25.11.2020 12:30 -0,2 C 98 % 1024,0 hPa 0,0 l/m 4,8 km/h (1 Bft) O-NO 67 1 min 0,000 mm 0,9 UV-I 216 W/m -0,5 C -1,7 C 6,4 km/h (2 Bft) 100,00 %
25.11.2020 12:29 -0,2 C 98 % 1024,0 hPa 0,0 l/m 4,8 km/h (1 Bft) O-NO 67 1 min 0,000 mm 0,9 UV-I 199 W/m -0,5 C -1,7 C 4,8 km/h (1 Bft) 100,00 %
25.11.2020 12:28 -0,1 C 98 % 1024,0 hPa 0,0 l/m 3,2 km/h (1 Bft) O-NO 67 1 min 0,000 mm 0,9 UV-I 193 W/m -0,4 C -0,1 C 4,8 km/h (1 Bft) 100,00 %
25.11.2020 12:27 -0,1 C 98 % 1024,0 hPa 0,0 l/m 3,2 km/h (1 Bft) O-NO 67 1 min 0,000 mm 0,9 UV-I 169 W/m -0,4 C -0,1 C 3,2 km/h (1 Bft) 95,65 %
25.11.2020 12:26 -0,1 C 98 % 1024,0 hPa 0,0 l/m 3,2 km/h (1 Bft) O-NO 67 1 min 0,000 mm 0,9 UV-I 188 W/m -0,4 C -0,1 C 4,8 km/h (1 Bft) 100,00 %
25.11.2020 12:25 -0,1 C 98 % 1024,0 hPa 0,0 l/m 3,2 km/h (1 Bft) O-NO 67 1 min 0,000 mm 0,9 UV-I 214 W/m -0,4 C -0,1 C 3,2 km/h (1 Bft) 100,00 %
25.11.2020 12:24 0,0 C 98 % 1024,0 hPa 0,0 l/m 3,2 km/h (1 Bft) O-NO 67 1 min 0,000 mm 0,9 UV-I 209 W/m -0,3 C 0,0 C 4,8 km/h (1 Bft) 91,30 %
25.11.2020 12:23 0,1 C 98 % 1024,0 hPa 0,0 l/m 3,2 km/h (1 Bft) O-NO 67 1 min 0,000 mm 0,9 UV-I 199 W/m -0,2 C 0,1 C 4,8 km/h (1 Bft) 100,00 %
25.11.2020 12:22 0,1 C 98 % 1024,0 hPa 0,0 l/m 3,2 km/h (1 Bft) O-NO 67 1 min 0,000 mm 0,9 UV-I 192 W/m -0,2 C 0,1 C 4,8 km/h (1 Bft) 95,65 %
25.11.2020 12:21 0,1 C 98 % 1024,0 hPa 0,0 l/m 3,2 km/h (1 Bft) O-NO 67 1 min 0,000 mm 0,9 UV-I 186 W/m -0,2 C 0,1 C 4,8 km/h (1 Bft) 100,00 %
25.11.2020 12:20 0,2 C 98 % 1024,1 hPa 0,0 l/m 3,2 km/h (1 Bft) O-NO 67 1 min 0,000 mm 0,9 UV-I 216 W/m -0,1 C 0,2 C 6,4 km/h (2 Bft) 100,00 %
25.11.2020 12:19 0,2 C 98 % 1024,0 hPa 0,0 l/m 3,2 km/h (1 Bft) O-NO 67 1 min 0,000 mm 0,9 UV-I 213 W/m -0,1 C 0,2 C 4,8 km/h (1 Bft) 100,00 %
25.11.2020 12:18 0,3 C 98 % 1024,0 hPa 0,0 l/m 3,2 km/h (1 Bft) O 90 1 min 0,000 mm 0,9 UV-I 225 W/m 0,0 C 0,3 C 4,8 km/h (1 Bft) 100,00 %
25.11.2020 12:17 0,3 C 98 % 1024,0 hPa 0,0 l/m 3,2 km/h (1 Bft) O 90 1 min 0,000 mm 0,9 UV-I 204 W/m 0,0 C 0,3 C 4,8 km/h (1 Bft) 100,00 %
25.11.2020 12:16 0,4 C 98 % 1024,0 hPa 0,0 l/m 3,2 km/h (1 Bft) O 90 1 min 0,000 mm 0,9 UV-I 190 W/m 0,1 C 0,4 C 4,8 km/h (1 Bft) 100,00 %
25.11.2020 12:15 0,4 C 98 % 1024,0 hPa 0,0 l/m 4,8 km/h (1 Bft) O 90 1 min 0,000 mm 1,0 UV-I 218 W/m 0,1 C -1,0 C 4,8 km/h (1 Bft) 95,65 %
25.11.2020 12:14 0,6 C 98 % 1024,0 hPa 0,0 l/m 4,8 km/h (1 Bft) O 90 1 min 0,000 mm 1,1 UV-I 320 W/m 0,3 C -0,8 C 4,8 km/h (1 Bft) 100,00 %
25.11.2020 12:13 0,6 C 98 % 1024,0 hPa 0,0 l/m 3,2 km/h (1 Bft) O 90 1 min 0,000 mm 1,1 UV-I 320 W/m 0,3 C 0,6 C 4,8 km/h (1 Bft) 100,00 %
25.11.2020 12:12 0,6 C 98 % 1024,1 hPa 0,0 l/m 1,6 km/h (1 Bft) O 90 1 min 0,000 mm 1,1 UV-I 288 W/m 0,3 C 0,6 C 3,2 km/h (1 Bft) 100,00 %
25.11.2020 12:11 0,7 C 98 % 1024,0 hPa 0,0 l/m 1,6 km/h (1 Bft) O 90 1 min 0,000 mm 1,1 UV-I 276 W/m 0,4 C 0,7 C 3,2 km/h (1 Bft) 100,00 %
25.11.2020 12:10 0,7 C 98 % 1024,0 hPa 0,0 l/m 1,6 km/h (1 Bft) O 90 1 min 0,000 mm 1,1 UV-I 297 W/m 0,4 C 0,7 C 1,6 km/h (1 Bft) 95,65 %
25.11.2020 12:09 0,8 C 98 % 1024,0 hPa 0,0 l/m 1,6 km/h (1 Bft) O 90 1 min 0,000 mm 1,1 UV-I 336 W/m 0,5 C 0,8 C 3,2 km/h (1 Bft) 100,00 %
25.11.2020 12:08 0,8 C 98 % 1024,0 hPa 0,0 l/m 1,6 km/h (1 Bft) O 90 1 min 0,000 mm 1,1 UV-I 350 W/m 0,5 C 0,8 C 1,6 km/h (1 Bft) 100,00 %
25.11.2020 12:07 0,8 C 98 % 1024,1 hPa 0,0 l/m 1,6 km/h (1 Bft) O 90 1 min 0,000 mm 1,1 UV-I 318 W/m 0,5 C 0,8 C 3,2 km/h (1 Bft) 100,00 %
25.11.2020 12:06 0,9 C 98 % 1024,0 hPa 0,0 l/m 3,2 km/h (1 Bft) O 90 1 min 0,000 mm 1,1 UV-I 288 W/m 0,6 C 0,9 C 3,2 km/h (1 Bft) 100,00 %
25.11.2020 12:05 1,0 C 99 % 1024,0 hPa 0,0 l/m 1,6 km/h (1 Bft) O 90 1 min 0,000 mm 1,1 UV-I 297 W/m 0,9 C 1,0 C 3,2 km/h (1 Bft) 100,00 %
25.11.2020 12:04 1,1 C 98 % 1024,0 hPa 0,0 l/m 1,6 km/h (1 Bft) O 90 1 min 0,000 mm 1,2 UV-I 253 W/m 0,8 C 1,1 C 3,2 km/h (1 Bft) 100,00 %
25.11.2020 12:03 1,1 C 98 % 1024,0 hPa 0,0 l/m 1,6 km/h (1 Bft) O-SO 112 1 min 0,000 mm 1,2 UV-I 343 W/m 0,8 C 1,1 C 3,2 km/h (1 Bft) 95,65 %
25.11.2020 12:02 1,1 C 98 % 1024,1 hPa 0,0 l/m 0,0 km/h (0 Bft) W-SW 247 1 min 0,000 mm 1,2 UV-I 338 W/m 0,8 C 1,1 C 1,6 km/h (1 Bft) 95,65 %
25.11.2020 12:01 1,1 C 98 % 1024,1 hPa 0,0 l/m 0,0 km/h (0 Bft) W-SW 247 1 min 0,000 mm 1,3 UV-I 255 W/m 0,8 C 1,1 C 1,6 km/h (1 Bft) 100,00 %
25.11.2020 12:00 1,1 C 99 % 1024,0 hPa 0,0 l/m 0,0 km/h (0 Bft) W-SW 247 1 min 0,102 mm 1,2 UV-I 255 W/m 1,0 C 1,1 C 1,6 km/h (1 Bft) 100,00 %
25.11.2020 11:59 1,0 C 99 % 1024,1 hPa 0,0 l/m 3,2 km/h (1 Bft) SW 225 1 min 0,000 mm 1,1 UV-I 278 W/m 0,9 C 1,0 C 4,8 km/h (1 Bft) 100,00 %
25.11.2020 11:58 1,0 C 99 % 1024,0 hPa 0,0 l/m 0,0 km/h (0 Bft) W 270 1 min 0,000 mm 1,2 UV-I 278 W/m 0,9 C 1,0 C 1,6 km/h (1 Bft) 100,00 %
25.11.2020 11:57 0,9 C 99 % 1024,1 hPa 0,0 l/m 0,0 km/h (0 Bft) W 270 1 min 0,000 mm 1,3 UV-I 357 W/m 0,8 C 0,9 C 1,6 km/h (1 Bft) 100,00 %
25.11.2020 11:56 0,9 C 99 % 1024,0 hPa 0,0 l/m 0,0 km/h (0 Bft) W-SW 247 1 min 0,000 mm 1,3 UV-I 357 W/m 0,8 C 0,9 C 1,6 km/h (1 Bft) 100,00 %
25.11.2020 11:55 0,9 C 99 % 1024,0 hPa 0,0 l/m 3,2 km/h (1 Bft) W-SW 247 1 min 0,000 mm 1,2 UV-I 271 W/m 0,8 C 0,9 C 4,8 km/h (1 Bft) 100,00 %
25.11.2020 11:54 0,9 C 99 % 1024,0 hPa 0,0 l/m 4,8 km/h (1 Bft) W 270 1 min 0,000 mm 1,2 UV-I 338 W/m 0,8 C -0,5 C 6,4 km/h (2 Bft) 100,00 %
25.11.2020 11:53 1,0 C 99 % 1024,0 hPa 0,0 l/m 4,8 km/h (1 Bft) W-SW 247 1 min 0,000 mm 1,3 UV-I 338 W/m 0,9 C -0,4 C 6,4 km/h (2 Bft) 100,00 %
25.11.2020 11:52 1,0 C 99 % 1024,0 hPa 0,0 l/m 4,8 km/h (1 Bft) W-SW 247 1 min 0,000 mm 1,2 UV-I 244 W/m 0,9 C -0,4 C 6,4 km/h (2 Bft) 100,00 %
25.11.2020 11:51 0,9 C 99 % 1024,0 hPa 0,0 l/m 4,8 km/h (1 Bft) W-SW 247 1 min 0,000 mm 1,2 UV-I 244 W/m 0,8 C -0,5 C 6,4 km/h (2 Bft) 100,00 %
25.11.2020 11:50 0,8 C 98 % 1024,1 hPa 0,0 l/m 4,8 km/h (1 Bft) W-SW 247 1 min 0,000 mm 1,3 UV-I 232 W/m 0,5 C -0,6 C 8,0 km/h (2 Bft) 100,00 %
25.11.2020 11:49 0,8 C 98 % 1024,1 hPa 0,0 l/m 4,8 km/h (1 Bft) SW 225 1 min 0,000 mm 1,1 UV-I 232 W/m 0,5 C -0,6 C 6,4 km/h (2 Bft) 100,00 %
25.11.2020 11:48 0,7 C 98 % 1024,1 hPa 0,0 l/m 3,2 km/h (1 Bft) W-SW 247 1 min 0,000 mm 1,2 UV-I 287 W/m 0,4 C 0,7 C 4,8 km/h (1 Bft) 100,00 %
25.11.2020 11:47 0,7 C 98 % 1024,1 hPa 0,0 l/m 3,2 km/h (1 Bft) S 180 1 min 0,000 mm 1,2 UV-I 244 W/m 0,4 C 0,7 C 6,4 km/h (2 Bft) 100,00 %
25.11.2020 11:46 0,7 C 99 % 1024,1 hPa 0,0 l/m 4,8 km/h (1 Bft) S-SW 202 1 min 0,000 mm 1,2 UV-I 281 W/m 0,6 C -0,7 C 8,0 km/h (2 Bft) 95,65 %
25.11.2020 11:45 0,7 C 98 % 1024,1 hPa 0,0 l/m 4,8 km/h (1 Bft) S-SW 202 1 min 0,000 mm 1,3 UV-I 392 W/m 0,4 C -0,7 C 6,4 km/h (2 Bft) 100,00 %
25.11.2020 11:44 0,6 C 99 % 1024,2 hPa 0,0 l/m 4,8 km/h (1 Bft) S-SW 202 1 min 0,000 mm 1,3 UV-I 392 W/m 0,5 C -0,8 C 6,4 km/h (2 Bft) 95,65 %
25.11.2020 11:43 0,6 C 98 % 1024,2 hPa 0,0 l/m 4,8 km/h (1 Bft) S 180 1 min 0,000 mm 1,3 UV-I 397 W/m 0,3 C -0,8 C 6,4 km/h (2 Bft) 95,65 %
25.11.2020 11:42 0,6 C 99 % 1024,1 hPa 0,0 l/m 4,8 km/h (1 Bft) S 180 1 min 0,000 mm 1,2 UV-I 397 W/m 0,5 C -0,8 C 6,4 km/h (2 Bft) 100,00 %
25.11.2020 11:41 0,6 C 98 % 1024,3 hPa 0,0 l/m 1,6 km/h (1 Bft) S-SW 202 1 min 0,000 mm 1,3 UV-I 397 W/m 0,3 C 0,6 C 4,8 km/h (1 Bft) 95,65 %
25.11.2020 11:40 0,4 C 98 % 1024,2 hPa 0,0 l/m 1,6 km/h (1 Bft) S-SW 202 1 min 0,000 mm 1,2 UV-I 348 W/m 0,1 C 0,4 C 3,2 km/h (1 Bft) 100,00 %
25.11.2020 11:39 0,3 C 98 % 1024,3 hPa 0,0 l/m 0,0 km/h (0 Bft) S-SW 202 1 min 0,000 mm 1,1 UV-I 299 W/m 0,0 C 0,3 C 3,2 km/h (1 Bft) 100,00 %
25.11.2020 11:38 0,3 C 98 % 1024,2 hPa 0,0 l/m 3,2 km/h (1 Bft) S-SW 202 1 min 0,000 mm 1,1 UV-I 325 W/m 0,0 C 0,3 C 4,8 km/h (1 Bft) 100,00 %
25.11.2020 11:37 0,3 C 98 % 1024,2 hPa 0,0 l/m 4,8 km/h (1 Bft) S-SW 202 1 min 0,000 mm 1,2 UV-I 325 W/m 0,0 C -1,2 C 4,8 km/h (1 Bft) 100,00 %
25.11.2020 11:36 0,3 C 98 % 1024,4 hPa 0,0 l/m 4,8 km/h (1 Bft) S-SW 202 1 min 0,000 mm 1,2 UV-I 250 W/m 0,0 C -1,2 C 6,4 km/h (2 Bft) 100,00 %
25.11.2020 11:35 0,3 C 98 % 1024,2 hPa 0,0 l/m 4,8 km/h (1 Bft) SW 225 1 min 0,000 mm 1,1 UV-I 248 W/m 0,0 C -1,2 C 6,4 km/h (2 Bft) 100,00 %
25.11.2020 11:34 0,1 C 98 % 1024,2 hPa 0,0 l/m 1,6 km/h (1 Bft) SW 225 1 min 0,000 mm 1,0 UV-I 246 W/m -0,2 C 0,1 C 3,2 km/h (1 Bft) 95,65 %
25.11.2020 11:33 0,1 C 98 % 1024,2 hPa 0,0 l/m 0,0 km/h (0 Bft) N 0 1 min 0,000 mm 1,0 UV-I 236 W/m -0,2 C 0,1 C 0,0 km/h (0 Bft) 100,00 %
25.11.2020 11:32 0,1 C 98 % 1024,3 hPa 0,2 l/m 0,0 km/h (0 Bft) S-SO 157 1 min 0,000 mm 1,0 UV-I 225 W/m -0,2 C 0,1 C 1,6 km/h (1 Bft) 100,00 %
25.11.2020 11:31 0,1 C 98 % 1024,4 hPa 0,0 l/m 0,0 km/h (0 Bft) N 0 1 min 0,000 mm 1,1 UV-I 246 W/m -0,2 C 0,1 C 0,0 km/h (0 Bft) 100,00 %
25.11.2020 11:30 0,1 C 98 % 1024,4 hPa 0,0 l/m 0,0 km/h (0 Bft) N 0 1 min 0,000 mm 1,0 UV-I 204 W/m -0,2 C 0,1 C 0,0 km/h (0 Bft) 100,00 %
25.11.2020 11:29 0,1 C 98 % 1024,4 hPa 0,0 l/m 0,0 km/h (0 Bft) N 0 1 min 0,000 mm 1,0 UV-I 213 W/m -0,2 C 0,1 C 0,0 km/h (0 Bft) 95,65 %
25.11.2020 11:28 0,1 C 98 % 1024,4 hPa 0,0 l/m 0,0 km/h (0 Bft) N 0 1 min 0,000 mm 1,1 UV-I 239 W/m -0,2 C 0,1 C 0,0 km/h (0 Bft) 100,00 %
25.11.2020 11:27 0,1 C 98 % 1024,4 hPa 0,0 l/m 0,0 km/h (0 Bft) N 0 1 min 0,000 mm 1,1 UV-I 267 W/m -0,2 C 0,1 C 0,0 km/h (0 Bft) 100,00 %
25.11.2020 11:26 0,1 C 98 % 1024,4 hPa 0,0 l/m 0,0 km/h (0 Bft) N 0 1 min 0,000 mm 1,1 UV-I 251 W/m -0,2 C 0,1 C 0,0 km/h (0 Bft) 100,00 %
25.11.2020 11:25 0,1 C 98 % 1024,4 hPa 0,0 l/m 0,0 km/h (0 Bft) N 0 1 min 0,000 mm 1,1 UV-I 225 W/m -0,2 C 0,1 C 0,0 km/h (0 Bft) 100,00 %
25.11.2020 11:24 0,1 C 98 % 1024,5 hPa 0,0 l/m 0,0 km/h (0 Bft) N 0 1 min 0,000 mm 1,1 UV-I 257 W/m -0,2 C 0,1 C 0,0 km/h (0 Bft) 100,00 %
25.11.2020 11:23 0,1 C 98 % 1024,5 hPa 0,0 l/m 0,0 km/h (0 Bft) S 180 1 min 0,000 mm 1,1 UV-I 199 W/m -0,2 C 0,1 C 1,6 km/h (1 Bft) 100,00 %
25.11.2020 11:22 0,0 C 98 % 1024,5 hPa 0,0 l/m 1,6 km/h (1 Bft) S 180 1 min 0,000 mm 1,1 UV-I 225 W/m -0,3 C 0,0 C 4,8 km/h (1 Bft) 100,00 %
25.11.2020 11:21 0,0 C 98 % 1024,6 hPa 0,0 l/m 3,2 km/h (1 Bft) S-SW 202 1 min 0,000 mm 1,0 UV-I 278 W/m -0,3 C 0,0 C 4,8 km/h (1 Bft) 100,00 %
25.11.2020 11:20 -0,1 C 98 % 1024,6 hPa 0,0 l/m 4,8 km/h (1 Bft) SW 225 1 min 0,000 mm 1,0 UV-I 227 W/m -0,4 C -1,6 C 8,0 km/h (2 Bft) 100,00 %
25.11.2020 11:19 -0,1 C 98 % 1024,7 hPa 0,0 l/m 4,8 km/h (1 Bft) S-SW 202 1 min 0,000 mm 1,0 UV-I 209 W/m -0,4 C -1,6 C 6,4 km/h (2 Bft) 100,00 %
25.11.2020 11:18 -0,1 C 98 % 1024,5 hPa 0,0 l/m 4,8 km/h (1 Bft) S-SW 202 1 min 0,000 mm 1,0 UV-I 218 W/m -0,4 C -1,6 C 6,4 km/h (2 Bft) 100,00 %
25.11.2020 11:17 -0,1 C 98 % 1024,6 hPa 0,0 l/m 1,6 km/h (1 Bft) S-SW 202 1 min 0,000 mm 1,0 UV-I 207 W/m -0,4 C -0,1 C 3,2 km/h (1 Bft) 100,00 %
25.11.2020 11:16 -0,1 C 98 % 1024,5 hPa 0,0 l/m 3,2 km/h (1 Bft) S-SW 202 1 min 0,000 mm 0,9 UV-I 185 W/m -0,4 C -0,1 C 3,2 km/h (1 Bft) 100,00 %
25.11.2020 11:15 -0,2 C 98 % 1024,6 hPa 0,0 l/m 1,6 km/h (1 Bft) S-SW 202 1 min 0,000 mm 0,9 UV-I 204 W/m -0,5 C -0,2 C 3,2 km/h (1 Bft) 95,65 %
25.11.2020 11:14 -0,2 C 98 % 1024,7 hPa 0,0 l/m 3,2 km/h (1 Bft) S-SW 202 1 min 0,000 mm 0,9 UV-I 188 W/m -0,5 C -0,2 C 4,8 km/h (1 Bft) 100,00 %
25.11.2020 11:13 -0,2 C 98 % 1024,7 hPa 0,0 l/m 4,8 km/h (1 Bft) S-SW 202 0 min 0,000 mm 1,0 UV-I 141 W/m -0,5 C -1,7 C 4,8 km/h (1 Bft) 100,00 %
25.11.2020 11:12 -0,3 C 98 % 1024,7 hPa 0,0 l/m 3,2 km/h (1 Bft) S-SW 202 1 min 0,000 mm 1,0 UV-I 485 W/m -0,6 C -0,3 C 4,8 km/h (1 Bft) 100,00 %
25.11.2020 11:11 -0,3 C 98 % 1024,7 hPa 0,0 l/m 0,0 km/h (0 Bft) S 180 1 min 0,000 mm 1,3 UV-I 485 W/m -0,6 C -0,3 C 1,6 km/h (1 Bft) 100,00 %
25.11.2020 11:10 -0,3 C 98 % 1024,7 hPa 0,0 l/m 0,0 km/h (0 Bft) S-SO 157 1 min 0,000 mm 1,2 UV-I 485 W/m -0,6 C -0,3 C 1,6 km/h (1 Bft) 100,00 %
25.11.2020 11:09 -0,3 C 98 % 1024,7 hPa 0,0 l/m 0,0 km/h (0 Bft) S-SO 157 1 min 0,000 mm 1,2 UV-I 236 W/m -0,6 C -0,3 C 1,6 km/h (1 Bft) 100,00 %
25.11.2020 11:08 -0,3 C 98 % 1024,8 hPa 0,0 l/m 0,0 km/h (0 Bft) S-SO 157 1 min 0,000 mm 1,1 UV-I 236 W/m -0,6 C -0,3 C 1,6 km/h (1 Bft) 100,00 %
25.11.2020 11:07 -0,4 C 98 % 1024,7 hPa 0,0 l/m 0,0 km/h (0 Bft) S 180 1 min 0,000 mm 1,1 UV-I 306 W/m -0,7 C -0,4 C 1,6 km/h (1 Bft) 95,65 %
25.11.2020 11:06 -0,4 C 98 % 1024,7 hPa 0,0 l/m 1,6 km/h (1 Bft) S 180 1 min 0,000 mm 1,2 UV-I 360 W/m -0,7 C -0,4 C 3,2 km/h (1 Bft) 100,00 %
25.11.2020 11:05 -0,5 C 98 % 1024,8 hPa 0,0 l/m 1,6 km/h (1 Bft) S 180 1 min 0,000 mm 1,2 UV-I 399 W/m -0,8 C -0,5 C 3,2 km/h (1 Bft) 100,00 %
25.11.2020 11:04 -0,6 C 98 % 1024,8 hPa 0,0 l/m 1,6 km/h (1 Bft) S 180 1 min 0,000 mm 1,1 UV-I 302 W/m -0,9 C -0,6 C 3,2 km/h (1 Bft) 95,65 %
25.11.2020 11:03 -0,6 C 98 % 1024,8 hPa 0,0 l/m 3,2 km/h (1 Bft) S-SO 157 1 min 0,000 mm 1,1 UV-I 295 W/m -0,9 C -0,6 C 6,4 km/h (2 Bft) 100,00 %
25.11.2020 11:02 -0,6 C 98 % 1024,8 hPa 0,0 l/m 1,6 km/h (1 Bft) SO 135 1 min 0,000 mm 1,0 UV-I 229 W/m -0,9 C -0,6 C 3,2 km/h (1 Bft) 100,00 %
25.11.2020 11:01 -0,7 C 98 % 1024,9 hPa 0,0 l/m 1,6 km/h (1 Bft) O-SO 112 1 min 0,000 mm 1,0 UV-I 255 W/m -1,0 C -0,7 C 3,2 km/h (1 Bft) 100,00 %
25.11.2020 11:00 -0,7 C 98 % 1024,8 hPa 0,0 l/m 1,6 km/h (1 Bft) O-SO 112 1 min 0,076 mm 1,0 UV-I 297 W/m -1,0 C -0,7 C 4,8 km/h (1 Bft) 100,00 %
25.11.2020 10:59 -0,7 C 98 % 1024,9 hPa 0,0 l/m 0,0 km/h (0 Bft) N 0 1 min 0,000 mm 0,9 UV-I 218 W/m -1,0 C -0,7 C 0,0 km/h (0 Bft) 100,00 %
25.11.2020 10:58 -0,7 C 98 % 1024,8 hPa 0,0 l/m 0,0 km/h (0 Bft) N 0 1 min 0,000 mm 0,9 UV-I 253 W/m -1,0 C -0,7 C 0,0 km/h (0 Bft) 100,00 %
25.11.2020 10:57 -0,7 C 98 % 1024,8 hPa 0,0 l/m 0,0 km/h (0 Bft) N 0 1 min 0,000 mm 0,9 UV-I 202 W/m -1,0 C -0,7 C 0,0 km/h (0 Bft) 100,00 %
25.11.2020 10:56 -0,7 C 98 % 1024,8 hPa 0,0 l/m 0,0 km/h (0 Bft) N 0 1 min 0,000 mm 0,8 UV-I 183 W/m -1,0 C -0,7 C 0,0 km/h (0 Bft) 100,00 %
25.11.2020 10:55 -0,7 C 98 % 1024,8 hPa 0,0 l/m 0,0 km/h (0 Bft) N 0 1 min 0,000 mm 0,8 UV-I 183 W/m -1,0 C -0,7 C 0,0 km/h (0 Bft) 100,00 %
25.11.2020 10:54 -0,7 C 98 % 1024,8 hPa 0,0 l/m 0,0 km/h (0 Bft) N 0 1 min 0,000 mm 0,8 UV-I 183 W/m -1,0 C -0,7 C 0,0 km/h (0 Bft) 100,00 %
25.11.2020 10:53 -0,7 C 98 % 1024,8 hPa 0,0 l/m 1,6 km/h (1 Bft) O-NO 67 1 min 0,000 mm 0,9 UV-I 200 W/m -1,0 C -0,7 C 1,6 km/h (1 Bft) 95,65 %
25.11.2020 10:52 -0,7 C 98 % 1024,8 hPa 0,0 l/m 1,6 km/h (1 Bft) O-NO 67 1 min 0,000 mm 0,8 UV-I 197 W/m -1,0 C -0,7 C 3,2 km/h (1 Bft) 100,00 %
25.11.2020 10:51 -0,7 C 98 % 1024,8 hPa 0,0 l/m 3,2 km/h (1 Bft) O-NO 67 1 min 0,000 mm 0,8 UV-I 179 W/m -1,0 C -0,7 C 4,8 km/h (1 Bft) 100,00 %
25.11.2020 10:50 -0,6 C 98 % 1024,8 hPa 0,0 l/m 1,6 km/h (1 Bft) O-NO 67 1 min 0,000 mm 0,8 UV-I 171 W/m -0,9 C -0,6 C 3,2 km/h (1 Bft) 100,00 %
25.11.2020 10:49 -0,6 C 98 % 1024,8 hPa 0,0 l/m 3,2 km/h (1 Bft) O-NO 67 1 min 0,000 mm 0,8 UV-I 174 W/m -0,9 C -0,6 C 4,8 km/h (1 Bft) 100,00 %
25.11.2020 10:48 -0,6 C 98 % 1024,8 hPa 0,0 l/m 3,2 km/h (1 Bft) O-NO 67 1 min 0,000 mm 0,8 UV-I 176 W/m -0,9 C -0,6 C 4,8 km/h (1 Bft) 100,00 %
25.11.2020 10:47 -0,5 C 98 % 1024,8 hPa 0,0 l/m 3,2 km/h (1 Bft) O-NO 67 1 min 0,000 mm 0,8 UV-I 195 W/m -0,8 C -0,5 C 3,2 km/h (1 Bft) 100,00 %
25.11.2020 10:46 -0,5 C 98 % 1024,7 hPa 0,0 l/m 3,2 km/h (1 Bft) O 90 1 min 0,000 mm 0,9 UV-I 202 W/m -0,8 C -0,5 C 4,8 km/h (1 Bft) 100,00 %
25.11.2020 10:45 -0,5 C 98 % 1024,8 hPa 0,0 l/m 3,2 km/h (1 Bft) O 90 1 min 0,000 mm 0,9 UV-I 239 W/m -0,8 C -0,5 C 3,2 km/h (1 Bft) 100,00 %
25.11.2020 10:44 -0,4 C 98 % 1024,8 hPa 0,0 l/m 3,2 km/h (1 Bft) O 90 1 min 0,000 mm 0,9 UV-I 362 W/m -0,7 C -0,4 C 4,8 km/h (1 Bft) 100,00 %
25.11.2020 10:43 -0,4 C 98 % 1024,8 hPa 0,0 l/m 3,2 km/h (1 Bft) O 90 1 min 0,000 mm 1,0 UV-I 362 W/m -0,7 C -0,4 C 4,8 km/h (1 Bft) 100,00 %
25.11.2020 10:42 -0,4 C 98 % 1024,9 hPa 0,0 l/m 1,6 km/h (1 Bft) O 90 1 min 0,000 mm 1,0 UV-I 385 W/m -0,7 C -0,4 C 3,2 km/h (1 Bft) 100,00 %
25.11.2020 10:41 -0,4 C 98 % 1024,9 hPa 0,0 l/m 3,2 km/h (1 Bft) O 90 1 min 0,000 mm 1,0 UV-I 327 W/m -0,7 C -0,4 C 3,2 km/h (1 Bft) 95,65 %
25.11.2020 10:40 -0,4 C 98 % 1024,9 hPa 0,0 l/m 1,6 km/h (1 Bft) O-SO 112 1 min 0,000 mm 1,0 UV-I 309 W/m -0,7 C -0,4 C 3,2 km/h (1 Bft) 100,00 %
25.11.2020 10:39 -0,4 C 98 % 1024,8 hPa 0,0 l/m 1,6 km/h (1 Bft) SW 225 1 min 0,000 mm 1,0 UV-I 320 W/m -0,7 C -0,4 C 3,2 km/h (1 Bft) 100,00 %
25.11.2020 10:38 -0,5 C 98 % 1024,8 hPa 0,0 l/m 0,0 km/h (0 Bft) SW 225 1 min 0,000 mm 1,0 UV-I 301 W/m -0,8 C -0,5 C 1,6 km/h (1 Bft) 95,65 %
25.11.2020 10:37 -0,5 C 98 % 1024,8 hPa 0,0 l/m 0,0 km/h (0 Bft) N 0 1 min 0,000 mm 1,0 UV-I 315 W/m -0,8 C -0,5 C 0,0 km/h (0 Bft) 100,00 %
25.11.2020 10:36 -0,5 C 98 % 1024,8 hPa 0,0 l/m 0,0 km/h (0 Bft) SW 225 1 min 0,000 mm 1,0 UV-I 295 W/m -0,8 C -0,5 C 1,6 km/h (1 Bft) 95,65 %
25.11.2020 10:35 -0,6 C 98 % 1024,8 hPa 0,0 l/m 3,2 km/h (1 Bft) SW 225 1 min 0,000 mm 1,0 UV-I 295 W/m -0,9 C -0,6 C 3,2 km/h (1 Bft) 100,00 %
25.11.2020 10:34 -0,6 C 98 % 1024,8 hPa 0,0 l/m 0,0 km/h (0 Bft) SW 225 1 min 0,000 mm 1,0 UV-I 325 W/m -0,9 C -0,6 C 3,2 km/h (1 Bft) 100,00 %
25.11.2020 10:33 -0,6 C 98 % 1024,7 hPa 0,0 l/m 0,0 km/h (0 Bft) N 0 1 min 0,000 mm 1,0 UV-I 283 W/m -0,9 C -0,6 C 0,0 km/h (0 Bft) 100,00 %
25.11.2020 10:32 -0,7 C 98 % 1024,8 hPa 0,0 l/m 0,0 km/h (0 Bft) N 0 1 min 0,000 mm 0,9 UV-I 265 W/m -1,0 C -0,7 C 0,0 km/h (0 Bft) 100,00 %
25.11.2020 10:31 -0,7 C 98 % 1024,8 hPa 0,0 l/m 0,0 km/h (0 Bft) N 0 1 min 0,000 mm 1,0 UV-I 271 W/m -1,0 C -0,7 C 0,0 km/h (0 Bft) 100,00 %
25.11.2020 10:30 -0,7 C 98 % 1024,8 hPa 0,0 l/m 0,0 km/h (0 Bft) N 0 1 min 0,000 mm 1,0 UV-I 350 W/m -1,0 C -0,7 C 0,0 km/h (0 Bft) 100,00 %
25.11.2020 10:29 -0,8 C 98 % 1024,8 hPa 0,0 l/m 0,0 km/h (0 Bft) N 0 1 min 0,000 mm 0,9 UV-I 350 W/m -1,1 C -0,8 C 0,0 km/h (0 Bft) 100,00 %
25.11.2020 10:28 -0,8 C 98 % 1024,8 hPa 0,0 l/m 0,0 km/h (0 Bft) N 0 1 min 0,000 mm 0,8 UV-I 213 W/m -1,1 C -0,8 C 0,0 km/h (0 Bft) 100,00 %
25.11.2020 10:27 -0,8 C 98 % 1024,7 hPa 0,0 l/m 0,0 km/h (0 Bft) N 0 1 min 0,000 mm 0,8 UV-I 229 W/m -1,1 C -0,8 C 0,0 km/h (0 Bft) 100,00 %
25.11.2020 10:26 -0,9 C 98 % 1024,8 hPa 0,0 l/m 0,0 km/h (0 Bft) N 0 1 min 0,000 mm 0,8 UV-I 236 W/m -1,2 C -0,9 C 0,0 km/h (0 Bft) 100,00 %
25.11.2020 10:25 -0,8 C 98 % 1024,8 hPa 0,0 l/m 0,0 km/h (0 Bft) N 0 1 min 0,000 mm 0,8 UV-I 218 W/m -1,1 C -0,8 C 0,0 km/h (0 Bft) 100,00 %
25.11.2020 10:24 -0,9 C 98 % 1024,7 hPa 0,0 l/m 0,0 km/h (0 Bft) N 0 1 min 0,000 mm 0,8 UV-I 237 W/m -1,2 C -0,9 C 0,0 km/h (0 Bft) 95,65 %
25.11.2020 10:23 -0,9 C 98 % 1024,8 hPa 0,0 l/m 0,0 km/h (0 Bft) N 0 1 min 0,000 mm 0,8 UV-I 223 W/m -1,2 C -0,9 C 0,0 km/h (0 Bft) 100,00 %
25.11.2020 10:22 -0,9 C 98 % 1024,8 hPa 0,0 l/m 0,0 km/h (0 Bft) N 0 1 min 0,000 mm 0,8 UV-I 216 W/m -1,2 C -0,9 C 0,0 km/h (0 Bft) 100,00 %
25.11.2020 10:21 -0,9 C 98 % 1024,8 hPa 0,0 l/m 0,0 km/h (0 Bft) N 0 1 min 0,000 mm 0,8 UV-I 188 W/m -1,2 C -0,9 C 0,0 km/h (0 Bft) 100,00 %
25.11.2020 10:20 -0,9 C 98 % 1024,8 hPa 0,0 l/m 0,0 km/h (0 Bft) N 0 1 min 0,000 mm 0,7 UV-I 165 W/m -1,2 C -0,9 C 0,0 km/h (0 Bft) 100,00 %
25.11.2020 10:19 -0,9 C 98 % 1024,8 hPa 0,0 l/m 0,0 km/h (0 Bft) N 0 1 min 0,000 mm 0,7 UV-I 155 W/m -1,2 C -0,9 C 0,0 km/h (0 Bft) 100,00 %
25.11.2020 10:18 -1,0 C 98 % 1024,8 hPa 0,0 l/m 0,0 km/h (0 Bft) N 0 1 min 0,000 mm 0,7 UV-I 158 W/m -1,3 C -1,0 C 0,0 km/h (0 Bft) 100,00 %
25.11.2020 10:17 -1,0 C 98 % 1024,8 hPa 0,0 l/m 0,0 km/h (0 Bft) N 0 1 min 0,000 mm 0,8 UV-I 192 W/m -1,3 C -1,0 C 0,0 km/h (0 Bft) 95,65 %
25.11.2020 10:16 -1,0 C 98 % 1024,8 hPa 0,0 l/m 0,0 km/h (0 Bft) N 0 1 min 0,000 mm 0,8 UV-I 214 W/m -1,3 C -1,0 C 0,0 km/h (0 Bft) 95,65 %
25.11.2020 10:15 -1,1 C 98 % 1024,8 hPa 0,0 l/m 0,0 km/h (0 Bft) N 0 1 min 0,000 mm 0,8 UV-I 246 W/m -1,4 C -1,1 C 0,0 km/h (0 Bft) 100,00 %
25.11.2020 10:14 -1,1 C 98 % 1024,8 hPa 0,0 l/m 0,0 km/h (0 Bft) N 0 1 min 0,000 mm 0,8 UV-I 239 W/m -1,4 C -1,1 C 0,0 km/h (0 Bft) 100,00 %
25.11.2020 10:13 -1,1 C 98 % 1024,8 hPa 0,0 l/m 1,6 km/h (1 Bft) W 270 1 min 0,000 mm 0,8 UV-I 225 W/m -1,4 C -1,1 C 3,2 km/h (1 Bft) 100,00 %
25.11.2020 10:12 -1,1 C 98 % 1024,8 hPa 0,0 l/m 1,6 km/h (1 Bft) W 270 1 min 0,000 mm 0,8 UV-I 185 W/m -1,4 C -1,1 C 3,2 km/h (1 Bft) 100,00 %
25.11.2020 10:11 -1,1 C 98 % 1024,7 hPa 0,0 l/m 3,2 km/h (1 Bft) W-SW 247 1 min 0,000 mm 0,8 UV-I 209 W/m -1,4 C -1,1 C 3,2 km/h (1 Bft) 100,00 %
25.11.2020 10:10 -1,1 C 98 % 1024,7 hPa 0,0 l/m 1,6 km/h (1 Bft) W-SW 247 1 min 0,000 mm 0,8 UV-I 248 W/m -1,4 C -1,1 C 3,2 km/h (1 Bft) 100,00 %
25.11.2020 10:09 -1,2 C 98 % 1024,8 hPa 0,0 l/m 1,6 km/h (1 Bft) W-SW 247 1 min 0,000 mm 0,8 UV-I 265 W/m -1,5 C -1,2 C 1,6 km/h (1 Bft) 100,00 %
25.11.2020 10:08 -1,2 C 98 % 1024,7 hPa 0,0 l/m 1,6 km/h (1 Bft) W-SW 247 1 min 0,000 mm 0,8 UV-I 255 W/m -1,5 C -1,2 C 3,2 km/h (1 Bft) 100,00 %
25.11.2020 10:07 -1,2 C 98 % 1024,7 hPa 0,0 l/m 1,6 km/h (1 Bft) W-SW 247 1 min 0,000 mm 0,8 UV-I 185 W/m -1,5 C -1,2 C 3,2 km/h (1 Bft) 100,00 %
25.11.2020 10:06 -1,3 C 98 % 1024,7 hPa 0,0 l/m 3,2 km/h (1 Bft) W-SW 247 1 min 0,000 mm 0,7 UV-I 169 W/m -1,6 C -1,3 C 3,2 km/h (1 Bft) 100,00 %
25.11.2020 10:05 -1,3 C 98 % 1024,7 hPa 0,0 l/m 0,0 km/h (0 Bft) W-SW 247 1 min 0,000 mm 0,7 UV-I 195 W/m -1,6 C -1,3 C 1,6 km/h (1 Bft) 100,00 %
25.11.2020 10:04 -1,3 C 98 % 1024,8 hPa 0,0 l/m 0,0 km/h (0 Bft) N 0 1 min 0,000 mm 0,8 UV-I 236 W/m -1,6 C -1,3 C 0,0 km/h (0 Bft) 100,00 %
25.11.2020 10:03 -1,4 C 98 % 1024,8 hPa 0,0 l/m 0,0 km/h (0 Bft) N 0 1 min 0,000 mm 0,8 UV-I 234 W/m -1,7 C -1,4 C 0,0 km/h (0 Bft) 100,00 %
25.11.2020 10:02 -1,4 C 98 % 1024,7 hPa 0,0 l/m 0,0 km/h (0 Bft) N 0 1 min 0,000 mm 0,8 UV-I 197 W/m -1,7 C -1,4 C 0,0 km/h (0 Bft) 95,65 %
25.11.2020 10:01 -1,4 C 98 % 1024,7 hPa 0,0 l/m 0,0 km/h (0 Bft) N 0 1 min 0,000 mm 0,7 UV-I 169 W/m -1,7 C -1,4 C 0,0 km/h (0 Bft) 100,00 %
25.11.2020 10:00 -1,4 C 98 % 1024,8 hPa 0,0 l/m 0,0 km/h (0 Bft) N 0 1 min 0,051 mm 0,7 UV-I 178 W/m -1,7 C -1,4 C 0,0 km/h (0 Bft) 100,00 %
25.11.2020 09:59 -1,5 C 98 % 1024,7 hPa 0,0 l/m 0,0 km/h (0 Bft) N 0 1 min 0,000 mm 0,7 UV-I 158 W/m -1,8 C -1,5 C 0,0 km/h (0 Bft) 100,00 %
25.11.2020 09:58 -1,5 C 98 % 1024,8 hPa 0,0 l/m 0,0 km/h (0 Bft) N 0 0 min 0,000 mm 0,7 UV-I 137 W/m -1,8 C -1,5 C 0,0 km/h (0 Bft) 100,00 %
25.11.2020 09:57 -1,6 C 98 % 1024,7 hPa 0,0 l/m 0,0 km/h (0 Bft) N 0 1 min 0,000 mm 0,7 UV-I 165 W/m -1,9 C -1,6 C 0,0 km/h (0 Bft) 95,65 %
25.11.2020 09:56 -1,6 C 98 % 1024,7 hPa 0,0 l/m 0,0 km/h (0 Bft) N 0 1 min 0,000 mm 0,7 UV-I 200 W/m -1,9 C -1,6 C 0,0 km/h (0 Bft) 95,65 %
25.11.2020 09:55 -1,6 C 98 % 1024,7 hPa 0,0 l/m 0,0 km/h (0 Bft) N 0 1 min 0,000 mm 0,7 UV-I 169 W/m -1,9 C -1,6 C 0,0 km/h (0 Bft) 100,00 %
25.11.2020 09:54 -1,7 C 98 % 1024,7 hPa 0,0 l/m 0,0 km/h (0 Bft) N 0 1 min 0,000 mm 0,7 UV-I 213 W/m -2,0 C -1,7 C 0,0 km/h (0 Bft) 100,00 %
25.11.2020 09:53 -1,7 C 98 % 1024,7 hPa 0,0 l/m 0,0 km/h (0 Bft) N 0 1 min 0,000 mm 0,7 UV-I 188 W/m -2,0 C -1,7 C 0,0 km/h (0 Bft) 100,00 %
25.11.2020 09:52 -1,7 C 98 % 1024,7 hPa 0,0 l/m 1,6 km/h (1 Bft) W-SW 247 1 min 0,000 mm 0,7 UV-I 176 W/m -2,0 C -1,7 C 1,6 km/h (1 Bft) 95,65 %
25.11.2020 09:51 -1,7 C 98 % 1024,7 hPa 0,0 l/m 1,6 km/h (1 Bft) W-SW 247 1 min 0,000 mm 0,7 UV-I 216 W/m -2,0 C -1,7 C 3,2 km/h (1 Bft) 100,00 %
25.11.2020 09:50 -1,7 C 98 % 1024,7 hPa 0,0 l/m 1,6 km/h (1 Bft) W-SW 247 1 min 0,000 mm 0,7 UV-I 250 W/m -2,0 C -1,7 C 3,2 km/h (1 Bft) 95,65 %
25.11.2020 09:49 -1,7 C 98 % 1024,7 hPa 0,0 l/m 1,6 km/h (1 Bft) W-SW 247 1 min 0,000 mm 0,6 UV-I 211 W/m -2,0 C -1,7 C 3,2 km/h (1 Bft) 100,00 %
25.11.2020 09:48 -1,8 C 98 % 1024,7 hPa 0,0 l/m 1,6 km/h (1 Bft) W-SW 247 1 min 0,000 mm 0,6 UV-I 218 W/m -2,1 C -1,8 C 3,2 km/h (1 Bft) 100,00 %
25.11.2020 09:47 -1,8 C 98 % 1024,6 hPa 0,2 l/m 1,6 km/h (1 Bft) W-SW 247 1 min 0,000 mm 0,6 UV-I 160 W/m -2,1 C -1,8 C 3,2 km/h (1 Bft) 100,00 %
25.11.2020 09:46 -1,8 C 98 % 1024,7 hPa 0,0 l/m 3,2 km/h (1 Bft) W-SW 247 0 min 0,000 mm 0,6 UV-I 132 W/m -2,1 C -1,8 C 3,2 km/h (1 Bft) 100,00 %
25.11.2020 09:45 -1,8 C 98 % 1024,7 hPa 0,0 l/m 1,6 km/h (1 Bft) W-SW 247 0 min 0,000 mm 0,6 UV-I 123 W/m -2,1 C -1,8 C 3,2 km/h (1 Bft) 100,00 %
25.11.2020 09:44 -1,8 C 98 % 1024,8 hPa 0,0 l/m 1,6 km/h (1 Bft) W-SW 247 0 min 0,000 mm 0,6 UV-I 128 W/m -2,1 C -1,8 C 3,2 km/h (1 Bft) 100,00 %
25.11.2020 09:43 -1,7 C 98 % 1024,7 hPa 0,0 l/m 1,6 km/h (1 Bft) W-SW 247 0 min 0,000 mm 0,6 UV-I 130 W/m -2,0 C -1,7 C 3,2 km/h (1 Bft) 100,00 %
25.11.2020 09:42 -1,7 C 98 % 1024,7 hPa 0,0 l/m 3,2 km/h (1 Bft) W-SW 247 1 min 0,000 mm 0,6 UV-I 156 W/m -2,0 C -1,7 C 3,2 km/h (1 Bft) 100,00 %
25.11.2020 09:41 -1,8 C 98 % 1024,7 hPa 0,0 l/m 1,6 km/h (1 Bft) W-SW 247 1 min 0,000 mm 0,6 UV-I 162 W/m -2,1 C -1,8 C 3,2 km/h (1 Bft) 100,00 %
25.11.2020 09:40 -1,7 C 98 % 1024,7 hPa 0,0 l/m 3,2 km/h (1 Bft) W-SW 247 1 min 0,000 mm 0,5 UV-I 162 W/m -2,0 C -1,7 C 3,2 km/h (1 Bft) 100,00 %
25.11.2020 09:39 -1,7 C 98 % 1024,6 hPa 0,0 l/m 3,2 km/h (1 Bft) W-SW 247 0 min 0,000 mm 0,6 UV-I 148 W/m -2,0 C -1,7 C 3,2 km/h (1 Bft) 100,00 %
25.11.2020 09:38 -1,8 C 98 % 1024,6 hPa 0,0 l/m 3,2 km/h (1 Bft) W-SW 247 1 min 0,000 mm 0,6 UV-I 209 W/m -2,1 C -1,8 C 3,2 km/h (1 Bft) 100,00 %
25.11.2020 09:37 -1,8 C 98 % 1024,7 hPa 0,0 l/m 3,2 km/h (1 Bft) W-SW 247 1 min 0,000 mm 0,6 UV-I 188 W/m -2,1 C -1,8 C 3,2 km/h (1 Bft) 100,00 %
25.11.2020 09:36 -1,8 C 98 % 1024,7 hPa 0,0 l/m 1,6 km/h (1 Bft) W-SW 247 1 min 0,000 mm 0,6 UV-I 195 W/m -2,1 C -1,8 C 3,2 km/h (1 Bft) 100,00 %
25.11.2020 09:35 -1,8 C 98 % 1024,7 hPa 0,0 l/m 1,6 km/h (1 Bft) W-SW 247 1 min 0,000 mm 0,6 UV-I 206 W/m -2,1 C -1,8 C 3,2 km/h (1 Bft) 95,65 %
25.11.2020 09:34 -1,8 C 98 % 1024,7 hPa 0,0 l/m 1,6 km/h (1 Bft) W-SW 247 1 min 0,000 mm 0,5 UV-I 183 W/m -2,1 C -1,8 C 3,2 km/h (1 Bft) 100,00 %
25.11.2020 09:33 -1,9 C 98 % 1024,7 hPa 0,0 l/m 1,6 km/h (1 Bft) W-SW 247 1 min 0,000 mm 0,5 UV-I 195 W/m -2,2 C -1,9 C 3,2 km/h (1 Bft) 100,00 %
25.11.2020 09:32 -1,9 C 98 % 1024,7 hPa 0,0 l/m 1,6 km/h (1 Bft) W-SW 247 1 min 0,000 mm 0,5 UV-I 192 W/m -2,2 C -1,9 C 1,6 km/h (1 Bft) 100,00 %
25.11.2020 09:31 -1,9 C 98 % 1024,6 hPa 0,0 l/m 0,0 km/h (0 Bft) W-SW 247 1 min 0,000 mm 0,5 UV-I 192 W/m -2,2 C -1,9 C 1,6 km/h (1 Bft) 95,65 %
25.11.2020 09:30 -2,0 C 98 % 1024,6 hPa 0,0 l/m 0,0 km/h (0 Bft) N 0 1 min 0,000 mm 0,5 UV-I 221 W/m -2,3 C -2,0 C 0,0 km/h (0 Bft) 100,00 %
25.11.2020 09:29 -2,1 C 98 % 1024,6 hPa 0,0 l/m 0,0 km/h (0 Bft) W-SW 247 1 min 0,000 mm 0,5 UV-I 183 W/m -2,4 C -2,1 C 1,6 km/h (1 Bft) 95,65 %
25.11.2020 09:28 -2,1 C 98 % 1024,7 hPa 0,0 l/m 1,6 km/h (1 Bft) W-SW 247 1 min 0,000 mm 0,5 UV-I 155 W/m -2,4 C -2,1 C 3,2 km/h (1 Bft) 100,00 %
25.11.2020 09:27 -2,1 C 98 % 1024,7 hPa 0,0 l/m 1,6 km/h (1 Bft) W-SW 247 1 min 0,000 mm 0,5 UV-I 174 W/m -2,4 C -2,1 C 3,2 km/h (1 Bft) 100,00 %
25.11.2020 09:26 -2,2 C 98 % 1024,6 hPa 0,0 l/m 1,6 km/h (1 Bft) W-SW 247 0 min 0,000 mm 0,5 UV-I 146 W/m -2,5 C -2,2 C 3,2 km/h (1 Bft) 95,65 %
25.11.2020 09:25 -2,2 C 98 % 1024,6 hPa 0,0 l/m 1,6 km/h (1 Bft) W-SW 247 0 min 0,000 mm 0,0 UV-I 139 W/m -2,5 C -2,2 C 3,2 km/h (1 Bft) 100,00 %
25.11.2020 09:24 -2,2 C 98 % 1024,7 hPa 0,0 l/m 1,6 km/h (1 Bft) W-SW 247 0 min 0,000 mm 0,0 UV-I 146 W/m -2,5 C -2,2 C 3,2 km/h (1 Bft) 100,00 %
25.11.2020 09:23 -2,2 C 98 % 1024,7 hPa 0,0 l/m 1,6 km/h (1 Bft) W-SW 247 0 min 0,000 mm 0,0 UV-I 125 W/m -2,5 C -2,2 C 3,2 km/h (1 Bft) 100,00 %
25.11.2020 09:22 -2,2 C 98 % 1024,6 hPa 0,0 l/m 1,6 km/h (1 Bft) W-SW 247 0 min 0,000 mm 0,0 UV-I 116 W/m -2,5 C -2,2 C 3,2 km/h (1 Bft) 100,00 %
25.11.2020 09:21 -2,2 C 98 % 1024,6 hPa 0,0 l/m 1,6 km/h (1 Bft) W-SW 247 0 min 0,000 mm 0,0 UV-I 107 W/m -2,5 C -2,2 C 3,2 km/h (1 Bft) 100,00 %
25.11.2020 09:20 -2,2 C 98 % 1024,6 hPa 0,0 l/m 1,6 km/h (1 Bft) W-SW 247 0 min 0,000 mm 0,0 UV-I 105 W/m -2,5 C -2,2 C 3,2 km/h (1 Bft) 95,65 %
25.11.2020 09:19 -2,2 C 98 % 1024,6 hPa 0,0 l/m 1,6 km/h (1 Bft) W-SW 247 0 min 0,000 mm 0,0 UV-I 105 W/m -2,5 C -2,2 C 3,2 km/h (1 Bft) 100,00 %
25.11.2020 09:18 -2,2 C 98 % 1024,6 hPa 0,0 l/m 1,6 km/h (1 Bft) W-SW 247 0 min 0,000 mm 0,0 UV-I 98 W/m -2,5 C -2,2 C 3,2 km/h (1 Bft) 100,00 %
25.11.2020 09:17 -2,2 C 98 % 1024,6 hPa 0,0 l/m 1,6 km/h (1 Bft) W-SW 247 0 min 0,000 mm 0,0 UV-I 123 W/m -2,5 C -2,2 C 1,6 km/h (1 Bft) 100,00 %
25.11.2020 09:16 -2,2 C 98 % 1024,7 hPa 0,0 l/m 1,6 km/h (1 Bft) W-SW 247 0 min 0,000 mm 0,0 UV-I 105 W/m -2,5 C -2,2 C 3,2 km/h (1 Bft) 100,00 %
25.11.2020 09:15 -2,2 C 98 % 1024,6 hPa 0,0 l/m 1,6 km/h (1 Bft) W-SW 247 0 min 0,000 mm 0,0 UV-I 97 W/m -2,5 C -2,2 C 3,2 km/h (1 Bft) 100,00 %
25.11.2020 09:14 -2,2 C 98 % 1024,6 hPa 0,0 l/m 1,6 km/h (1 Bft) W-SW 247 0 min 0,000 mm 0,0 UV-I 95 W/m -2,5 C -2,2 C 3,2 km/h (1 Bft) 100,00 %
25.11.2020 09:13 -2,2 C 98 % 1024,6 hPa 0,0 l/m 1,6 km/h (1 Bft) W-SW 247 0 min 0,000 mm 0,0 UV-I 83 W/m -2,5 C -2,2 C 3,2 km/h (1 Bft) 100,00 %
25.11.2020 09:12 -2,2 C 98 % 1024,6 hPa 0,0 l/m 0,0 km/h (0 Bft) N 0 0 min 0,000 mm 0,0 UV-I 105 W/m -2,5 C -2,2 C 0,0 km/h (0 Bft) 100,00 %
25.11.2020 09:11 -2,2 C 98 % 1024,6 hPa 0,0 l/m 0,0 km/h (0 Bft) N 0 0 min 0,000 mm 0,0 UV-I 109 W/m -2,5 C -2,2 C 0,0 km/h (0 Bft) 100,00 %
25.11.2020 09:10 -2,2 C 98 % 1024,6 hPa 0,0 l/m 0,0 km/h (0 Bft) N 0 0 min 0,000 mm 0,0 UV-I 97 W/m -2,5 C -2,2 C 0,0 km/h (0 Bft) 100,00 %
25.11.2020 09:09 -2,2 C 98 % 1024,6 hPa 0,0 l/m 0,0 km/h (0 Bft) N 0 0 min 0,000 mm 0,0 UV-I 77 W/m -2,5 C -2,2 C 0,0 km/h (0 Bft) 100,00 %
25.11.2020 09:08 -2,3 C 98 % 1024,7 hPa 0,0 l/m 0,0 km/h (0 Bft) N 0 0 min 0,000 mm 0,0 UV-I 79 W/m -2,6 C -2,3 C 0,0 km/h (0 Bft) 100,00 %
25.11.2020 09:07 -2,3 C 98 % 1024,7 hPa 0,0 l/m 0,0 km/h (0 Bft) N 0 0 min 0,000 mm 0,0 UV-I 70 W/m -2,6 C -2,3 C 0,0 km/h (0 Bft) 95,65 %
25.11.2020 09:06 -2,3 C 98 % 1024,7 hPa 0,0 l/m 0,0 km/h (0 Bft) N 0 0 min 0,000 mm 0,0 UV-I 69 W/m -2,6 C -2,3 C 0,0 km/h (0 Bft) 95,65 %
25.11.2020 09:05 -2,3 C 98 % 1024,6 hPa 0,0 l/m 0,0 km/h (0 Bft) N 0 0 min 0,000 mm 0,0 UV-I 69 W/m -2,6 C -2,3 C 0,0 km/h (0 Bft) 100,00 %
25.11.2020 09:04 -2,3 C 98 % 1024,7 hPa 0,0 l/m 0,0 km/h (0 Bft) N 0 0 min 0,000 mm 0,0 UV-I 56 W/m -2,6 C -2,3 C 0,0 km/h (0 Bft) 100,00 %
25.11.2020 09:03 -2,3 C 98 % 1024,6 hPa 0,0 l/m 0,0 km/h (0 Bft) N 0 0 min 0,000 mm 0,0 UV-I 56 W/m -2,6 C -2,3 C 0,0 km/h (0 Bft) 100,00 %
25.11.2020 09:02 -2,3 C 98 % 1024,7 hPa 0,0 l/m 0,0 km/h (0 Bft) N 0 0 min 0,000 mm 0,0 UV-I 79 W/m -2,6 C -2,3 C 0,0 km/h (0 Bft) 100,00 %
25.11.2020 09:01 -2,3 C 98 % 1024,6 hPa 0,0 l/m 0,0 km/h (0 Bft) N 0 0 min 0,000 mm 0,0 UV-I 84 W/m -2,6 C -2,3 C 0,0 km/h (0 Bft) 100,00 %
25.11.2020 09:00 -2,3 C 98 % 1024,7 hPa 0,0 l/m 0,0 km/h (0 Bft) N 0 0 min 0,025 mm 0,0 UV-I 65 W/m -2,6 C -2,3 C 0,0 km/h (0 Bft) 95,65 %
25.11.2020 08:59 -2,3 C 98 % 1024,6 hPa 0,0 l/m 0,0 km/h (0 Bft) N 0 0 min 0,000 mm 0,0 UV-I 54 W/m -2,6 C -2,3 C 0,0 km/h (0 Bft) 100,00 %
25.11.2020 08:58 -2,3 C 98 % 1024,7 hPa 0,0 l/m 0,0 km/h (0 Bft) N 0 0 min 0,000 mm 0,0 UV-I 56 W/m -2,6 C -2,3 C 0,0 km/h (0 Bft) 100,00 %
25.11.2020 08:57 -2,3 C 98 % 1024,6 hPa 0,0 l/m 0,0 km/h (0 Bft) N 0 0 min 0,000 mm 0,0 UV-I 67 W/m -2,6 C -2,3 C 0,0 km/h (0 Bft) 91,30 %
25.11.2020 08:56 -2,3 C 98 % 1024,7 hPa 0,0 l/m 0,0 km/h (0 Bft) N 0 0 min 0,000 mm 0,0 UV-I 67 W/m -2,6 C -2,3 C 0,0 km/h (0 Bft) 100,00 %
25.11.2020 08:55 -2,4 C 98 % 1024,6 hPa 0,0 l/m 0,0 km/h (0 Bft) N 0 0 min 0,000 mm 0,0 UV-I 79 W/m -2,7 C -2,4 C 0,0 km/h (0 Bft) 95,65 %
25.11.2020 08:54 -2,4 C 98 % 1024,7 hPa 0,0 l/m 0,0 km/h (0 Bft) N 0 0 min 0,000 mm 0,0 UV-I 84 W/m -2,7 C -2,4 C 0,0 km/h (0 Bft) 95,65 %
25.11.2020 08:53 -2,4 C 98 % 1024,7 hPa 0,0 l/m 0,0 km/h (0 Bft) N 0 0 min 0,000 mm 0,0 UV-I 90 W/m -2,7 C -2,4 C 0,0 km/h (0 Bft) 100,00 %
25.11.2020 08:52 -2,4 C 98 % 1024,7 hPa 0,0 l/m 0,0 km/h (0 Bft) N 0 0 min 0,000 mm 0,0 UV-I 93 W/m -2,7 C -2,4 C 0,0 km/h (0 Bft) 100,00 %
25.11.2020 08:51 -2,4 C 98 % 1024,7 hPa 0,0 l/m 0,0 km/h (0 Bft) N 0 0 min 0,000 mm 0,0 UV-I 86 W/m -2,7 C -2,4 C 0,0 km/h (0 Bft) 100,00 %
25.11.2020 08:50 -2,4 C 98 % 1024,7 hPa 0,0 l/m 0,0 km/h (0 Bft) N 0 0 min 0,000 mm 0,0 UV-I 93 W/m -2,7 C -2,4 C 0,0 km/h (0 Bft) 100,00 %
25.11.2020 08:49 -2,4 C 98 % 1024,7 hPa 0,0 l/m 0,0 km/h (0 Bft) N 0 0 min 0,000 mm 0,0 UV-I 79 W/m -2,7 C -2,4 C 0,0 km/h (0 Bft) 100,00 %
25.11.2020 08:48 -2,4 C 98 % 1024,7 hPa 0,0 l/m 0,0 km/h (0 Bft) N 0 0 min 0,000 mm 0,0 UV-I 62 W/m -2,7 C -2,4 C 0,0 km/h (0 Bft) 100,00 %
25.11.2020 08:47 -2,5 C 98 % 1024,7 hPa 0,0 l/m 0,0 km/h (0 Bft) N 0 0 min 0,000 mm 0,0 UV-I 65 W/m -2,8 C -2,5 C 0,0 km/h (0 Bft) 95,65 %
25.11.2020 08:46 -2,6 C 98 % 1024,7 hPa 0,0 l/m 0,0 km/h (0 Bft) W-SW 247 0 min 0,000 mm 0,0 UV-I 70 W/m -2,9 C -2,6 C 1,6 km/h (1 Bft) 100,00 %
25.11.2020 08:45 -2,6 C 98 % 1024,7 hPa 0,0 l/m 1,6 km/h (1 Bft) W-SW 247 0 min 0,000 mm 0,0 UV-I 69 W/m -2,9 C -2,6 C 1,6 km/h (1 Bft) 100,00 %
25.11.2020 08:44 -2,5 C 98 % 1024,7 hPa 0,0 l/m 1,6 km/h (1 Bft) W-SW 247 0 min 0,000 mm 0,0 UV-I 79 W/m -2,8 C -2,5 C 1,6 km/h (1 Bft) 100,00 %
25.11.2020 08:43 -2,5 C 98 % 1024,6 hPa 0,0 l/m 0,0 km/h (0 Bft) W-SW 247 0 min 0,000 mm 0,0 UV-I 62 W/m -2,8 C -2,5 C 1,6 km/h (1 Bft) 95,65 %
25.11.2020 08:42 -2,6 C 98 % 1024,6 hPa 0,0 l/m 0,0 km/h (0 Bft) W-SW 247 0 min 0,000 mm 0,0 UV-I 56 W/m -2,9 C -2,6 C 1,6 km/h (1 Bft) 100,00 %
25.11.2020 08:41 -2,6 C 98 % 1024,6 hPa 0,0 l/m 0,0 km/h (0 Bft) W-SW 247 0 min 0,000 mm 0,0 UV-I 70 W/m -2,9 C -2,6 C 1,6 km/h (1 Bft) 100,00 %
25.11.2020 08:40 -2,6 C 98 % 1024,6 hPa 0,0 l/m 1,6 km/h (1 Bft) W-SW 247 0 min 0,000 mm 0,0 UV-I 69 W/m -2,9 C -2,6 C 3,2 km/h (1 Bft) 100,00 %
25.11.2020 08:39 -2,6 C 98 % 1024,7 hPa 0,0 l/m 1,6 km/h (1 Bft) W-SW 247 0 min 0,000 mm 0,0 UV-I 79 W/m -2,9 C -2,6 C 3,2 km/h (1 Bft) 100,00 %
25.11.2020 08:38 -2,6 C 98 % 1024,7 hPa 0,0 l/m 1,6 km/h (1 Bft) W-SW 247 0 min 0,000 mm 0,0 UV-I 79 W/m -2,9 C -2,6 C 3,2 km/h (1 Bft) 100,00 %
25.11.2020 08:37 -2,6 C 98 % 1024,7 hPa 0,0 l/m 1,6 km/h (1 Bft) W-SW 247 0 min 0,000 mm 0,0 UV-I 74 W/m -2,9 C -2,6 C 3,2 km/h (1 Bft) 100,00 %
25.11.2020 08:36 -2,6 C 98 % 1024,6 hPa 0,0 l/m 3,2 km/h (1 Bft) W-SW 247 0 min 0,000 mm 0,0 UV-I 70 W/m -2,9 C -2,6 C 4,8 km/h (1 Bft) 95,65 %
25.11.2020 08:35 -2,6 C 98 % 1024,7 hPa 0,0 l/m 3,2 km/h (1 Bft) W-SW 247 0 min 0,000 mm 0,0 UV-I 67 W/m -2,9 C -2,6 C 4,8 km/h (1 Bft) 100,00 %
25.11.2020 08:34 -2,6 C 98 % 1024,6 hPa 0,0 l/m 3,2 km/h (1 Bft) SW 225 0 min 0,000 mm 0,0 UV-I 62 W/m -2,9 C -2,6 C 4,8 km/h (1 Bft) 95,65 %
25.11.2020 08:33 -2,6 C 98 % 1024,6 hPa 0,0 l/m 3,2 km/h (1 Bft) SW 225 0 min 0,000 mm 0,0 UV-I 67 W/m -2,9 C -2,6 C 4,8 km/h (1 Bft) 100,00 %
25.11.2020 08:32 -2,7 C 98 % 1024,7 hPa 0,0 l/m 3,2 km/h (1 Bft) W-SW 247 0 min 0,000 mm 0,0 UV-I 69 W/m -3,0 C -2,7 C 4,8 km/h (1 Bft) 100,00 %
25.11.2020 08:31 -2,7 C 98 % 1024,6 hPa 0,0 l/m 4,8 km/h (1 Bft) W-SW 247 0 min 0,000 mm 0,0 UV-I 58 W/m -3,0 C -4,5 C 4,8 km/h (1 Bft) 100,00 %
25.11.2020 08:30 -2,7 C 98 % 1024,7 hPa 0,0 l/m 3,2 km/h (1 Bft) SW 225 0 min 0,000 mm 0,0 UV-I 58 W/m -3,0 C -2,7 C 4,8 km/h (1 Bft) 100,00 %
25.11.2020 08:29 -2,7 C 98 % 1024,7 hPa 0,0 l/m 1,6 km/h (1 Bft) SW 225 0 min 0,000 mm 0,0 UV-I 60 W/m -3,0 C -2,7 C 3,2 km/h (1 Bft) 100,00 %
25.11.2020 08:28 -2,7 C 98 % 1024,7 hPa 0,0 l/m 1,6 km/h (1 Bft) SW 225 0 min 0,000 mm 0,0 UV-I 56 W/m -3,0 C -2,7 C 3,2 km/h (1 Bft) 100,00 %
25.11.2020 08:27 -2,7 C 98 % 1024,6 hPa 0,0 l/m 3,2 km/h (1 Bft) W-SW 247 0 min 0,000 mm 0,0 UV-I 46 W/m -3,0 C -2,7 C 3,2 km/h (1 Bft) 100,00 %
25.11.2020 08:26 -2,7 C 98 % 1024,6 hPa 0,0 l/m 3,2 km/h (1 Bft) W-SW 247 0 min 0,000 mm 0,0 UV-I 49 W/m -3,0 C -2,7 C 3,2 km/h (1 Bft) 100,00 %
25.11.2020 08:25 -2,7 C 98 % 1024,7 hPa 0,0 l/m 1,6 km/h (1 Bft) W-SW 247 0 min 0,000 mm 0,0 UV-I 49 W/m -3,0 C -2,7 C 3,2 km/h (1 Bft) 100,00 %
25.11.2020 08:24 -2,7 C 98 % 1024,6 hPa 0,0 l/m 3,2 km/h (1 Bft) W-SW 247 0 min 0,000 mm 0,0 UV-I 39 W/m -3,0 C -2,7 C 3,2 km/h (1 Bft) 100,00 %
25.11.2020 08:23 -2,7 C 98 % 1024,7 hPa 0,0 l/m 3,2 km/h (1 Bft) W-SW 247 0 min 0,000 mm 0,0 UV-I 39 W/m -3,0 C -2,7 C 4,8 km/h (1 Bft) 100,00 %
25.11.2020 08:22 -2,7 C 98 % 1024,7 hPa 0,0 l/m 3,2 km/h (1 Bft) SW 225 0 min 0,000 mm 0,0 UV-I 33 W/m -3,0 C -2,7 C 4,8 km/h (1 Bft) 100,00 %
25.11.2020 08:21 -2,7 C 98 % 1024,7 hPa 0,0 l/m 3,2 km/h (1 Bft) W-SW 247 0 min 0,000 mm 0,0 UV-I 35 W/m -3,0 C -2,7 C 4,8 km/h (1 Bft) 100,00 %
25.11.2020 08:20 -2,7 C 98 % 1024,6 hPa 0,0 l/m 3,2 km/h (1 Bft) W-SW 247 0 min 0,000 mm 0,0 UV-I 33 W/m -3,0 C -2,7 C 4,8 km/h (1 Bft) 100,00 %
25.11.2020 08:19 -2,7 C 98 % 1024,7 hPa 0,0 l/m 1,6 km/h (1 Bft) W-SW 247 0 min 0,000 mm 0,0 UV-I 33 W/m -3,0 C -2,7 C 3,2 km/h (1 Bft) 100,00 %
25.11.2020 08:18 -2,7 C 98 % 1024,7 hPa 0,0 l/m 0,0 km/h (0 Bft) W-SW 247 0 min 0,000 mm 0,0 UV-I 39 W/m -3,0 C -2,7 C 1,6 km/h (1 Bft) 100,00 %
25.11.2020 08:17 -2,7 C 98 % 1024,7 hPa 0,0 l/m 1,6 km/h (1 Bft) W-SW 247 0 min 0,000 mm 0,0 UV-I 40 W/m -3,0 C -2,7 C 1,6 km/h (1 Bft) 100,00 %
25.11.2020 08:16 -2,7 C 98 % 1024,6 hPa 0,0 l/m 1,6 km/h (1 Bft) W-SW 247 0 min 0,000 mm 0,0 UV-I 39 W/m -3,0 C -2,7 C 3,2 km/h (1 Bft) 100,00 %
25.11.2020 08:15 -2,8 C 98 % 1024,6 hPa 0,0 l/m 3,2 km/h (1 Bft) W-SW 247 0 min 0,000 mm 0,0 UV-I 33 W/m -3,1 C -2,8 C 3,2 km/h (1 Bft) 100,00 %
25.11.2020 08:14 -2,7 C 98 % 1024,6 hPa 0,0 l/m 3,2 km/h (1 Bft) W-SW 247 0 min 0,000 mm 0,0 UV-I 30 W/m -3,0 C -2,7 C 4,8 km/h (1 Bft) 95,65 %
25.11.2020 08:13 -2,7 C 98 % 1024,6 hPa 0,0 l/m 4,8 km/h (1 Bft) SW 225 0 min 0,000 mm 0,0 UV-I 28 W/m -3,0 C -4,5 C 6,4 km/h (2 Bft) 100,00 %
25.11.2020 08:12 -2,8 C 98 % 1024,6 hPa 0,0 l/m 4,8 km/h (1 Bft) SW 225 0 min 0,000 mm 0,0 UV-I 25 W/m -3,1 C -4,7 C 4,8 km/h (1 Bft) 100,00 %
25.11.2020 08:11 -2,8 C 98 % 1024,6 hPa 0,0 l/m 4,8 km/h (1 Bft) SW 225 0 min 0,000 mm 0,0 UV-I 26 W/m -3,1 C -4,7 C 6,4 km/h (2 Bft) 100,00 %
25.11.2020 08:10 -2,8 C 98 % 1024,5 hPa 0,0 l/m 4,8 km/h (1 Bft) W-SW 247 0 min 0,000 mm 0,0 UV-I 25 W/m -3,1 C -4,7 C 6,4 km/h (2 Bft) 100,00 %
25.11.2020 08:09 -2,8 C 98 % 1024,6 hPa 0,0 l/m 4,8 km/h (1 Bft) W-SW 247 0 min 0,000 mm 0,0 UV-I 26 W/m -3,1 C -4,7 C 6,4 km/h (2 Bft) 100,00 %
25.11.2020 08:08 -2,8 C 98 % 1024,4 hPa 0,0 l/m 4,8 km/h (1 Bft) W-SW 247 0 min 0,000 mm 0,0 UV-I 25 W/m -3,1 C -4,7 C 6,4 km/h (2 Bft) 100,00 %
25.11.2020 08:07 -2,8 C 98 % 1024,4 hPa 0,0 l/m 3,2 km/h (1 Bft) W-SW 247 0 min 0,000 mm 0,0 UV-I 26 W/m -3,1 C -2,8 C 4,8 km/h (1 Bft) 100,00 %
25.11.2020 08:06 -2,9 C 98 % 1024,4 hPa 0,0 l/m 3,2 km/h (1 Bft) W-SW 247 0 min 0,000 mm 0,0 UV-I 26 W/m -3,2 C -2,9 C 6,4 km/h (2 Bft) 100,00 %
25.11.2020 08:05 -2,9 C 98 % 1024,4 hPa 0,0 l/m 3,2 km/h (1 Bft) W-SW 247 0 min 0,000 mm 0,0 UV-I 26 W/m -3,2 C -2,9 C 4,8 km/h (1 Bft) 100,00 %
25.11.2020 08:04 -2,9 C 98 % 1024,4 hPa 0,0 l/m 4,8 km/h (1 Bft) W-SW 247 0 min 0,000 mm 0,0 UV-I 26 W/m -3,2 C -4,8 C 4,8 km/h (1 Bft) 95,65 %
25.11.2020 08:03 -2,9 C 98 % 1024,4 hPa 0,0 l/m 4,8 km/h (1 Bft) W-SW 247 0 min 0,000 mm 0,0 UV-I 19 W/m -3,2 C -4,8 C 6,4 km/h (2 Bft) 100,00 %
25.11.2020 08:02 -2,9 C 98 % 1024,3 hPa 0,0 l/m 4,8 km/h (1 Bft) SW 225 0 min 0,000 mm 0,0 UV-I 21 W/m -3,2 C -4,8 C 6,4 km/h (2 Bft) 100,00 %
25.11.2020 08:01 -3,0 C 98 % 1024,4 hPa 0,0 l/m 4,8 km/h (1 Bft) W-SW 247 0 min 0,000 mm 0,0 UV-I 18 W/m -3,3 C -4,9 C 4,8 km/h (1 Bft) 100,00 %
25.11.2020 08:00 -3,1 C 98 % 1024,4 hPa 0,0 l/m 3,2 km/h (1 Bft) W-SW 247 0 min 0,000 mm 0,0 UV-I 21 W/m -3,4 C -3,1 C 4,8 km/h (1 Bft) 100,00 %
25.11.2020 07:59 -3,1 C 98 % 1024,4 hPa 0,0 l/m 3,2 km/h (1 Bft) W-SW 247 0 min 0,000 mm 0,0 UV-I 21 W/m -3,4 C -3,1 C 4,8 km/h (1 Bft) 91,30 %
25.11.2020 07:58 -3,1 C 98 % 1024,3 hPa 0,0 l/m 3,2 km/h (1 Bft) W-SW 247 0 min 0,000 mm 0,0 UV-I 19 W/m -3,4 C -3,1 C 4,8 km/h (1 Bft) 100,00 %
25.11.2020 07:57 -3,1 C 98 % 1024,3 hPa 0,0 l/m 4,8 km/h (1 Bft) W-SW 247 0 min 0,000 mm 0,0 UV-I 16 W/m -3,4 C -5,0 C 4,8 km/h (1 Bft) 95,65 %
25.11.2020 07:56 -3,1 C 98 % 1024,4 hPa 0,0 l/m 4,8 km/h (1 Bft) W-SW 247 0 min 0,000 mm 0,0 UV-I 19 W/m -3,4 C -5,0 C 6,4 km/h (2 Bft) 100,00 %
25.11.2020 07:55 -3,1 C 98 % 1024,4 hPa 0,0 l/m 4,8 km/h (1 Bft) W-SW 247 0 min 0,000 mm 0,0 UV-I 16 W/m -3,4 C -5,0 C 4,8 km/h (1 Bft) 100,00 %
25.11.2020 07:54 -3,1 C 98 % 1024,3 hPa 0,0 l/m 4,8 km/h (1 Bft) W-SW 247 0 min 0,000 mm 0,0 UV-I 16 W/m -3,4 C -5,0 C 6,4 km/h (2 Bft) 95,65 %
25.11.2020 07:53 -3,1 C 98 % 1024,3 hPa 0,0 l/m 4,8 km/h (1 Bft) W-SW 247 0 min 0,000 mm 0,0 UV-I 18 W/m -3,4 C -5,0 C 4,8 km/h (1 Bft) 100,00 %
25.11.2020 07:52 -3,1 C 98 % 1024,3 hPa 0,0 l/m 4,8 km/h (1 Bft) W-SW 247 0 min 0,000 mm 0,0 UV-I 19 W/m -3,4 C -5,0 C 6,4 km/h (2 Bft) 100,00 %
25.11.2020 07:51 -3,1 C 98 % 1024,3 hPa 0,0 l/m 3,2 km/h (1 Bft) W-SW 247 0 min 0,000 mm 0,0 UV-I 19 W/m -3,4 C -3,1 C 4,8 km/h (1 Bft) 100,00 %
25.11.2020 07:50 -3,1 C 98 % 1024,3 hPa 0,0 l/m 3,2 km/h (1 Bft) W-SW 247 0 min 0,000 mm 0,0 UV-I 18 W/m -3,4 C -3,1 C 4,8 km/h (1 Bft) 100,00 %
25.11.2020 07:49 -3,1 C 98 % 1024,3 hPa 0,0 l/m 4,8 km/h (1 Bft) SW 225 0 min 0,000 mm 0,0 UV-I 12 W/m -3,4 C -5,0 C 6,4 km/h (2 Bft) 91,30 %
25.11.2020 07:48 -3,1 C 98 % 1024,3 hPa 0,0 l/m 4,8 km/h (1 Bft) W-SW 247 0 min 0,000 mm 0,0 UV-I 12 W/m -3,4 C -5,0 C 6,4 km/h (2 Bft) 100,00 %
25.11.2020 07:47 -3,2 C 98 % 1024,3 hPa 0,0 l/m 4,8 km/h (1 Bft) W-SW 247 0 min 0,000 mm 0,0 UV-I 11 W/m -3,5 C -5,1 C 4,8 km/h (1 Bft) 100,00 %
25.11.2020 07:46 -3,2 C 98 % 1024,2 hPa 0,0 l/m 4,8 km/h (1 Bft) W-SW 247 0 min 0,000 mm 0,0 UV-I 11 W/m -3,5 C -5,1 C 4,8 km/h (1 Bft) 100,00 %
25.11.2020 07:45 -3,2 C 98 % 1024,1 hPa 0,0 l/m 3,2 km/h (1 Bft) W-SW 247 0 min 0,000 mm 0,0 UV-I 9 W/m -3,5 C -3,2 C 4,8 km/h (1 Bft) 100,00 %
25.11.2020 07:44 -3,2 C 98 % 1024,2 hPa 0,0 l/m 3,2 km/h (1 Bft) W-SW 247 0 min 0,000 mm 0,0 UV-I 7 W/m -3,5 C -3,2 C 4,8 km/h (1 Bft) 91,30 %
25.11.2020 07:43 -3,2 C 98 % 1024,2 hPa 0,0 l/m 3,2 km/h (1 Bft) W-SW 247 0 min 0,000 mm 0,0 UV-I 7 W/m -3,5 C -3,2 C 3,2 km/h (1 Bft) 100,00 %
25.11.2020 07:42 -3,3 C 98 % 1024,2 hPa 0,0 l/m 1,6 km/h (1 Bft) W-SW 247 0 min 0,000 mm 0,0 UV-I 7 W/m -3,6 C -3,3 C 3,2 km/h (1 Bft) 100,00 %
25.11.2020 07:41 -3,2 C 97 % 1024,2 hPa 0,0 l/m 1,6 km/h (1 Bft) W-SW 247 0 min 0,000 mm 0,0 UV-I 7 W/m -3,6 C -3,2 C 3,2 km/h (1 Bft) 100,00 %
25.11.2020 07:40 -3,3 C 97 % 1024,2 hPa 0,0 l/m 3,2 km/h (1 Bft) W-SW 247 0 min 0,000 mm 0,0 UV-I 7 W/m -3,7 C -3,3 C 3,2 km/h (1 Bft) 95,65 %
25.11.2020 07:39 -3,3 C 97 % 1024,2 hPa 0,0 l/m 1,6 km/h (1 Bft) W-SW 247 0 min 0,000 mm 0,0 UV-I 5 W/m -3,7 C -3,3 C 3,2 km/h (1 Bft) 100,00 %
25.11.2020 07:38 -3,3 C 97 % 1024,3 hPa 0,0 l/m 1,6 km/h (1 Bft) W-SW 247 0 min 0,000 mm 0,0 UV-I 5 W/m -3,7 C -3,3 C 3,2 km/h (1 Bft) 100,00 %
25.11.2020 07:37 -3,3 C 97 % 1024,2 hPa 0,0 l/m 1,6 km/h (1 Bft) W-SW 247 0 min 0,000 mm 0,0 UV-I 5 W/m -3,7 C -3,3 C 1,6 km/h (1 Bft) 95,65 %
25.11.2020 07:36 -3,3 C 97 % 1024,2 hPa 0,0 l/m 0,0 km/h (0 Bft) W-SW 247 0 min 0,000 mm 0,0 UV-I 5 W/m -3,7 C -3,3 C 1,6 km/h (1 Bft) 100,00 %
25.11.2020 07:35 -3,3 C 97 % 1024,2 hPa 0,0 l/m 0,0 km/h (0 Bft) N 0 0 min 0,000 mm 0,0 UV-I 5 W/m -3,7 C -3,3 C 0,0 km/h (0 Bft) 100,00 %
25.11.2020 07:34 -3,3 C 97 % 1024,2 hPa 0,0 l/m 0,0 km/h (0 Bft) N 0 0 min 0,000 mm 0,0 UV-I 5 W/m -3,7 C -3,3 C 0,0 km/h (0 Bft) 100,00 %
25.11.2020 07:33 -3,3 C 97 % 1024,1 hPa 0,0 l/m 0,0 km/h (0 Bft) N 0 0 min 0,000 mm 0,0 UV-I 5 W/m -3,7 C -3,3 C 0,0 km/h (0 Bft) 100,00 %
25.11.2020 07:32 -3,3 C 97 % 1024,1 hPa 0,0 l/m 0,0 km/h (0 Bft) N 0 0 min 0,000 mm 0,0 UV-I 5 W/m -3,7 C -3,3 C 0,0 km/h (0 Bft) 100,00 %
25.11.2020 07:31 -3,2 C 97 % 1024,2 hPa 0,0 l/m 0,0 km/h (0 Bft) W-SW 247 0 min 0,000 mm 0,0 UV-I 5 W/m -3,6 C -3,2 C 1,6 km/h (1 Bft) 100,00 %
25.11.2020 07:30 -3,2 C 97 % 1024,1 hPa 0,0 l/m 0,0 km/h (0 Bft) W-SW 247 0 min 0,000 mm 0,0 UV-I 5 W/m -3,6 C -3,2 C 1,6 km/h (1 Bft) 100,00 %
25.11.2020 07:29 -3,2 C 97 % 1024,1 hPa 0,0 l/m 0,0 km/h (0 Bft) N 0 0 min 0,000 mm 0,0 UV-I 0 W/m -3,6 C -3,2 C 0,0 km/h (0 Bft) 100,00 %
25.11.2020 07:28 -3,2 C 97 % 1024,1 hPa 0,0 l/m 0,0 km/h (0 Bft) N 0 0 min 0,000 mm 0,0 UV-I 0 W/m -3,6 C -3,2 C 0,0 km/h (0 Bft) 95,65 %
25.11.2020 07:27 -3,2 C 97 % 1024,1 hPa 0,0 l/m 0,0 km/h (0 Bft) N 0 0 min 0,000 mm 0,0 UV-I 0 W/m -3,6 C -3,2 C 0,0 km/h (0 Bft) 100,00 %
25.11.2020 07:26 -3,2 C 97 % 1024,1 hPa 0,0 l/m 0,0 km/h (0 Bft) N 0 0 min 0,000 mm 0,0 UV-I 0 W/m -3,6 C -3,2 C 0,0 km/h (0 Bft) 95,65 %
25.11.2020 07:25 -3,2 C 97 % 1024,1 hPa 0,0 l/m 0,0 km/h (0 Bft) N 0 0 min 0,000 mm 0,0 UV-I 0 W/m -3,6 C -3,2 C 0,0 km/h (0 Bft) 100,00 %
25.11.2020 07:24 -3,2 C 97 % 1024,1 hPa 0,0 l/m 0,0 km/h (0 Bft) W-SW 247 0 min 0,000 mm 0,0 UV-I 0 W/m -3,6 C -3,2 C 1,6 km/h (1 Bft) 100,00 %
25.11.2020 07:23 -3,2 C 97 % 1024,1 hPa 0,0 l/m 1,6 km/h (1 Bft) W-SW 247 0 min 0,000 mm 0,0 UV-I 0 W/m -3,6 C -3,2 C 1,6 km/h (1 Bft) 95,65 %
25.11.2020 07:22 -3,2 C 97 % 1024,1 hPa 0,0 l/m 1,6 km/h (1 Bft) W-SW 247 0 min 0,000 mm 0,0 UV-I 0 W/m -3,6 C -3,2 C 3,2 km/h (1 Bft) 100,00 %
25.11.2020 07:21 -3,2 C 97 % 1024,0 hPa 0,0 l/m 1,6 km/h (1 Bft) W-SW 247 0 min 0,000 mm 0,0 UV-I 0 W/m -3,6 C -3,2 C 3,2 km/h (1 Bft) 95,65 %
25.11.2020 07:20 -3,2 C 97 % 1023,9 hPa 0,0 l/m 1,6 km/h (1 Bft) W-SW 247 0 min 0,000 mm 0,0 UV-I 0 W/m -3,6 C -3,2 C 3,2 km/h (1 Bft) 100,00 %
25.11.2020 07:19 -3,2 C 97 % 1024,0 hPa 0,0 l/m 3,2 km/h (1 Bft) W-SW 247 0 min 0,000 mm 0,0 UV-I 0 W/m -3,6 C -3,2 C 3,2 km/h (1 Bft) 100,00 %
25.11.2020 07:18 -3,2 C 97 % 1024,1 hPa 0,0 l/m 3,2 km/h (1 Bft) W-SW 247 0 min 0,000 mm 0,0 UV-I 0 W/m -3,6 C -3,2 C 3,2 km/h (1 Bft) 100,00 %
25.11.2020 07:17 -3,2 C 97 % 1024,0 hPa 0,0 l/m 1,6 km/h (1 Bft) W-SW 247 0 min 0,000 mm 0,0 UV-I 0 W/m -3,6 C -3,2 C 3,2 km/h (1 Bft) 100,00 %
25.11.2020 07:16 -3,1 C 97 % 1024,0 hPa 0,0 l/m 1,6 km/h (1 Bft) W-SW 247 0 min 0,000 mm 0,0 UV-I 0 W/m -3,5 C -3,1 C 3,2 km/h (1 Bft) 95,65 %
25.11.2020 07:15 -3,1 C 97 % 1024,0 hPa 0,0 l/m 1,6 km/h (1 Bft) W-SW 247 0 min 0,000 mm 0,0 UV-I 0 W/m -3,5 C -3,1 C 3,2 km/h (1 Bft) 100,00 %
25.11.2020 07:14 -3,1 C 97 % 1024,0 hPa 0,0 l/m 3,2 km/h (1 Bft) W-SW 247 0 min 0,000 mm 0,0 UV-I 0 W/m -3,5 C -3,1 C 4,8 km/h (1 Bft) 100,00 %
25.11.2020 07:13 -3,1 C 97 % 1024,1 hPa 0,0 l/m 3,2 km/h (1 Bft) W-SW 247 0 min 0,000 mm 0,0 UV-I 0 W/m -3,5 C -3,1 C 4,8 km/h (1 Bft) 95,65 %
25.11.2020 07:12 -3,1 C 97 % 1024,0 hPa 0,0 l/m 4,8 km/h (1 Bft) W-SW 247 0 min 0,000 mm 0,0 UV-I 0 W/m -3,5 C -5,0 C 4,8 km/h (1 Bft) 100,00 %
25.11.2020 07:11 -3,1 C 97 % 1024,0 hPa 0,0 l/m 3,2 km/h (1 Bft) W-SW 247 0 min 0,000 mm 0,0 UV-I 0 W/m -3,5 C -3,1 C 4,8 km/h (1 Bft) 100,00 %
25.11.2020 07:10 -3,1 C 97 % 1024,0 hPa 0,0 l/m 3,2 km/h (1 Bft) W-SW 247 0 min 0,000 mm 0,0 UV-I 0 W/m -3,5 C -3,1 C 4,8 km/h (1 Bft) 100,00 %
25.11.2020 07:09 -3,0 C 97 % 1024,0 hPa 0,0 l/m 4,8 km/h (1 Bft) W-SW 247 0 min 0,000 mm 0,0 UV-I 0 W/m -3,4 C -4,9 C 4,8 km/h (1 Bft) 91,30 %
25.11.2020 07:08 -3,0 C 97 % 1024,1 hPa 0,0 l/m 4,8 km/h (1 Bft) W-SW 247 0 min 0,000 mm 0,0 UV-I 0 W/m -3,4 C -4,9 C 4,8 km/h (1 Bft) 100,00 %
25.11.2020 07:07 -3,0 C 97 % 1024,1 hPa 0,0 l/m 4,8 km/h (1 Bft) W-SW 247 0 min 0,000 mm 0,0 UV-I 0 W/m -3,4 C -4,9 C 4,8 km/h (1 Bft) 95,65 %
25.11.2020 07:06 -3,0 C 97 % 1024,0 hPa 0,0 l/m 4,8 km/h (1 Bft) W-SW 247 0 min 0,000 mm 0,0 UV-I 0 W/m -3,4 C -4,9 C 4,8 km/h (1 Bft) 100,00 %
25.11.2020 07:05 -2,9 C 97 % 1024,1 hPa 0,0 l/m 4,8 km/h (1 Bft) W-SW 247 0 min 0,000 mm 0,0 UV-I 0 W/m -3,3 C -4,8 C 6,4 km/h (2 Bft) 100,00 %
25.11.2020 07:04 -2,9 C 97 % 1024,0 hPa 0,0 l/m 4,8 km/h (1 Bft) W-SW 247 0 min 0,000 mm 0,0 UV-I 0 W/m -3,3 C -4,8 C 4,8 km/h (1 Bft) 91,30 %
25.11.2020 07:03 -2,9 C 97 % 1024,0 hPa 0,0 l/m 4,8 km/h (1 Bft) W-SW 247 0 min 0,000 mm 0,0 UV-I 0 W/m -3,3 C -4,8 C 6,4 km/h (2 Bft) 100,00 %
25.11.2020 07:02 -2,9 C 97 % 1024,0 hPa 0,0 l/m 4,8 km/h (1 Bft) W-SW 247 0 min 0,000 mm 0,0 UV-I 0 W/m -3,3 C -4,8 C 6,4 km/h (2 Bft) 100,00 %
25.11.2020 07:01 -2,9 C 97 % 1024,0 hPa 0,0 l/m 4,8 km/h (1 Bft) W-SW 247 0 min 0,000 mm 0,0 UV-I 0 W/m -3,3 C -4,8 C 6,4 km/h (2 Bft) 100,00 %
25.11.2020 07:00 -2,8 C 97 % 1024,0 hPa 0,0 l/m 4,8 km/h (1 Bft) W-SW 247 0 min 0,000 mm 0,0 UV-I 0 W/m -3,2 C -4,7 C 6,4 km/h (2 Bft) 100,00 %
25.11.2020 06:59 -2,8 C 97 % 1023,9 hPa 0,0 l/m 4,8 km/h (1 Bft) W-SW 247 0 min 0,000 mm 0,0 UV-I 0 W/m -3,2 C -4,7 C 4,8 km/h (1 Bft) 95,65 %
25.11.2020 06:58 -2,8 C 97 % 1024,0 hPa 0,0 l/m 4,8 km/h (1 Bft) W-SW 247 0 min 0,000 mm 0,0 UV-I 0 W/m -3,2 C -4,7 C 6,4 km/h (2 Bft) 100,00 %
25.11.2020 06:57 -2,8 C 97 % 1024,1 hPa 0,0 l/m 4,8 km/h (1 Bft) W-SW 247 0 min 0,000 mm 0,0 UV-I 0 W/m -3,2 C -4,7 C 6,4 km/h (2 Bft) 100,00 %
25.11.2020 06:56 -2,8 C 98 % 1024,0 hPa 0,0 l/m 4,8 km/h (1 Bft) W-SW 247 0 min 0,000 mm 0,0 UV-I 0 W/m -3,1 C -4,7 C 4,8 km/h (1 Bft) 100,00 %
25.11.2020 06:55 -2,8 C 98 % 1023,9 hPa 0,0 l/m 4,8 km/h (1 Bft) W-SW 247 0 min 0,000 mm 0,0 UV-I 0 W/m -3,1 C -4,7 C 6,4 km/h (2 Bft) 100,00 %
25.11.2020 06:54 -2,8 C 98 % 1024,1 hPa 0,0 l/m 4,8 km/h (1 Bft) W-SW 247 0 min 0,000 mm 0,0 UV-I 0 W/m -3,1 C -4,7 C 6,4 km/h (2 Bft) 100,00 %
25.11.2020 06:53 -2,7 C 98 % 1023,9 hPa 0,0 l/m 3,2 km/h (1 Bft) W-SW 247 0 min 0,000 mm 0,0 UV-I 0 W/m -3,0 C -2,7 C 4,8 km/h (1 Bft) 100,00 %
25.11.2020 06:52 -2,7 C 98 % 1023,9 hPa 0,0 l/m 4,8 km/h (1 Bft) W-SW 247 0 min 0,000 mm 0,0 UV-I 0 W/m -3,0 C -4,5 C 4,8 km/h (1 Bft) 100,00 %
25.11.2020 06:51 -2,7 C 98 % 1023,9 hPa 0,0 l/m 4,8 km/h (1 Bft) W-SW 247 0 min 0,000 mm 0,0 UV-I 0 W/m -3,0 C -4,5 C 4,8 km/h (1 Bft) 100,00 %
25.11.2020 06:50 -2,7 C 98 % 1024,0 hPa 0,0 l/m 4,8 km/h (1 Bft) W-SW 247 0 min 0,000 mm 0,0 UV-I 0 W/m -3,0 C -4,5 C 6,4 km/h (2 Bft) 100,00 %
25.11.2020 06:49 -2,6 C 98 % 1024,0 hPa 0,0 l/m 4,8 km/h (1 Bft) W-SW 247 0 min 0,000 mm 0,0 UV-I 0 W/m -2,9 C -4,4 C 6,4 km/h (2 Bft) 95,65 %
25.11.2020 06:48 -2,6 C 98 % 1023,9 hPa 0,0 l/m 4,8 km/h (1 Bft) W-SW 247 0 min 0,000 mm 0,0 UV-I 0 W/m -2,9 C -4,4 C 6,4 km/h (2 Bft) 100,00 %
25.11.2020 06:47 -2,6 C 98 % 1023,9 hPa 0,0 l/m 4,8 km/h (1 Bft) SW 225 0 min 0,000 mm 0,0 UV-I 0 W/m -2,9 C -4,4 C 6,4 km/h (2 Bft) 100,00 %
25.11.2020 06:46 -2,6 C 98 % 1023,9 hPa 0,0 l/m 4,8 km/h (1 Bft) W-SW 247 0 min 0,000 mm 0,0 UV-I 0 W/m -2,9 C -4,4 C 6,4 km/h (2 Bft) 100,00 %
25.11.2020 06:45 -2,6 C 98 % 1024,0 hPa 0,0 l/m 4,8 km/h (1 Bft) W-SW 247 0 min 0,000 mm 0,0 UV-I 0 W/m -2,9 C -4,4 C 4,8 km/h (1 Bft) 100,00 %
25.11.2020 06:44 -2,5 C 98 % 1023,9 hPa 0,0 l/m 4,8 km/h (1 Bft) W-SW 247 0 min 0,000 mm 0,0 UV-I 0 W/m -2,8 C -4,3 C 6,4 km/h (2 Bft) 100,00 %
25.11.2020 06:43 -2,5 C 98 % 1023,9 hPa 0,0 l/m 3,2 km/h (1 Bft) W-SW 247 0 min 0,000 mm 0,0 UV-I 0 W/m -2,8 C -2,5 C 4,8 km/h (1 Bft) 100,00 %
25.11.2020 06:42 -2,4 C 98 % 1024,0 hPa 0,0 l/m 3,2 km/h (1 Bft) W-SW 247 0 min 0,000 mm 0,0 UV-I 0 W/m -2,7 C -2,4 C 4,8 km/h (1 Bft) 100,00 %
25.11.2020 06:41 -2,4 C 98 % 1023,9 hPa 0,0 l/m 3,2 km/h (1 Bft) SW 225 0 min 0,000 mm 0,0 UV-I 0 W/m -2,7 C -2,4 C 4,8 km/h (1 Bft) 100,00 %
25.11.2020 06:40 -2,4 C 98 % 1024,0 hPa 0,0 l/m 1,6 km/h (1 Bft) SW 225 0 min 0,000 mm 0,0 UV-I 0 W/m -2,7 C -2,4 C 4,8 km/h (1 Bft) 100,00 %
25.11.2020 06:39 -2,4 C 98 % 1024,0 hPa 0,0 l/m 3,2 km/h (1 Bft) SW 225 0 min 0,000 mm 0,0 UV-I 0 W/m -2,7 C -2,4 C 3,2 km/h (1 Bft) 100,00 %
25.11.2020 06:38 -2,4 C 98 % 1024,0 hPa 0,0 l/m 1,6 km/h (1 Bft) SW 225 0 min 0,000 mm 0,0 UV-I 0 W/m -2,7 C -2,4 C 3,2 km/h (1 Bft) 100,00 %
25.11.2020 06:37 -2,4 C 98 % 1023,9 hPa 0,0 l/m 1,6 km/h (1 Bft) SW 225 0 min 0,000 mm 0,0 UV-I 0 W/m -2,7 C -2,4 C 3,2 km/h (1 Bft) 91,30 %
25.11.2020 06:36 -2,4 C 98 % 1024,0 hPa 0,0 l/m 3,2 km/h (1 Bft) SW 225 0 min 0,000 mm 0,0 UV-I 0 W/m -2,7 C -2,4 C 4,8 km/h (1 Bft) 100,00 %
25.11.2020 06:35 -2,4 C 98 % 1024,0 hPa 0,0 l/m 3,2 km/h (1 Bft) SW 225 0 min 0,000 mm 0,0 UV-I 0 W/m -2,7 C -2,4 C 3,2 km/h (1 Bft) 100,00 %
25.11.2020 06:34 -2,4 C 98 % 1024,0 hPa 0,0 l/m 1,6 km/h (1 Bft) W-SW 247 0 min 0,000 mm 0,0 UV-I 0 W/m -2,7 C -2,4 C 3,2 km/h (1 Bft) 100,00 %
25.11.2020 06:33 -2,4 C 98 % 1024,0 hPa 0,0 l/m 1,6 km/h (1 Bft) W-SW 247 0 min 0,000 mm 0,0 UV-I 0 W/m -2,7 C -2,4 C 3,2 km/h (1 Bft) 100,00 %
25.11.2020 06:32 -2,4 C 98 % 1023,9 hPa 0,0 l/m 3,2 km/h (1 Bft) W-SW 247 0 min 0,000 mm 0,0 UV-I 0 W/m -2,7 C -2,4 C 3,2 km/h (1 Bft) 95,65 %
25.11.2020 06:31 -2,4 C 98 % 1023,9 hPa 0,0 l/m 3,2 km/h (1 Bft) W-SW 247 0 min 0,000 mm 0,0 UV-I 0 W/m -2,7 C -2,4 C 4,8 km/h (1 Bft) 100,00 %
25.11.2020 06:30 -2,3 C 98 % 1023,9 hPa 0,0 l/m 3,2 km/h (1 Bft) W-SW 247 0 min 0,000 mm 0,0 UV-I 0 W/m -2,6 C -2,3 C 4,8 km/h (1 Bft) 95,65 %
25.11.2020 06:29 -2,3 C 98 % 1023,9 hPa 0,0 l/m 4,8 km/h (1 Bft) W-SW 247 0 min 0,000 mm 0,0 UV-I 0 W/m -2,6 C -4,1 C 4,8 km/h (1 Bft) 95,65 %
25.11.2020 06:28 -2,3 C 98 % 1023,8 hPa 0,0 l/m 4,8 km/h (1 Bft) W 270 0 min 0,000 mm 0,0 UV-I 0 W/m -2,6 C -4,1 C 6,4 km/h (2 Bft) 100,00 %
25.11.2020 06:27 -2,3 C 98 % 1023,9 hPa 0,0 l/m 4,8 km/h (1 Bft) W-SW 247 0 min 0,000 mm 0,0 UV-I 0 W/m -2,6 C -4,1 C 6,4 km/h (2 Bft) 95,65 %
25.11.2020 06:26 -2,3 C 98 % 1023,9 hPa 0,0 l/m 6,4 km/h (2 Bft) W-SW 247 0 min 0,000 mm 0,0 UV-I 0 W/m -2,6 C -4,8 C 8,0 km/h (2 Bft) 100,00 %
25.11.2020 06:25 -2,3 C 98 % 1023,9 hPa 0,0 l/m 4,8 km/h (1 Bft) W-SW 247 0 min 0,000 mm 0,0 UV-I 0 W/m -2,6 C -4,1 C 6,4 km/h (2 Bft) 100,00 %
25.11.2020 06:24 -2,3 C 98 % 1023,9 hPa 0,0 l/m 4,8 km/h (1 Bft) W-SW 247 0 min 0,000 mm 0,0 UV-I 0 W/m -2,6 C -4,1 C 8,0 km/h (2 Bft) 100,00 %
25.11.2020 06:23 -2,3 C 98 % 1023,9 hPa 0,0 l/m 4,8 km/h (1 Bft) W-SW 247 0 min 0,000 mm 0,0 UV-I 0 W/m -2,6 C -4,1 C 8,0 km/h (2 Bft) 95,65 %
25.11.2020 06:22 -2,3 C 98 % 1023,8 hPa 0,0 l/m 6,4 km/h (2 Bft) W-SW 247 0 min 0,000 mm 0,0 UV-I 0 W/m -2,6 C -4,8 C 6,4 km/h (2 Bft) 95,65 %
25.11.2020 06:21 -2,3 C 98 % 1023,9 hPa 0,0 l/m 6,4 km/h (2 Bft) W-SW 247 0 min 0,000 mm 0,0 UV-I 0 W/m -2,6 C -4,8 C 6,4 km/h (2 Bft) 100,00 %
25.11.2020 06:20 -2,3 C 98 % 1023,9 hPa 0,0 l/m 4,8 km/h (1 Bft) W-SW 247 0 min 0,000 mm 0,0 UV-I 0 W/m -2,6 C -4,1 C 6,4 km/h (2 Bft) 100,00 %
25.11.2020 06:19 -2,3 C 98 % 1023,9 hPa 0,0 l/m 6,4 km/h (2 Bft) SW 225 0 min 0,000 mm 0,0 UV-I 0 W/m -2,6 C -4,8 C 6,4 km/h (2 Bft) 100,00 %
25.11.2020 06:18 -2,3 C 98 % 1023,9 hPa 0,0 l/m 4,8 km/h (1 Bft) W-SW 247 0 min 0,000 mm 0,0 UV-I 0 W/m -2,6 C -4,1 C 6,4 km/h (2 Bft) 95,65 %
25.11.2020 06:17 -2,3 C 98 % 1023,9 hPa 0,0 l/m 3,2 km/h (1 Bft) W-SW 247 0 min 0,000 mm 0,0 UV-I 0 W/m -2,6 C -2,3 C 4,8 km/h (1 Bft) 100,00 %
25.11.2020 06:16 -2,3 C 98 % 1023,9 hPa 0,0 l/m 4,8 km/h (1 Bft) W 270 0 min 0,000 mm 0,0 UV-I 0 W/m -2,6 C -4,1 C 6,4 km/h (2 Bft) 100,00 %
25.11.2020 06:15 -2,3 C 98 % 1023,9 hPa 0,0 l/m 3,2 km/h (1 Bft) W-SW 247 0 min 0,000 mm 0,0 UV-I 0 W/m -2,6 C -2,3 C 4,8 km/h (1 Bft) 100,00 %
25.11.2020 06:14 -2,3 C 98 % 1023,8 hPa 0,0 l/m 1,6 km/h (1 Bft) W-SW 247 0 min 0,000 mm 0,0 UV-I 0 W/m -2,6 C -2,3 C 3,2 km/h (1 Bft) 100,00 %
25.11.2020 06:13 -2,2 C 98 % 1023,7 hPa 0,0 l/m 3,2 km/h (1 Bft) W-SW 247 0 min 0,000 mm 0,0 UV-I 0 W/m -2,5 C -2,2 C 4,8 km/h (1 Bft) 100,00 %
25.11.2020 06:12 -2,3 C 98 % 1023,9 hPa 0,0 l/m 3,2 km/h (1 Bft) W-SW 247 0 min 0,000 mm 0,0 UV-I 0 W/m -2,6 C -2,3 C 4,8 km/h (1 Bft) 95,65 %
25.11.2020 06:11 -2,3 C 98 % 1023,8 hPa 0,0 l/m 0,0 km/h (0 Bft) W-SW 247 0 min 0,000 mm 0,0 UV-I 0 W/m -2,6 C -2,3 C 3,2 km/h (1 Bft) 100,00 %
25.11.2020 06:10 -2,2 C 98 % 1023,8 hPa 0,0 l/m 0,0 km/h (0 Bft) W-SW 247 0 min 0,000 mm 0,0 UV-I 0 W/m -2,5 C -2,2 C 1,6 km/h (1 Bft) 100,00 %
25.11.2020 06:09 -2,3 C 98 % 1023,8 hPa 0,0 l/m 0,0 km/h (0 Bft) N 0 0 min 0,000 mm 0,0 UV-I 0 W/m -2,6 C -2,3 C 0,0 km/h (0 Bft) 100,00 %
25.11.2020 06:08 -2,2 C 98 % 1023,8 hPa 0,0 l/m 1,6 km/h (1 Bft) W-SW 247 0 min 0,000 mm 0,0 UV-I 0 W/m -2,5 C -2,2 C 1,6 km/h (1 Bft) 100,00 %
25.11.2020 06:07 -2,2 C 98 % 1023,8 hPa 0,0 l/m 1,6 km/h (1 Bft) W-SW 247 0 min 0,000 mm 0,0 UV-I 0 W/m -2,5 C -2,2 C 1,6 km/h (1 Bft) 95,65 %
25.11.2020 06:06 -2,2 C 98 % 1023,8 hPa 0,0 l/m 1,6 km/h (1 Bft) W-SW 247 0 min 0,000 mm 0,0 UV-I 0 W/m -2,5 C -2,2 C 3,2 km/h (1 Bft) 100,00 %
25.11.2020 06:05 -2,2 C 98 % 1023,8 hPa 0,0 l/m 3,2 km/h (1 Bft) W-SW 247 0 min 0,000 mm 0,0 UV-I 0 W/m -2,5 C -2,2 C 4,8 km/h (1 Bft) 100,00 %
25.11.2020 06:04 -2,2 C 98 % 1023,8 hPa 0,0 l/m 1,6 km/h (1 Bft) W-SW 247 0 min 0,000 mm 0,0 UV-I 0 W/m -2,5 C -2,2 C 3,2 km/h (1 Bft) 100,00 %
25.11.2020 06:03 -2,2 C 98 % 1023,9 hPa 0,0 l/m 1,6 km/h (1 Bft) W-SW 247 0 min 0,000 mm 0,0 UV-I 0 W/m -2,5 C -2,2 C 3,2 km/h (1 Bft) 95,65 %
25.11.2020 06:02 -2,2 C 98 % 1023,8 hPa 0,0 l/m 1,6 km/h (1 Bft) W-SW 247 0 min 0,000 mm 0,0 UV-I 0 W/m -2,5 C -2,2 C 3,2 km/h (1 Bft) 100,00 %
25.11.2020 06:01 -2,2 C 98 % 1023,8 hPa 0,0 l/m 0,0 km/h (0 Bft) N 0 0 min 0,000 mm 0,0 UV-I 0 W/m -2,5 C -2,2 C 0,0 km/h (0 Bft) 95,65 %
25.11.2020 06:00 -2,2 C 98 % 1023,8 hPa 0,0 l/m 1,6 km/h (1 Bft) W-SW 247 0 min 0,000 mm 0,0 UV-I 0 W/m -2,5 C -2,2 C 3,2 km/h (1 Bft) 100,00 %
25.11.2020 05:59 -2,2 C 98 % 1023,8 hPa 0,0 l/m 1,6 km/h (1 Bft) W-SW 247 0 min 0,000 mm 0,0 UV-I 0 W/m -2,5 C -2,2 C 3,2 km/h (1 Bft) 100,00 %
25.11.2020 05:58 -2,2 C 98 % 1023,8 hPa 0,0 l/m 4,8 km/h (1 Bft) SW 225 0 min 0,000 mm 0,0 UV-I 0 W/m -2,5 C -4,0 C 4,8 km/h (1 Bft) 95,65 %
25.11.2020 05:57 -2,2 C 98 % 1023,8 hPa 0,0 l/m 3,2 km/h (1 Bft) W-SW 247 0 min 0,000 mm 0,0 UV-I 0 W/m -2,5 C -2,2 C 6,4 km/h (2 Bft) 100,00 %
25.11.2020 05:56 -2,2 C 98 % 1023,8 hPa 0,0 l/m 4,8 km/h (1 Bft) SW 225 0 min 0,000 mm 0,0 UV-I 0 W/m -2,5 C -4,0 C 4,8 km/h (1 Bft) 95,65 %
25.11.2020 05:55 -2,2 C 98 % 1023,8 hPa 0,0 l/m 4,8 km/h (1 Bft) SW 225 0 min 0,000 mm 0,0 UV-I 0 W/m -2,5 C -4,0 C 6,4 km/h (2 Bft) 100,00 %
25.11.2020 05:54 -2,1 C 98 % 1023,8 hPa 0,0 l/m 4,8 km/h (1 Bft) W-SW 247 0 min 0,000 mm 0,0 UV-I 0 W/m -2,4 C -3,9 C 6,4 km/h (2 Bft) 100,00 %
25.11.2020 05:53 -2,1 C 98 % 1023,8 hPa 0,0 l/m 6,4 km/h (2 Bft) W-SW 247 0 min 0,000 mm 0,0 UV-I 0 W/m -2,4 C -4,6 C 8,0 km/h (2 Bft) 95,65 %
25.11.2020 05:52 -2,1 C 98 % 1023,8 hPa 0,0 l/m 4,8 km/h (1 Bft) W-SW 247 0 min 0,000 mm 0,0 UV-I 0 W/m -2,4 C -3,9 C 6,4 km/h (2 Bft) 100,00 %
25.11.2020 05:51 -2,1 C 98 % 1023,8 hPa 0,0 l/m 6,4 km/h (2 Bft) W-SW 247 0 min 0,000 mm 0,0 UV-I 0 W/m -2,4 C -4,6 C 6,4 km/h (2 Bft) 100,00 %
25.11.2020 05:50 -2,1 C 98 % 1023,7 hPa 0,0 l/m 4,8 km/h (1 Bft) W-SW 247 0 min 0,000 mm 0,0 UV-I 0 W/m -2,4 C -3,9 C 6,4 km/h (2 Bft) 100,00 %
25.11.2020 05:49 -2,2 C 98 % 1023,8 hPa 0,0 l/m 4,8 km/h (1 Bft) W-SW 247 0 min 0,000 mm 0,0 UV-I 0 W/m -2,5 C -4,0 C 6,4 km/h (2 Bft) 100,00 %
25.11.2020 05:48 -2,1 C 98 % 1023,9 hPa 0,0 l/m 4,8 km/h (1 Bft) W-SW 247 0 min 0,000 mm 0,0 UV-I 0 W/m -2,4 C -3,9 C 6,4 km/h (2 Bft) 100,00 %
25.11.2020 05:47 -2,2 C 98 % 1023,8 hPa 0,0 l/m 4,8 km/h (1 Bft) W-SW 247 0 min 0,000 mm 0,0 UV-I 0 W/m -2,5 C -4,0 C 6,4 km/h (2 Bft) 100,00 %
25.11.2020 05:46 -2,2 C 98 % 1023,8 hPa 0,0 l/m 4,8 km/h (1 Bft) W-SW 247 0 min 0,000 mm 0,0 UV-I 0 W/m -2,5 C -4,0 C 4,8 km/h (1 Bft) 95,65 %
25.11.2020 05:45 -2,2 C 98 % 1023,9 hPa 0,0 l/m 4,8 km/h (1 Bft) W-SW 247 0 min 0,000 mm 0,0 UV-I 0 W/m -2,5 C -4,0 C 6,4 km/h (2 Bft) 100,00 %
25.11.2020 05:44 -2,1 C 98 % 1023,9 hPa 0,0 l/m 4,8 km/h (1 Bft) W 270 0 min 0,000 mm 0,0 UV-I 0 W/m -2,4 C -3,9 C 4,8 km/h (1 Bft) 91,30 %
25.11.2020 05:43 -2,1 C 98 % 1023,8 hPa 0,0 l/m 4,8 km/h (1 Bft) W-SW 247 0 min 0,000 mm 0,0 UV-I 0 W/m -2,4 C -3,9 C 6,4 km/h (2 Bft) 100,00 %
25.11.2020 05:42 -2,1 C 98 % 1023,9 hPa 0,0 l/m 6,4 km/h (2 Bft) W-SW 247 0 min 0,000 mm 0,0 UV-I 0 W/m -2,4 C -4,6 C 8,0 km/h (2 Bft) 100,00 %
25.11.2020 05:41 -2,1 C 98 % 1023,9 hPa 0,0 l/m 6,4 km/h (2 Bft) W 270 0 min 0,000 mm 0,0 UV-I 0 W/m -2,4 C -4,6 C 6,4 km/h (2 Bft) 100,00 %
25.11.2020 05:40 -2,1 C 98 % 1023,9 hPa 0,0 l/m 4,8 km/h (1 Bft) W-SW 247 0 min 0,000 mm 0,0 UV-I 0 W/m -2,4 C -3,9 C 6,4 km/h (2 Bft) 100,00 %
25.11.2020 05:39 -2,1 C 98 % 1023,9 hPa 0,0 l/m 3,2 km/h (1 Bft) W 270 0 min 0,000 mm 0,0 UV-I 0 W/m -2,4 C -2,1 C 4,8 km/h (1 Bft) 100,00 %
25.11.2020 05:38 -2,1 C 98 % 1023,9 hPa 0,0 l/m 4,8 km/h (1 Bft) W-SW 247 0 min 0,000 mm 0,0 UV-I 0 W/m -2,4 C -3,9 C 6,4 km/h (2 Bft) 100,00 %
25.11.2020 05:37 -2,1 C 98 % 1023,9 hPa 0,0 l/m 3,2 km/h (1 Bft) W-SW 247 0 min 0,000 mm 0,0 UV-I 0 W/m -2,4 C -2,1 C 4,8 km/h (1 Bft) 100,00 %
25.11.2020 05:36 -2,1 C 98 % 1023,9 hPa 0,0 l/m 4,8 km/h (1 Bft) SW 225 0 min 0,000 mm 0,0 UV-I 0 W/m -2,4 C -3,9 C 6,4 km/h (2 Bft) 100,00 %
25.11.2020 05:35 -2,1 C 98 % 1023,9 hPa 0,0 l/m 3,2 km/h (1 Bft) W-SW 247 0 min 0,000 mm 0,0 UV-I 0 W/m -2,4 C -2,1 C 4,8 km/h (1 Bft) 95,65 %
25.11.2020 05:34 -2,1 C 98 % 1023,9 hPa 0,0 l/m 4,8 km/h (1 Bft) W-SW 247 0 min 0,000 mm 0,0 UV-I 0 W/m -2,4 C -3,9 C 4,8 km/h (1 Bft) 100,00 %
25.11.2020 05:33 -2,1 C 98 % 1023,9 hPa 0,0 l/m 4,8 km/h (1 Bft) W-SW 247 0 min 0,000 mm 0,0 UV-I 0 W/m -2,4 C -3,9 C 6,4 km/h (2 Bft) 100,00 %
25.11.2020 05:32 -2,1 C 98 % 1023,9 hPa 0,0 l/m 6,4 km/h (2 Bft) W-SW 247 0 min 0,000 mm 0,0 UV-I 0 W/m -2,4 C -4,6 C 8,0 km/h (2 Bft) 100,00 %
25.11.2020 05:31 -2,2 C 98 % 1024,0 hPa 0,0 l/m 4,8 km/h (1 Bft) W 270 0 min 0,000 mm 0,0 UV-I 0 W/m -2,5 C -4,0 C 6,4 km/h (2 Bft) 100,00 %
25.11.2020 05:30 -2,1 C 98 % 1023,9 hPa 0,0 l/m 4,8 km/h (1 Bft) W-SW 247 0 min 0,000 mm 0,0 UV-I 0 W/m -2,4 C -3,9 C 6,4 km/h (2 Bft) 100,00 %
25.11.2020 05:29 -2,1 C 98 % 1024,0 hPa 0,0 l/m 4,8 km/h (1 Bft) W-SW 247 0 min 0,000 mm 0,0 UV-I 0 W/m -2,4 C -3,9 C 6,4 km/h (2 Bft) 100,00 %
25.11.2020 05:28 -2,2 C 98 % 1024,0 hPa 0,0 l/m 4,8 km/h (1 Bft) W 270 0 min 0,000 mm 0,0 UV-I 0 W/m -2,5 C -4,0 C 4,8 km/h (1 Bft) 95,65 %
25.11.2020 05:27 -2,2 C 98 % 1024,0 hPa 0,0 l/m 4,8 km/h (1 Bft) W 270 0 min 0,000 mm 0,0 UV-I 0 W/m -2,5 C -4,0 C 6,4 km/h (2 Bft) 95,65 %
25.11.2020 05:26 -2,1 C 98 % 1023,9 hPa 0,0 l/m 6,4 km/h (2 Bft) W-SW 247 0 min 0,000 mm 0,0 UV-I 0 W/m -2,4 C -4,6 C 8,0 km/h (2 Bft) 100,00 %
25.11.2020 05:25 -2,1 C 98 % 1023,9 hPa 0,0 l/m 8,0 km/h (2 Bft) W-SW 247 0 min 0,000 mm 0,0 UV-I 0 W/m -2,4 C -5,2 C 9,7 km/h (2 Bft) 100,00 %
25.11.2020 05:24 -2,1 C 98 % 1023,9 hPa 0,0 l/m 6,4 km/h (2 Bft) W-SW 247 0 min 0,000 mm 0,0 UV-I 0 W/m -2,4 C -4,6 C 8,0 km/h (2 Bft) 100,00 %
25.11.2020 05:23 -2,1 C 98 % 1023,9 hPa 0,0 l/m 4,8 km/h (1 Bft) W-SW 247 0 min 0,000 mm 0,0 UV-I 0 W/m -2,4 C -3,9 C 6,4 km/h (2 Bft) 100,00 %
25.11.2020 05:22 -2,1 C 98 % 1024,0 hPa 0,0 l/m 4,8 km/h (1 Bft) SW 225 0 min 0,000 mm 0,0 UV-I 0 W/m -2,4 C -3,9 C 6,4 km/h (2 Bft) 100,00 %
25.11.2020 05:21 -2,1 C 98 % 1024,0 hPa 0,0 l/m 6,4 km/h (2 Bft) SW 225 0 min 0,000 mm 0,0 UV-I 0 W/m -2,4 C -4,6 C 8,0 km/h (2 Bft) 100,00 %
25.11.2020 05:20 -2,1 C 98 % 1023,9 hPa 0,0 l/m 6,4 km/h (2 Bft) W-SW 247 0 min 0,000 mm 0,0 UV-I 0 W/m -2,4 C -4,6 C 8,0 km/h (2 Bft) 100,00 %
25.11.2020 05:19 -2,1 C 98 % 1023,9 hPa 0,0 l/m 6,4 km/h (2 Bft) W-SW 247 0 min 0,000 mm 0,0 UV-I 0 W/m -2,4 C -4,6 C 8,0 km/h (2 Bft) 100,00 %
25.11.2020 05:18 -2,1 C 98 % 1023,9 hPa 0,0 l/m 6,4 km/h (2 Bft) W-SW 247 0 min 0,000 mm 0,0 UV-I 0 W/m -2,4 C -4,6 C 6,4 km/h (2 Bft) 95,65 %
25.11.2020 05:17 -2,1 C 98 % 1024,0 hPa 0,0 l/m 6,4 km/h (2 Bft) W-SW 247 0 min 0,000 mm 0,0 UV-I 0 W/m -2,4 C -4,6 C 8,0 km/h (2 Bft) 100,00 %
25.11.2020 05:16 -2,1 C 98 % 1023,9 hPa 0,0 l/m 6,4 km/h (2 Bft) SW 225 0 min 0,000 mm 0,0 UV-I 0 W/m -2,4 C -4,6 C 8,0 km/h (2 Bft) 100,00 %
25.11.2020 05:15 -2,1 C 98 % 1024,0 hPa 0,0 l/m 4,8 km/h (1 Bft) W-SW 247 0 min 0,000 mm 0,0 UV-I 0 W/m -2,4 C -3,9 C 8,0 km/h (2 Bft) 100,00 %
25.11.2020 05:14 -2,1 C 98 % 1023,9 hPa 0,0 l/m 4,8 km/h (1 Bft) W 270 0 min 0,000 mm 0,0 UV-I 0 W/m -2,4 C -3,9 C 4,8 km/h (1 Bft) 100,00 %
25.11.2020 05:13 -2,2 C 98 % 1023,9 hPa 0,0 l/m 4,8 km/h (1 Bft) W 270 0 min 0,000 mm 0,0 UV-I 0 W/m -2,5 C -4,0 C 4,8 km/h (1 Bft) 100,00 %
25.11.2020 05:12 -2,1 C 98 % 1023,9 hPa 0,0 l/m 4,8 km/h (1 Bft) W-SW 247 0 min 0,000 mm 0,0 UV-I 0 W/m -2,4 C -3,9 C 6,4 km/h (2 Bft) 100,00 %
25.11.2020 05:11 -2,2 C 98 % 1023,9 hPa 0,0 l/m 4,8 km/h (1 Bft) W-SW 247 0 min 0,000 mm 0,0 UV-I 0 W/m -2,5 C -4,0 C 4,8 km/h (1 Bft) 100,00 %
25.11.2020 05:10 -2,2 C 98 % 1024,0 hPa 0,0 l/m 4,8 km/h (1 Bft) W-SW 247 0 min 0,000 mm 0,0 UV-I 0 W/m -2,5 C -4,0 C 6,4 km/h (2 Bft) 95,65 %
25.11.2020 05:09 -2,2 C 98 % 1023,8 hPa 0,0 l/m 4,8 km/h (1 Bft) W-SW 247 0 min 0,000 mm 0,0 UV-I 0 W/m -2,5 C -4,0 C 4,8 km/h (1 Bft) 100,00 %
25.11.2020 05:08 -2,2 C 98 % 1023,9 hPa 0,0 l/m 3,2 km/h (1 Bft) W-SW 247 0 min 0,000 mm 0,0 UV-I 0 W/m -2,5 C -2,2 C 4,8 km/h (1 Bft) 100,00 %
25.11.2020 05:07 -2,2 C 98 % 1023,9 hPa 0,0 l/m 4,8 km/h (1 Bft) SW 225 0 min 0,000 mm 0,0 UV-I 0 W/m -2,5 C -4,0 C 4,8 km/h (1 Bft) 95,65 %
25.11.2020 05:06 -2,2 C 98 % 1023,9 hPa 0,0 l/m 4,8 km/h (1 Bft) SW 225 0 min 0,000 mm 0,0 UV-I 0 W/m -2,5 C -4,0 C 6,4 km/h (2 Bft) 100,00 %
25.11.2020 05:05 -2,1 C 98 % 1023,9 hPa 0,0 l/m 4,8 km/h (1 Bft) W-SW 247 0 min 0,000 mm 0,0 UV-I 0 W/m -2,4 C -3,9 C 6,4 km/h (2 Bft) 100,00 %
25.11.2020 05:04 -2,2 C 98 % 1023,9 hPa 0,0 l/m 4,8 km/h (1 Bft) W-SW 247 0 min 0,000 mm 0,0 UV-I 0 W/m -2,5 C -4,0 C 6,4 km/h (2 Bft) 100,00 %
25.11.2020 05:03 -2,2 C 98 % 1024,0 hPa 0,0 l/m 3,2 km/h (1 Bft) W 270 0 min 0,000 mm 0,0 UV-I 0 W/m -2,5 C -2,2 C 4,8 km/h (1 Bft) 95,65 %
25.11.2020 05:02 -2,2 C 98 % 1023,9 hPa 0,0 l/m 1,6 km/h (1 Bft) W 270 0 min 0,000 mm 0,0 UV-I 0 W/m -2,5 C -2,2 C 3,2 km/h (1 Bft) 100,00 %
25.11.2020 05:01 -2,2 C 98 % 1023,9 hPa 0,0 l/m 1,6 km/h (1 Bft) W 270 0 min 0,000 mm 0,0 UV-I 0 W/m -2,5 C -2,2 C 3,2 km/h (1 Bft) 100,00 %
25.11.2020 05:00 -2,2 C 98 % 1024,0 hPa 0,0 l/m 3,2 km/h (1 Bft) W-SW 247 0 min 0,000 mm 0,0 UV-I 0 W/m -2,5 C -2,2 C 6,4 km/h (2 Bft) 95,65 %
25.11.2020 04:59 -2,2 C 98 % 1023,9 hPa 0,0 l/m 4,8 km/h (1 Bft) SW 225 0 min 0,000 mm 0,0 UV-I 0 W/m -2,5 C -4,0 C 6,4 km/h (2 Bft) 100,00 %
25.11.2020 04:58 -2,2 C 98 % 1023,9 hPa 0,0 l/m 6,4 km/h (2 Bft) W-SW 247 0 min 0,000 mm 0,0 UV-I 0 W/m -2,5 C -4,7 C 8,0 km/h (2 Bft) 91,30 %
25.11.2020 04:57 -2,2 C 98 % 1023,9 hPa 0,0 l/m 6,4 km/h (2 Bft) SW 225 0 min 0,000 mm 0,0 UV-I 0 W/m -2,5 C -4,7 C 6,4 km/h (2 Bft) 100,00 %
25.11.2020 04:56 -2,2 C 98 % 1023,9 hPa 0,0 l/m 4,8 km/h (1 Bft) SW 225 0 min 0,000 mm 0,0 UV-I 0 W/m -2,5 C -4,0 C 6,4 km/h (2 Bft) 100,00 %
25.11.2020 04:55 -2,2 C 98 % 1023,9 hPa 0,0 l/m 4,8 km/h (1 Bft) W-SW 247 0 min 0,000 mm 0,0 UV-I 0 W/m -2,5 C -4,0 C 6,4 km/h (2 Bft) 100,00 %
25.11.2020 04:54 -2,2 C 98 % 1023,9 hPa 0,0 l/m 4,8 km/h (1 Bft) W-SW 247 0 min 0,000 mm 0,0 UV-I 0 W/m -2,5 C -4,0 C 6,4 km/h (2 Bft) 100,00 %
25.11.2020 04:53 -2,2 C 98 % 1023,9 hPa 0,0 l/m 4,8 km/h (1 Bft) SW 225 0 min 0,000 mm 0,0 UV-I 0 W/m -2,5 C -4,0 C 6,4 km/h (2 Bft) 100,00 %
25.11.2020 04:52 -2,2 C 98 % 1023,9 hPa 0,0 l/m 4,8 km/h (1 Bft) W-SW 247 0 min 0,000 mm 0,0 UV-I 0 W/m -2,5 C -4,0 C 6,4 km/h (2 Bft) 100,00 %
25.11.2020 04:51 -2,2 C 98 % 1023,8 hPa 0,0 l/m 3,2 km/h (1 Bft) SW 225 0 min 0,000 mm 0,0 UV-I 0 W/m -2,5 C -2,2 C 3,2 km/h (1 Bft) 95,65 %
25.11.2020 04:50 -2,2 C 98 % 1023,9 hPa 0,0 l/m 3,2 km/h (1 Bft) SW 225 0 min 0,000 mm 0,0 UV-I 0 W/m -2,5 C -2,2 C 6,4 km/h (2 Bft) 100,00 %
25.11.2020 04:49 -2,2 C 98 % 1023,9 hPa 0,0 l/m 4,8 km/h (1 Bft) SW 225 0 min 0,000 mm 0,0 UV-I 0 W/m -2,5 C -4,0 C 4,8 km/h (1 Bft) 100,00 %
25.11.2020 04:48 -2,2 C 98 % 1023,8 hPa 0,0 l/m 6,4 km/h (2 Bft) W-SW 247 0 min 0,000 mm 0,0 UV-I 0 W/m -2,5 C -4,7 C 8,0 km/h (2 Bft) 100,00 %
25.11.2020 04:47 -2,3 C 98 % 1023,8 hPa 0,0 l/m 4,8 km/h (1 Bft) W 270 0 min 0,000 mm 0,0 UV-I 0 W/m -2,6 C -4,1 C 6,4 km/h (2 Bft) 100,00 %
25.11.2020 04:46 -2,3 C 98 % 1023,9 hPa 0,0 l/m 3,2 km/h (1 Bft) W-SW 247 0 min 0,000 mm 0,0 UV-I 0 W/m -2,6 C -2,3 C 6,4 km/h (2 Bft) 95,65 %
25.11.2020 04:45 -2,3 C 98 % 1023,8 hPa 0,0 l/m 3,2 km/h (1 Bft) W-SW 247 0 min 0,000 mm 0,0 UV-I 0 W/m -2,6 C -2,3 C 4,8 km/h (1 Bft) 100,00 %
25.11.2020 04:44 -2,3 C 98 % 1023,7 hPa 0,0 l/m 3,2 km/h (1 Bft) W 270 0 min 0,000 mm 0,0 UV-I 0 W/m -2,6 C -2,3 C 4,8 km/h (1 Bft) 100,00 %
25.11.2020 04:43 -2,3 C 98 % 1023,9 hPa 0,0 l/m 3,2 km/h (1 Bft) W 270 0 min 0,000 mm 0,0 UV-I 0 W/m -2,6 C -2,3 C 4,8 km/h (1 Bft) 100,00 %
25.11.2020 04:42 -2,3 C 98 % 1023,8 hPa 0,0 l/m 3,2 km/h (1 Bft) W 270 0 min 0,000 mm 0,0 UV-I 0 W/m -2,6 C -2,3 C 4,8 km/h (1 Bft) 95,65 %
25.11.2020 04:41 -2,3 C 98 % 1023,8 hPa 0,0 l/m 6,4 km/h (2 Bft) W-SW 247 0 min 0,000 mm 0,0 UV-I 0 W/m -2,6 C -4,8 C 8,0 km/h (2 Bft) 95,65 %
25.11.2020 04:40 -2,3 C 98 % 1023,8 hPa 0,0 l/m 4,8 km/h (1 Bft) W-SW 247 0 min 0,000 mm 0,0 UV-I 0 W/m -2,6 C -4,1 C 6,4 km/h (2 Bft) 95,65 %
25.11.2020 04:39 -2,3 C 98 % 1023,7 hPa 0,0 l/m 3,2 km/h (1 Bft) W-SW 247 0 min 0,000 mm 0,0 UV-I 0 W/m -2,6 C -2,3 C 4,8 km/h (1 Bft) 100,00 %
25.11.2020 04:38 -2,4 C 98 % 1023,8 hPa 0,0 l/m 3,2 km/h (1 Bft) W-SW 247 0 min 0,000 mm 0,0 UV-I 0 W/m -2,7 C -2,4 C 4,8 km/h (1 Bft) 100,00 %
25.11.2020 04:37 -2,3 C 98 % 1023,8 hPa 0,0 l/m 3,2 km/h (1 Bft) SW 225 0 min 0,000 mm 0,0 UV-I 0 W/m -2,6 C -2,3 C 4,8 km/h (1 Bft) 100,00 %
25.11.2020 04:36 -2,3 C 98 % 1023,8 hPa 0,0 l/m 4,8 km/h (1 Bft) SW 225 0 min 0,000 mm 0,0 UV-I 0 W/m -2,6 C -4,1 C 4,8 km/h (1 Bft) 91,30 %
25.11.2020 04:35 -2,4 C 98 % 1023,8 hPa 0,0 l/m 3,2 km/h (1 Bft) W-SW 247 0 min 0,000 mm 0,0 UV-I 0 W/m -2,7 C -2,4 C 4,8 km/h (1 Bft) 100,00 %
25.11.2020 04:34 -2,4 C 98 % 1023,8 hPa 0,0 l/m 3,2 km/h (1 Bft) SW 225 0 min 0,000 mm 0,0 UV-I 0 W/m -2,7 C -2,4 C 4,8 km/h (1 Bft) 100,00 %
25.11.2020 04:33 -2,4 C 98 % 1023,8 hPa 0,0 l/m 3,2 km/h (1 Bft) SW 225 0 min 0,000 mm 0,0 UV-I 0 W/m -2,7 C -2,4 C 3,2 km/h (1 Bft) 100,00 %
25.11.2020 04:32 -2,4 C 98 % 1023,8 hPa 0,0 l/m 3,2 km/h (1 Bft) SW 225 0 min 0,000 mm 0,0 UV-I 0 W/m -2,7 C -2,4 C 4,8 km/h (1 Bft) 95,65 %
25.11.2020 04:31 -2,4 C 98 % 1023,8 hPa 0,0 l/m 3,2 km/h (1 Bft) W-SW 247 0 min 0,000 mm 0,0 UV-I 0 W/m -2,7 C -2,4 C 4,8 km/h (1 Bft) 95,65 %
25.11.2020 04:30 -2,4 C 98 % 1023,9 hPa 0,0 l/m 3,2 km/h (1 Bft) W-SW 247 0 min 0,000 mm 0,0 UV-I 0 W/m -2,7 C -2,4 C 4,8 km/h (1 Bft) 100,00 %
25.11.2020 04:29 -2,4 C 98 % 1023,9 hPa 0,0 l/m 4,8 km/h (1 Bft) W-SW 247 0 min 0,000 mm 0,0 UV-I 0 W/m -2,7 C -4,2 C 6,4 km/h (2 Bft) 100,00 %
25.11.2020 04:28 -2,4 C 98 % 1023,9 hPa 0,0 l/m 3,2 km/h (1 Bft) W-SW 247 0 min 0,000 mm 0,0 UV-I 0 W/m -2,7 C -2,4 C 4,8 km/h (1 Bft) 100,00 %
25.11.2020 04:27 -2,5 C 98 % 1023,8 hPa 0,0 l/m 4,8 km/h (1 Bft) SW 225 0 min 0,000 mm 0,0 UV-I 0 W/m -2,8 C -4,3 C 6,4 km/h (2 Bft) 91,30 %
25.11.2020 04:26 -2,6 C 98 % 1023,9 hPa 0,0 l/m 4,8 km/h (1 Bft) SW 225 0 min 0,000 mm 0,0 UV-I 0 W/m -2,9 C -4,4 C 6,4 km/h (2 Bft) 100,00 %
25.11.2020 04:25 -2,6 C 98 % 1023,8 hPa 0,0 l/m 4,8 km/h (1 Bft) SW 225 0 min 0,000 mm 0,0 UV-I 0 W/m -2,9 C -4,4 C 6,4 km/h (2 Bft) 100,00 %
25.11.2020 04:24 -2,6 C 98 % 1023,8 hPa 0,0 l/m 4,8 km/h (1 Bft) SW 225 0 min 0,000 mm 0,0 UV-I 0 W/m -2,9 C -4,4 C 6,4 km/h (2 Bft) 100,00 %
25.11.2020 04:23 -2,6 C 98 % 1023,8 hPa 0,0 l/m 3,2 km/h (1 Bft) SW 225 0 min 0,000 mm 0,0 UV-I 0 W/m -2,9 C -2,6 C 4,8 km/h (1 Bft) 100,00 %
25.11.2020 04:22 -2,6 C 98 % 1023,8 hPa 0,0 l/m 3,2 km/h (1 Bft) SW 225 0 min 0,000 mm 0,0 UV-I 0 W/m -2,9 C -2,6 C 4,8 km/h (1 Bft) 95,65 %
25.11.2020 04:21 -2,7 C 98 % 1023,7 hPa 0,0 l/m 4,8 km/h (1 Bft) SW 225 0 min 0,000 mm 0,0 UV-I 0 W/m -3,0 C -4,5 C 6,4 km/h (2 Bft) 100,00 %
25.11.2020 04:20 -2,7 C 98 % 1023,8 hPa 0,0 l/m 4,8 km/h (1 Bft) SW 225 0 min 0,000 mm 0,0 UV-I 0 W/m -3,0 C -4,5 C 6,4 km/h (2 Bft) 100,00 %
25.11.2020 04:19 -2,7 C 98 % 1023,8 hPa 0,0 l/m 3,2 km/h (1 Bft) SW 225 0 min 0,000 mm 0,0 UV-I 0 W/m -3,0 C -2,7 C 4,8 km/h (1 Bft) 100,00 %
25.11.2020 04:18 -2,7 C 98 % 1023,8 hPa 0,0 l/m 3,2 km/h (1 Bft) SW 225 0 min 0,000 mm 0,0 UV-I 0 W/m -3,0 C -2,7 C 4,8 km/h (1 Bft) 95,65 %
25.11.2020 04:17 -2,8 C 98 % 1023,7 hPa 0,0 l/m 3,2 km/h (1 Bft) SW 225 0 min 0,000 mm 0,0 UV-I 0 W/m -3,1 C -2,8 C 4,8 km/h (1 Bft) 95,65 %
25.11.2020 04:16 -2,8 C 98 % 1023,8 hPa 0,0 l/m 4,8 km/h (1 Bft) SW 225 0 min 0,000 mm 0,0 UV-I 0 W/m -3,1 C -4,7 C 6,4 km/h (2 Bft) 100,00 %
25.11.2020 04:15 -2,8 C 98 % 1023,7 hPa 0,0 l/m 4,8 km/h (1 Bft) S-SW 202 0 min 0,000 mm 0,0 UV-I 0 W/m -3,1 C -4,7 C 6,4 km/h (2 Bft) 91,30 %
25.11.2020 04:14 -2,8 C 98 % 1023,7 hPa 0,0 l/m 3,2 km/h (1 Bft) SW 225 0 min 0,000 mm 0,0 UV-I 0 W/m -3,1 C -2,8 C 3,2 km/h (1 Bft) 100,00 %
25.11.2020 04:13 -2,8 C 98 % 1023,6 hPa 0,0 l/m 3,2 km/h (1 Bft) SW 225 0 min 0,000 mm 0,0 UV-I 0 W/m -3,1 C -2,8 C 6,4 km/h (2 Bft) 100,00 %
25.11.2020 04:12 -2,8 C 98 % 1023,7 hPa 0,0 l/m 4,8 km/h (1 Bft) SW 225 0 min 0,000 mm 0,0 UV-I 0 W/m -3,1 C -4,7 C 4,8 km/h (1 Bft) 91,30 %
25.11.2020 04:11 -2,8 C 98 % 1023,7 hPa 0,0 l/m 3,2 km/h (1 Bft) S-SW 202 0 min 0,000 mm 0,0 UV-I 0 W/m -3,1 C -2,8 C 3,2 km/h (1 Bft) 100,00 %
25.11.2020 04:10 -2,8 C 98 % 1023,7 hPa 0,0 l/m 3,2 km/h (1 Bft) S-SW 202 0 min 0,000 mm 0,0 UV-I 0 W/m -3,1 C -2,8 C 4,8 km/h (1 Bft) 100,00 %
25.11.2020 04:09 -2,8 C 98 % 1023,8 hPa 0,0 l/m 3,2 km/h (1 Bft) S-SW 202 0 min 0,000 mm 0,0 UV-I 0 W/m -3,1 C -2,8 C 4,8 km/h (1 Bft) 100,00 %
25.11.2020 04:08 -2,8 C 98 % 1023,7 hPa 0,0 l/m 3,2 km/h (1 Bft) S-SW 202 0 min 0,000 mm 0,0 UV-I 0 W/m -3,1 C -2,8 C 4,8 km/h (1 Bft) 91,30 %
25.11.2020 04:07 -2,8 C 98 % 1023,7 hPa 0,0 l/m 4,8 km/h (1 Bft) S-SW 202 0 min 0,000 mm 0,0 UV-I 0 W/m -3,1 C -4,7 C 6,4 km/h (2 Bft) 100,00 %
25.11.2020 04:06 -2,8 C 98 % 1023,7 hPa 0,0 l/m 4,8 km/h (1 Bft) S-SW 202 0 min 0,000 mm 0,0 UV-I 0 W/m -3,1 C -4,7 C 6,4 km/h (2 Bft) 95,65 %
25.11.2020 04:05 -2,8 C 98 % 1023,7 hPa 0,0 l/m 4,8 km/h (1 Bft) S-SW 202 0 min 0,000 mm 0,0 UV-I 0 W/m -3,1 C -4,7 C 6,4 km/h (2 Bft) 95,65 %
25.11.2020 04:04 -2,8 C 98 % 1023,7 hPa 0,0 l/m 3,2 km/h (1 Bft) S-SW 202 0 min 0,000 mm 0,0 UV-I 0 W/m -3,1 C -2,8 C 4,8 km/h (1 Bft) 100,00 %
25.11.2020 04:03 -2,8 C 98 % 1023,6 hPa 0,0 l/m 4,8 km/h (1 Bft) S-SW 202 0 min 0,000 mm 0,0 UV-I 0 W/m -3,1 C -4,7 C 6,4 km/h (2 Bft) 95,65 %
25.11.2020 04:02 -2,8 C 98 % 1023,7 hPa 0,0 l/m 3,2 km/h (1 Bft) SW 225 0 min 0,000 mm 0,0 UV-I 0 W/m -3,1 C -2,8 C 4,8 km/h (1 Bft) 95,65 %
25.11.2020 04:01 -2,8 C 98 % 1023,7 hPa 0,0 l/m 1,6 km/h (1 Bft) SW 225 0 min 0,000 mm 0,0 UV-I 0 W/m -3,1 C -2,8 C 3,2 km/h (1 Bft) 95,65 %
25.11.2020 04:00 -2,8 C 98 % 1023,7 hPa 0,0 l/m 1,6 km/h (1 Bft) SW 225 0 min 0,000 mm 0,0 UV-I 0 W/m -3,1 C -2,8 C 3,2 km/h (1 Bft) 100,00 %
25.11.2020 03:59 -2,8 C 98 % 1023,7 hPa 0,0 l/m 3,2 km/h (1 Bft) SW 225 0 min 0,000 mm 0,0 UV-I 0 W/m -3,1 C -2,8 C 3,2 km/h (1 Bft) 100,00 %
25.11.2020 03:58 -2,8 C 98 % 1023,7 hPa 0,0 l/m 1,6 km/h (1 Bft) S-SW 202 0 min 0,000 mm 0,0 UV-I 0 W/m -3,1 C -2,8 C 3,2 km/h (1 Bft) 95,65 %
25.11.2020 03:57 -2,8 C 98 % 1023,7 hPa 0,0 l/m 3,2 km/h (1 Bft) SW 225 0 min 0,000 mm 0,0 UV-I 0 W/m -3,1 C -2,8 C 3,2 km/h (1 Bft) 100,00 %
25.11.2020 03:56 -2,8 C 98 % 1023,7 hPa 0,0 l/m 4,8 km/h (1 Bft) SW 225 0 min 0,000 mm 0,0 UV-I 0 W/m -3,1 C -4,7 C 6,4 km/h (2 Bft) 95,65 %
25.11.2020 03:55 -2,8 C 98 % 1023,7 hPa 0,0 l/m 1,6 km/h (1 Bft) W-SW 247 0 min 0,000 mm 0,0 UV-I 0 W/m -3,1 C -2,8 C 4,8 km/h (1 Bft) 100,00 %
25.11.2020 03:54 -2,8 C 98 % 1023,6 hPa 0,0 l/m 0,0 km/h (0 Bft) N 0 0 min 0,000 mm 0,0 UV-I 0 W/m -3,1 C -2,8 C 0,0 km/h (0 Bft) 95,65 %
25.11.2020 03:53 -2,8 C 98 % 1023,7 hPa 0,0 l/m 0,0 km/h (0 Bft) N 0 0 min 0,000 mm 0,0 UV-I 0 W/m -3,1 C -2,8 C 0,0 km/h (0 Bft) 100,00 %
25.11.2020 03:52 -2,8 C 98 % 1023,7 hPa 0,0 l/m 0,0 km/h (0 Bft) N 0 0 min 0,000 mm 0,0 UV-I 0 W/m -3,1 C -2,8 C 0,0 km/h (0 Bft) 100,00 %
25.11.2020 03:51 -2,8 C 98 % 1023,7 hPa 0,0 l/m 0,0 km/h (0 Bft) N 0 0 min 0,000 mm 0,0 UV-I 0 W/m -3,1 C -2,8 C 0,0 km/h (0 Bft) 95,65 %
25.11.2020 03:50 -2,8 C 98 % 1023,6 hPa 0,0 l/m 0,0 km/h (0 Bft) N 0 0 min 0,000 mm 0,0 UV-I 0 W/m -3,1 C -2,8 C 0,0 km/h (0 Bft) 95,65 %
25.11.2020 03:49 -2,8 C 98 % 1023,7 hPa 0,0 l/m 0,0 km/h (0 Bft) N 0 0 min 0,000 mm 0,0 UV-I 0 W/m -3,1 C -2,8 C 0,0 km/h (0 Bft) 100,00 %
25.11.2020 03:48 -2,8 C 98 % 1023,7 hPa 0,0 l/m 0,0 km/h (0 Bft) N 0 0 min 0,000 mm 0,0 UV-I 0 W/m -3,1 C -2,8 C 0,0 km/h (0 Bft) 100,00 %
25.11.2020 03:47 -2,7 C 98 % 1023,7 hPa 0,0 l/m 0,0 km/h (0 Bft) N 0 0 min 0,000 mm 0,0 UV-I 0 W/m -3,0 C -2,7 C 0,0 km/h (0 Bft) 95,65 %
25.11.2020 03:46 -2,7 C 98 % 1023,8 hPa 0,0 l/m 0,0 km/h (0 Bft) N 0 0 min 0,000 mm 0,0 UV-I 0 W/m -3,0 C -2,7 C 0,0 km/h (0 Bft) 91,30 %
25.11.2020 03:45 -2,7 C 98 % 1023,7 hPa 0,0 l/m 0,0 km/h (0 Bft) N 0 0 min 0,000 mm 0,0 UV-I 0 W/m -3,0 C -2,7 C 0,0 km/h (0 Bft) 100,00 %
25.11.2020 03:44 -2,7 C 98 % 1023,7 hPa 0,0 l/m 0,0 km/h (0 Bft) N 0 0 min 0,000 mm 0,0 UV-I 0 W/m -3,0 C -2,7 C 0,0 km/h (0 Bft) 100,00 %
25.11.2020 03:43 -2,7 C 98 % 1023,7 hPa 0,0 l/m 0,0 km/h (0 Bft) O-NO 67 0 min 0,000 mm 0,0 UV-I 0 W/m -3,0 C -2,7 C 1,6 km/h (1 Bft) 95,65 %
25.11.2020 03:42 -2,7 C 98 % 1023,7 hPa 0,0 l/m 0,0 km/h (0 Bft) N 0 0 min 0,000 mm 0,0 UV-I 0 W/m -3,0 C -2,7 C 0,0 km/h (0 Bft) 95,65 %
25.11.2020 03:41 -2,7 C 98 % 1023,8 hPa 0,0 l/m 0,0 km/h (0 Bft) N 0 0 min 0,000 mm 0,0 UV-I 0 W/m -3,0 C -2,7 C 0,0 km/h (0 Bft) 95,65 %
25.11.2020 03:40 -2,6 C 98 % 1023,7 hPa 0,0 l/m 0,0 km/h (0 Bft) N 0 0 min 0,000 mm 0,0 UV-I 0 W/m -2,9 C -2,6 C 0,0 km/h (0 Bft) 100,00 %
25.11.2020 03:39 -2,6 C 98 % 1023,7 hPa 0,0 l/m 0,0 km/h (0 Bft) N 0 0 min 0,000 mm 0,0 UV-I 0 W/m -2,9 C -2,6 C 0,0 km/h (0 Bft) 100,00 %
25.11.2020 03:38 -2,6 C 98 % 1023,6 hPa 0,0 l/m 1,6 km/h (1 Bft) O-NO 67 0 min 0,000 mm 0,0 UV-I 0 W/m -2,9 C -2,6 C 1,6 km/h (1 Bft) 100,00 %
25.11.2020 03:37 -2,6 C 98 % 1023,6 hPa 0,0 l/m 0,0 km/h (0 Bft) O-NO 67 0 min 0,000 mm 0,0 UV-I 0 W/m -2,9 C -2,6 C 1,6 km/h (1 Bft) 100,00 %
25.11.2020 03:36 -2,6 C 98 % 1023,7 hPa 0,0 l/m 0,0 km/h (0 Bft) O-NO 67 0 min 0,000 mm 0,0 UV-I 0 W/m -2,9 C -2,6 C 1,6 km/h (1 Bft) 100,00 %
25.11.2020 03:35 -2,6 C 98 % 1023,7 hPa 0,0 l/m 1,6 km/h (1 Bft) O-NO 67 0 min 0,000 mm 0,0 UV-I 0 W/m -2,9 C -2,6 C 1,6 km/h (1 Bft) 100,00 %
25.11.2020 03:34 -2,6 C 98 % 1023,7 hPa 0,0 l/m 1,6 km/h (1 Bft) O-NO 67 0 min 0,000 mm 0,0 UV-I 0 W/m -2,9 C -2,6 C 3,2 km/h (1 Bft) 100,00 %
25.11.2020 03:33 -2,6 C 98 % 1023,6 hPa 0,0 l/m 3,2 km/h (1 Bft) O-NO 67 0 min 0,000 mm 0,0 UV-I 0 W/m -2,9 C -2,6 C 3,2 km/h (1 Bft) 100,00 %
25.11.2020 03:32 -2,6 C 98 % 1023,6 hPa 0,0 l/m 3,2 km/h (1 Bft) O-NO 67 0 min 0,000 mm 0,0 UV-I 0 W/m -2,9 C -2,6 C 4,8 km/h (1 Bft) 100,00 %
25.11.2020 03:31 -2,6 C 98 % 1023,6 hPa 0,0 l/m 3,2 km/h (1 Bft) O-NO 67 0 min 0,000 mm 0,0 UV-I 0 W/m -2,9 C -2,6 C 4,8 km/h (1 Bft) 91,30 %
25.11.2020 03:30 -2,6 C 98 % 1023,7 hPa 0,0 l/m 3,2 km/h (1 Bft) O-NO 67 0 min 0,000 mm 0,0 UV-I 0 W/m -2,9 C -2,6 C 3,2 km/h (1 Bft) 95,65 %
25.11.2020 03:29 -2,6 C 98 % 1023,6 hPa 0,0 l/m 0,0 km/h (0 Bft) O-NO 67 0 min 0,000 mm 0,0 UV-I 0 W/m -2,9 C -2,6 C 3,2 km/h (1 Bft) 95,65 %
25.11.2020 03:28 -2,6 C 98 % 1023,6 hPa 0,0 l/m 0,0 km/h (0 Bft) N 0 0 min 0,000 mm 0,0 UV-I 0 W/m -2,9 C -2,6 C 0,0 km/h (0 Bft) 100,00 %
25.11.2020 03:27 -2,5 C 98 % 1023,7 hPa 0,0 l/m 0,0 km/h (0 Bft) N 0 0 min 0,000 mm 0,0 UV-I 0 W/m -2,8 C -2,5 C 0,0 km/h (0 Bft) 100,00 %
25.11.2020 03:26 -2,5 C 98 % 1023,7 hPa 0,0 l/m 0,0 km/h (0 Bft) N 0 0 min 0,000 mm 0,0 UV-I 0 W/m -2,8 C -2,5 C 0,0 km/h (0 Bft) 100,00 %
25.11.2020 03:25 -2,5 C 98 % 1023,7 hPa 0,0 l/m 0,0 km/h (0 Bft) N 0 0 min 0,000 mm 0,0 UV-I 0 W/m -2,8 C -2,5 C 0,0 km/h (0 Bft) 95,65 %
25.11.2020 03:24 -2,5 C 98 % 1023,7 hPa 0,0 l/m 0,0 km/h (0 Bft) N 0 0 min 0,000 mm 0,0 UV-I 0 W/m -2,8 C -2,5 C 0,0 km/h (0 Bft) 100,00 %
25.11.2020 03:23 -2,5 C 98 % 1023,6 hPa 0,0 l/m 0,0 km/h (0 Bft) N 0 0 min 0,000 mm 0,0 UV-I 0 W/m -2,8 C -2,5 C 0,0 km/h (0 Bft) 100,00 %
25.11.2020 03:22 -2,4 C 98 % 1023,7 hPa 0,0 l/m 0,0 km/h (0 Bft) N 0 0 min 0,000 mm 0,0 UV-I 0 W/m -2,7 C -2,4 C 0,0 km/h (0 Bft) 95,65 %
25.11.2020 03:21 -2,5 C 98 % 1023,6 hPa 0,0 l/m 0,0 km/h (0 Bft) N 0 0 min 0,000 mm 0,0 UV-I 0 W/m -2,8 C -2,5 C 0,0 km/h (0 Bft) 100,00 %
25.11.2020 03:20 -2,5 C 98 % 1023,6 hPa 0,0 l/m 0,0 km/h (0 Bft) N 0 0 min 0,000 mm 0,0 UV-I 0 W/m -2,8 C -2,5 C 0,0 km/h (0 Bft) 100,00 %
25.11.2020 03:19 -2,4 C 98 % 1023,6 hPa 0,0 l/m 0,0 km/h (0 Bft) N 0 0 min 0,000 mm 0,0 UV-I 0 W/m -2,7 C -2,4 C 0,0 km/h (0 Bft) 95,65 %
25.11.2020 03:18 -2,4 C 98 % 1023,7 hPa 0,0 l/m 0,0 km/h (0 Bft) N 0 0 min 0,000 mm 0,0 UV-I 0 W/m -2,7 C -2,4 C 0,0 km/h (0 Bft) 100,00 %
25.11.2020 03:17 -2,4 C 98 % 1023,7 hPa 0,0 l/m 0,0 km/h (0 Bft) N 0 0 min 0,000 mm 0,0 UV-I 0 W/m -2,7 C -2,4 C 0,0 km/h (0 Bft) 91,30 %
25.11.2020 03:16 -2,4 C 98 % 1023,7 hPa 0,0 l/m 0,0 km/h (0 Bft) N 0 0 min 0,000 mm 0,0 UV-I 0 W/m -2,7 C -2,4 C 0,0 km/h (0 Bft) 100,00 %
25.11.2020 03:15 -2,4 C 98 % 1023,6 hPa 0,0 l/m 0,0 km/h (0 Bft) N 0 0 min 0,000 mm 0,0 UV-I 0 W/m -2,7 C -2,4 C 0,0 km/h (0 Bft) 91,30 %
25.11.2020 03:14 -2,4 C 98 % 1023,7 hPa 0,0 l/m 0,0 km/h (0 Bft) N 0 0 min 0,000 mm 0,0 UV-I 0 W/m -2,7 C -2,4 C 0,0 km/h (0 Bft) 100,00 %
25.11.2020 03:13 -2,5 C 98 % 1023,7 hPa 0,0 l/m 0,0 km/h (0 Bft) N 0 0 min 0,000 mm 0,0 UV-I 0 W/m -2,8 C -2,5 C 0,0 km/h (0 Bft) 100,00 %
25.11.2020 03:12 -2,4 C 98 % 1023,6 hPa 0,0 l/m 0,0 km/h (0 Bft) N 0 0 min 0,000 mm 0,0 UV-I 0 W/m -2,7 C -2,4 C 0,0 km/h (0 Bft) 100,00 %
25.11.2020 03:11 -2,4 C 98 % 1023,6 hPa 0,0 l/m 0,0 km/h (0 Bft) O 90 0 min 0,000 mm 0,0 UV-I 0 W/m -2,7 C -2,4 C 1,6 km/h (1 Bft) 100,00 %
25.11.2020 03:10 -2,4 C 98 % 1023,6 hPa 0,0 l/m 1,6 km/h (1 Bft) O 90 0 min 0,000 mm 0,0 UV-I 0 W/m -2,7 C -2,4 C 1,6 km/h (1 Bft) 100,00 %
25.11.2020 03:09 -2,4 C 98 % 1023,7 hPa 0,0 l/m 1,6 km/h (1 Bft) O 90 0 min 0,000 mm 0,0 UV-I 0 W/m -2,7 C -2,4 C 3,2 km/h (1 Bft) 100,00 %
25.11.2020 03:08 -2,4 C 98 % 1023,6 hPa 0,0 l/m 1,6 km/h (1 Bft) O 90 0 min 0,000 mm 0,0 UV-I 0 W/m -2,7 C -2,4 C 3,2 km/h (1 Bft) 100,00 %
25.11.2020 03:07 -2,4 C 98 % 1023,7 hPa 0,0 l/m 3,2 km/h (1 Bft) O-NO 67 0 min 0,000 mm 0,0 UV-I 0 W/m -2,7 C -2,4 C 4,8 km/h (1 Bft) 100,00 %
25.11.2020 03:06 -2,4 C 98 % 1023,7 hPa 0,0 l/m 3,2 km/h (1 Bft) O 90 0 min 0,000 mm 0,0 UV-I 0 W/m -2,7 C -2,4 C 4,8 km/h (1 Bft) 100,00 %
25.11.2020 03:05 -2,4 C 98 % 1023,7 hPa 0,0 l/m 3,2 km/h (1 Bft) O-NO 67 0 min 0,000 mm 0,0 UV-I 0 W/m -2,7 C -2,4 C 4,8 km/h (1 Bft) 100,00 %
25.11.2020 03:04 -2,4 C 98 % 1023,6 hPa 0,0 l/m 3,2 km/h (1 Bft) O 90 0 min 0,000 mm 0,0 UV-I 0 W/m -2,7 C -2,4 C 4,8 km/h (1 Bft) 100,00 %
25.11.2020 03:03 -2,4 C 98 % 1023,7 hPa 0,0 l/m 3,2 km/h (1 Bft) O-NO 67 0 min 0,000 mm 0,0 UV-I 0 W/m -2,7 C -2,4 C 4,8 km/h (1 Bft) 100,00 %
25.11.2020 03:02 -2,4 C 98 % 1023,7 hPa 0,0 l/m 3,2 km/h (1 Bft) O 90 0 min 0,000 mm 0,0 UV-I 0 W/m -2,7 C -2,4 C 4,8 km/h (1 Bft) 82,61 %
25.11.2020 03:01 -2,4 C 98 % 1023,7 hPa 0,0 l/m 1,6 km/h (1 Bft) W-SW 247 0 min 0,000 mm 0,0 UV-I 0 W/m -2,7 C -2,4 C 3,2 km/h (1 Bft) 100,00 %
25.11.2020 03:00 -2,4 C 98 % 1023,7 hPa 0,0 l/m 1,6 km/h (1 Bft) W-SW 247 0 min 0,000 mm 0,0 UV-I 0 W/m -2,7 C -2,4 C 3,2 km/h (1 Bft) 100,00 %
25.11.2020 02:59 -2,3 C 98 % 1023,7 hPa 0,0 l/m 3,2 km/h (1 Bft) W-SW 247 0 min 0,000 mm 0,0 UV-I 0 W/m -2,6 C -2,3 C 3,2 km/h (1 Bft) 100,00 %
25.11.2020 02:58 -2,3 C 98 % 1023,6 hPa 0,0 l/m 1,6 km/h (1 Bft) W-SW 247 0 min 0,000 mm 0,0 UV-I 0 W/m -2,6 C -2,3 C 3,2 km/h (1 Bft) 95,65 %
25.11.2020 02:57 -2,3 C 98 % 1023,7 hPa 0,0 l/m 0,0 km/h (0 Bft) N 0 0 min 0,000 mm 0,0 UV-I 0 W/m -2,6 C -2,3 C 0,0 km/h (0 Bft) 100,00 %
25.11.2020 02:56 -2,3 C 98 % 1023,7 hPa 0,0 l/m 0,0 km/h (0 Bft) N 0 0 min 0,000 mm 0,0 UV-I 0 W/m -2,6 C -2,3 C 0,0 km/h (0 Bft) 100,00 %
25.11.2020 02:55 -2,2 C 98 % 1023,7 hPa 0,0 l/m 0,0 km/h (0 Bft) N 0 0 min 0,000 mm 0,0 UV-I 0 W/m -2,5 C -2,2 C 0,0 km/h (0 Bft) 100,00 %
25.11.2020 02:54 -2,2 C 98 % 1023,8 hPa 0,0 l/m 0,0 km/h (0 Bft) N 0 0 min 0,000 mm 0,0 UV-I 0 W/m -2,5 C -2,2 C 0,0 km/h (0 Bft) 100,00 %
25.11.2020 02:53 -2,2 C 98 % 1023,7 hPa 0,0 l/m 0,0 km/h (0 Bft) N 0 0 min 0,000 mm 0,0 UV-I 0 W/m -2,5 C -2,2 C 0,0 km/h (0 Bft) 100,00 %
25.11.2020 02:52 -2,2 C 98 % 1023,7 hPa 0,0 l/m 0,0 km/h (0 Bft) W-SW 247 0 min 0,000 mm 0,0 UV-I 0 W/m -2,5 C -2,2 C 1,6 km/h (1 Bft) 100,00 %
25.11.2020 02:51 -2,2 C 98 % 1023,7 hPa 0,0 l/m 1,6 km/h (1 Bft) W-SW 247 0 min 0,000 mm 0,0 UV-I 0 W/m -2,5 C -2,2 C 1,6 km/h (1 Bft) 100,00 %
25.11.2020 02:50 -2,2 C 98 % 1023,7 hPa 0,0 l/m 0,0 km/h (0 Bft) N 0 0 min 0,000 mm 0,0 UV-I 0 W/m -2,5 C -2,2 C 0,0 km/h (0 Bft) 100,00 %
25.11.2020 02:49 -2,2 C 98 % 1023,8 hPa 0,0 l/m 0,0 km/h (0 Bft) W-SW 247 0 min 0,000 mm 0,0 UV-I 0 W/m -2,5 C -2,2 C 1,6 km/h (1 Bft) 100,00 %
25.11.2020 02:48 -2,2 C 98 % 1023,8 hPa 0,0 l/m 0,0 km/h (0 Bft) W-SW 247 0 min 0,000 mm 0,0 UV-I 0 W/m -2,5 C -2,2 C 1,6 km/h (1 Bft) 95,65 %
25.11.2020 02:47 -2,2 C 98 % 1023,7 hPa 0,0 l/m 0,0 km/h (0 Bft) W-SW 247 0 min 0,000 mm 0,0 UV-I 0 W/m -2,5 C -2,2 C 1,6 km/h (1 Bft) 100,00 %
25.11.2020 02:46 -2,2 C 98 % 1023,8 hPa 0,0 l/m 1,6 km/h (1 Bft) W-SW 247 0 min 0,000 mm 0,0 UV-I 0 W/m -2,5 C -2,2 C 4,8 km/h (1 Bft) 100,00 %
25.11.2020 02:45 -2,2 C 98 % 1023,7 hPa 0,0 l/m 1,6 km/h (1 Bft) W-SW 247 0 min 0,000 mm 0,0 UV-I 0 W/m -2,5 C -2,2 C 3,2 km/h (1 Bft) 100,00 %
25.11.2020 02:44 -2,2 C 98 % 1023,8 hPa 0,0 l/m 1,6 km/h (1 Bft) W-SW 247 0 min 0,000 mm 0,0 UV-I 0 W/m -2,5 C -2,2 C 3,2 km/h (1 Bft) 95,65 %
25.11.2020 02:43 -2,2 C 98 % 1023,8 hPa 0,0 l/m 3,2 km/h (1 Bft) W-SW 247 0 min 0,000 mm 0,0 UV-I 0 W/m -2,5 C -2,2 C 3,2 km/h (1 Bft) 100,00 %
25.11.2020 02:42 -2,2 C 98 % 1023,7 hPa 0,0 l/m 3,2 km/h (1 Bft) W-SW 247 0 min 0,000 mm 0,0 UV-I 0 W/m -2,5 C -2,2 C 4,8 km/h (1 Bft) 100,00 %
25.11.2020 02:41 -2,2 C 98 % 1023,8 hPa 0,0 l/m 0,0 km/h (0 Bft) W-SW 247 0 min 0,000 mm 0,0 UV-I 0 W/m -2,5 C -2,2 C 1,6 km/h (1 Bft) 100,00 %
25.11.2020 02:40 -2,2 C 98 % 1023,8 hPa 0,0 l/m 1,6 km/h (1 Bft) W-SW 247 0 min 0,000 mm 0,0 UV-I 0 W/m -2,5 C -2,2 C 3,2 km/h (1 Bft) 100,00 %
25.11.2020 02:39 -2,2 C 98 % 1023,7 hPa 0,0 l/m 3,2 km/h (1 Bft) W-SW 247 0 min 0,000 mm 0,0 UV-I 0 W/m -2,5 C -2,2 C 4,8 km/h (1 Bft) 95,65 %
25.11.2020 02:38 -2,2 C 98 % 1023,8 hPa 0,0 l/m 3,2 km/h (1 Bft) W-SW 247 0 min 0,000 mm 0,0 UV-I 0 W/m -2,5 C -2,2 C 4,8 km/h (1 Bft) 100,00 %
25.11.2020 02:37 -2,2 C 98 % 1023,7 hPa 0,0 l/m 3,2 km/h (1 Bft) W-SW 247 0 min 0,000 mm 0,0 UV-I 0 W/m -2,5 C -2,2 C 6,4 km/h (2 Bft) 100,00 %
25.11.2020 02:36 -2,1 C 98 % 1023,7 hPa 0,0 l/m 3,2 km/h (1 Bft) W-SW 247 0 min 0,000 mm 0,0 UV-I 0 W/m -2,4 C -2,1 C 4,8 km/h (1 Bft) 91,30 %
25.11.2020 02:35 -2,1 C 98 % 1023,7 hPa 0,0 l/m 3,2 km/h (1 Bft) W-SW 247 0 min 0,000 mm 0,0 UV-I 0 W/m -2,4 C -2,1 C 3,2 km/h (1 Bft) 100,00 %
25.11.2020 02:34 -2,1 C 98 % 1023,8 hPa 0,0 l/m 3,2 km/h (1 Bft) W-SW 247 0 min 0,000 mm 0,0 UV-I 0 W/m -2,4 C -2,1 C 4,8 km/h (1 Bft) 100,00 %
25.11.2020 02:33 -2,1 C 98 % 1023,7 hPa 0,0 l/m 3,2 km/h (1 Bft) W-SW 247 0 min 0,000 mm 0,0 UV-I 0 W/m -2,4 C -2,1 C 4,8 km/h (1 Bft) 100,00 %
25.11.2020 02:32 -2,1 C 98 % 1023,8 hPa 0,0 l/m 3,2 km/h (1 Bft) W 270 0 min 0,000 mm 0,0 UV-I 0 W/m -2,4 C -2,1 C 4,8 km/h (1 Bft) 100,00 %
25.11.2020 02:31 -2,0 C 98 % 1023,8 hPa 0,0 l/m 3,2 km/h (1 Bft) N-NW 337 0 min 0,000 mm 0,0 UV-I 0 W/m -2,3 C -2,0 C 4,8 km/h (1 Bft) 100,00 %
25.11.2020 02:30 -1,9 C 98 % 1023,9 hPa 0,0 l/m 1,6 km/h (1 Bft) NO 45 0 min 0,000 mm 0,0 UV-I 0 W/m -2,2 C -1,9 C 3,2 km/h (1 Bft) 100,00 %
25.11.2020 02:29 -1,9 C 98 % 1023,8 hPa 0,0 l/m 0,0 km/h (0 Bft) N 0 0 min 0,000 mm 0,0 UV-I 0 W/m -2,2 C -1,9 C 0,0 km/h (0 Bft) 100,00 %
25.11.2020 02:28 -1,9 C 98 % 1023,8 hPa 0,0 l/m 0,0 km/h (0 Bft) N 0 0 min 0,000 mm 0,0 UV-I 0 W/m -2,2 C -1,9 C 0,0 km/h (0 Bft) 100,00 %
25.11.2020 02:27 -1,9 C 98 % 1023,7 hPa 0,0 l/m 0,0 km/h (0 Bft) N 0 0 min 0,000 mm 0,0 UV-I 0 W/m -2,2 C -1,9 C 0,0 km/h (0 Bft) 100,00 %
25.11.2020 02:26 -1,9 C 98 % 1023,9 hPa 0,0 l/m 0,0 km/h (0 Bft) N 0 0 min 0,000 mm 0,0 UV-I 0 W/m -2,2 C -1,9 C 0,0 km/h (0 Bft) 100,00 %
25.11.2020 02:25 -1,9 C 98 % 1023,9 hPa 0,0 l/m 0,0 km/h (0 Bft) N 0 0 min 0,000 mm 0,0 UV-I 0 W/m -2,2 C -1,9 C 0,0 km/h (0 Bft) 100,00 %
25.11.2020 02:24 -1,8 C 98 % 1023,8 hPa 0,0 l/m 0,0 km/h (0 Bft) N 0 0 min 0,000 mm 0,0 UV-I 0 W/m -2,1 C -1,8 C 0,0 km/h (0 Bft) 95,65 %
25.11.2020 02:23 -1,8 C 98 % 1023,8 hPa 0,0 l/m 0,0 km/h (0 Bft) N 0 0 min 0,000 mm 0,0 UV-I 0 W/m -2,1 C -1,8 C 0,0 km/h (0 Bft) 100,00 %
25.11.2020 02:22 -1,8 C 98 % 1023,8 hPa 0,0 l/m 0,0 km/h (0 Bft) N 0 0 min 0,000 mm 0,0 UV-I 0 W/m -2,1 C -1,8 C 0,0 km/h (0 Bft) 100,00 %
25.11.2020 02:21 -1,8 C 98 % 1023,8 hPa 0,0 l/m 0,0 km/h (0 Bft) N 0 0 min 0,000 mm 0,0 UV-I 0 W/m -2,1 C -1,8 C 0,0 km/h (0 Bft) 100,00 %
25.11.2020 02:20 -1,8 C 98 % 1023,8 hPa 0,0 l/m 0,0 km/h (0 Bft) N 0 0 min 0,000 mm 0,0 UV-I 0 W/m -2,1 C -1,8 C 0,0 km/h (0 Bft) 95,65 %
25.11.2020 02:19 -1,8 C 98 % 1023,8 hPa 0,0 l/m 0,0 km/h (0 Bft) N 0 0 min 0,000 mm 0,0 UV-I 0 W/m -2,1 C -1,8 C 0,0 km/h (0 Bft) 100,00 %
25.11.2020 02:18 -1,8 C 98 % 1023,9 hPa 0,0 l/m 0,0 km/h (0 Bft) N 0 0 min 0,000 mm 0,0 UV-I 0 W/m -2,1 C -1,8 C 0,0 km/h (0 Bft) 100,00 %
25.11.2020 02:17 -1,8 C 98 % 1023,8 hPa 0,0 l/m 0,0 km/h (0 Bft) N 0 0 min 0,000 mm 0,0 UV-I 0 W/m -2,1 C -1,8 C 0,0 km/h (0 Bft) 95,65 %
25.11.2020 02:16 -1,8 C 98 % 1023,8 hPa 0,0 l/m 0,0 km/h (0 Bft) N 0 0 min 0,000 mm 0,0 UV-I 0 W/m -2,1 C -1,8 C 0,0 km/h (0 Bft) 100,00 %
25.11.2020 02:15 -1,8 C 98 % 1023,8 hPa 0,0 l/m 0,0 km/h (0 Bft) NO 45 0 min 0,000 mm 0,0 UV-I 0 W/m -2,1 C -1,8 C 1,6 km/h (1 Bft) 100,00 %
25.11.2020 02:14 -1,8 C 98 % 1023,8 hPa 0,0 l/m 0,0 km/h (0 Bft) N 0 0 min 0,000 mm 0,0 UV-I 0 W/m -2,1 C -1,8 C 0,0 km/h (0 Bft) 100,00 %
25.11.2020 02:13 -1,8 C 98 % 1023,8 hPa 0,0 l/m 1,6 km/h (1 Bft) NO 45 0 min 0,000 mm 0,0 UV-I 0 W/m -2,1 C -1,8 C 1,6 km/h (1 Bft) 100,00 %
25.11.2020 02:12 -1,8 C 98 % 1023,8 hPa 0,0 l/m 1,6 km/h (1 Bft) NO 45 0 min 0,000 mm 0,0 UV-I 0 W/m -2,1 C -1,8 C 1,6 km/h (1 Bft) 100,00 %
25.11.2020 02:11 -1,8 C 98 % 1023,8 hPa 0,0 l/m 1,6 km/h (1 Bft) NO 45 0 min 0,000 mm 0,0 UV-I 0 W/m -2,1 C -1,8 C 3,2 km/h (1 Bft) 100,00 %
25.11.2020 02:10 -1,7 C 98 % 1023,9 hPa 0,0 l/m 1,6 km/h (1 Bft) NO 45 0 min 0,000 mm 0,0 UV-I 0 W/m -2,0 C -1,7 C 3,2 km/h (1 Bft) 95,65 %
25.11.2020 02:09 -1,7 C 98 % 1023,8 hPa 0,0 l/m 1,6 km/h (1 Bft) O-NO 67 0 min 0,000 mm 0,0 UV-I 0 W/m -2,0 C -1,7 C 3,2 km/h (1 Bft) 100,00 %
25.11.2020 02:08 -1,7 C 98 % 1023,9 hPa 0,0 l/m 1,6 km/h (1 Bft) O-NO 67 0 min 0,000 mm 0,0 UV-I 0 W/m -2,0 C -1,7 C 3,2 km/h (1 Bft) 100,00 %
25.11.2020 02:07 -1,7 C 98 % 1023,8 hPa 0,0 l/m 1,6 km/h (1 Bft) O-NO 67 0 min 0,000 mm 0,0 UV-I 0 W/m -2,0 C -1,7 C 3,2 km/h (1 Bft) 100,00 %
25.11.2020 02:06 -1,7 C 98 % 1023,8 hPa 0,0 l/m 1,6 km/h (1 Bft) O-NO 67 0 min 0,000 mm 0,0 UV-I 0 W/m -2,0 C -1,7 C 3,2 km/h (1 Bft) 100,00 %
25.11.2020 02:05 -1,7 C 98 % 1023,8 hPa 0,0 l/m 1,6 km/h (1 Bft) O-NO 67 0 min 0,000 mm 0,0 UV-I 0 W/m -2,0 C -1,7 C 3,2 km/h (1 Bft) 95,65 %
25.11.2020 02:04 -1,7 C 98 % 1023,9 hPa 0,0 l/m 1,6 km/h (1 Bft) O-NO 67 0 min 0,000 mm 0,0 UV-I 0 W/m -2,0 C -1,7 C 3,2 km/h (1 Bft) 100,00 %
25.11.2020 02:03 -1,7 C 98 % 1023,8 hPa 0,0 l/m 1,6 km/h (1 Bft) O-NO 67 0 min 0,000 mm 0,0 UV-I 0 W/m -2,0 C -1,7 C 3,2 km/h (1 Bft) 100,00 %
25.11.2020 02:02 -1,7 C 98 % 1023,8 hPa 0,0 l/m 1,6 km/h (1 Bft) O-NO 67 0 min 0,000 mm 0,0 UV-I 0 W/m -2,0 C -1,7 C 3,2 km/h (1 Bft) 95,65 %
25.11.2020 02:01 -1,7 C 98 % 1023,9 hPa 0,0 l/m 1,6 km/h (1 Bft) O-NO 67 0 min 0,000 mm 0,0 UV-I 0 W/m -2,0 C -1,7 C 3,2 km/h (1 Bft) 100,00 %
25.11.2020 02:00 -1,7 C 98 % 1023,7 hPa 0,0 l/m 1,6 km/h (1 Bft) O-NO 67 0 min 0,000 mm 0,0 UV-I 0 W/m -2,0 C -1,7 C 3,2 km/h (1 Bft) 100,00 %
25.11.2020 01:59 -1,7 C 98 % 1023,8 hPa 0,0 l/m 0,0 km/h (0 Bft) O-NO 67 0 min 0,000 mm 0,0 UV-I 0 W/m -2,0 C -1,7 C 3,2 km/h (1 Bft) 100,00 %
25.11.2020 01:58 -1,7 C 98 % 1023,8 hPa 0,0 l/m 0,0 km/h (0 Bft) O-NO 67 0 min 0,000 mm 0,0 UV-I 0 W/m -2,0 C -1,7 C 1,6 km/h (1 Bft) 95,65 %
25.11.2020 01:57 -1,7 C 98 % 1023,7 hPa 0,0 l/m 1,6 km/h (1 Bft) O-NO 67 0 min 0,000 mm 0,0 UV-I 0 W/m -2,0 C -1,7 C 3,2 km/h (1 Bft) 95,65 %
25.11.2020 01:56 -1,7 C 98 % 1023,8 hPa 0,0 l/m 0,0 km/h (0 Bft) O-NO 67 0 min 0,000 mm 0,0 UV-I 0 W/m -2,0 C -1,7 C 3,2 km/h (1 Bft) 100,00 %
25.11.2020 01:55 -1,7 C 98 % 1023,8 hPa 0,0 l/m 0,0 km/h (0 Bft) N 0 0 min 0,000 mm 0,0 UV-I 0 W/m -2,0 C -1,7 C 0,0 km/h (0 Bft) 95,65 %
25.11.2020 01:54 -1,7 C 98 % 1023,8 hPa 0,0 l/m 0,0 km/h (0 Bft) N 0 0 min 0,000 mm 0,0 UV-I 0 W/m -2,0 C -1,7 C 0,0 km/h (0 Bft) 95,65 %
25.11.2020 01:53 -1,7 C 98 % 1023,8 hPa 0,0 l/m 0,0 km/h (0 Bft) N 0 0 min 0,000 mm 0,0 UV-I 0 W/m -2,0 C -1,7 C 0,0 km/h (0 Bft) 100,00 %
25.11.2020 01:52 -1,7 C 98 % 1023,8 hPa 0,0 l/m 0,0 km/h (0 Bft) N 0 0 min 0,000 mm 0,0 UV-I 0 W/m -2,0 C -1,7 C 0,0 km/h (0 Bft) 100,00 %
25.11.2020 01:51 -1,7 C 98 % 1023,8 hPa 0,0 l/m 0,0 km/h (0 Bft) N 0 0 min 0,000 mm 0,0 UV-I 0 W/m -2,0 C -1,7 C 0,0 km/h (0 Bft) 100,00 %
25.11.2020 01:50 -1,7 C 98 % 1023,9 hPa 0,0 l/m 0,0 km/h (0 Bft) N 0 0 min 0,000 mm 0,0 UV-I 0 W/m -2,0 C -1,7 C 0,0 km/h (0 Bft) 100,00 %
25.11.2020 01:49 -1,7 C 98 % 1023,8 hPa 0,0 l/m 0,0 km/h (0 Bft) N 0 0 min 0,000 mm 0,0 UV-I 0 W/m -2,0 C -1,7 C 0,0 km/h (0 Bft) 100,00 %
25.11.2020 01:48 -1,7 C 98 % 1023,8 hPa 0,0 l/m 0,0 km/h (0 Bft) N 0 0 min 0,000 mm 0,0 UV-I 0 W/m -2,0 C -1,7 C 0,0 km/h (0 Bft) 100,00 %
25.11.2020 01:47 -1,7 C 98 % 1023,8 hPa 0,0 l/m 1,6 km/h (1 Bft) O-NO 67 0 min 0,000 mm 0,0 UV-I 0 W/m -2,0 C -1,7 C 1,6 km/h (1 Bft) 95,65 %
25.11.2020 01:46 -1,7 C 98 % 1023,9 hPa 0,0 l/m 1,6 km/h (1 Bft) O-NO 67 0 min 0,000 mm 0,0 UV-I 0 W/m -2,0 C -1,7 C 3,2 km/h (1 Bft) 95,65 %
25.11.2020 01:45 -1,7 C 98 % 1023,8 hPa 0,0 l/m 1,6 km/h (1 Bft) O-NO 67 0 min 0,000 mm 0,0 UV-I 0 W/m -2,0 C -1,7 C 3,2 km/h (1 Bft) 95,65 %
25.11.2020 01:44 -1,7 C 98 % 1023,8 hPa 0,0 l/m 1,6 km/h (1 Bft) O-NO 67 0 min 0,000 mm 0,0 UV-I 0 W/m -2,0 C -1,7 C 3,2 km/h (1 Bft) 100,00 %
25.11.2020 01:43 -1,7 C 98 % 1023,9 hPa 0,0 l/m 3,2 km/h (1 Bft) O-NO 67 0 min 0,000 mm 0,0 UV-I 0 W/m -2,0 C -1,7 C 4,8 km/h (1 Bft) 100,00 %
25.11.2020 01:42 -1,7 C 98 % 1023,9 hPa 0,0 l/m 3,2 km/h (1 Bft) O-NO 67 0 min 0,000 mm 0,0 UV-I 0 W/m -2,0 C -1,7 C 4,8 km/h (1 Bft) 100,00 %
25.11.2020 01:41 -1,7 C 98 % 1023,8 hPa 0,0 l/m 3,2 km/h (1 Bft) O-NO 67 0 min 0,000 mm 0,0 UV-I 0 W/m -2,0 C -1,7 C 4,8 km/h (1 Bft) 95,65 %
25.11.2020 01:40 -1,7 C 98 % 1023,9 hPa 0,0 l/m 1,6 km/h (1 Bft) O-NO 67 0 min 0,000 mm 0,0 UV-I 0 W/m -2,0 C -1,7 C 3,2 km/h (1 Bft) 100,00 %
25.11.2020 01:39 -1,7 C 98 % 1023,9 hPa 0,0 l/m 3,2 km/h (1 Bft) O-NO 67 0 min 0,000 mm 0,0 UV-I 0 W/m -2,0 C -1,7 C 4,8 km/h (1 Bft) 100,00 %
25.11.2020 01:38 -1,7 C 98 % 1023,9 hPa 0,0 l/m 4,8 km/h (1 Bft) O-NO 67 0 min 0,000 mm 0,0 UV-I 0 W/m -2,0 C -3,4 C 6,4 km/h (2 Bft) 95,65 %
25.11.2020 01:37 -1,7 C 98 % 1023,9 hPa 0,0 l/m 4,8 km/h (1 Bft) O-NO 67 0 min 0,000 mm 0,0 UV-I 0 W/m -2,0 C -3,4 C 6,4 km/h (2 Bft) 100,00 %
25.11.2020 01:36 -1,8 C 98 % 1023,8 hPa 0,0 l/m 3,2 km/h (1 Bft) NO 45 0 min 0,000 mm 0,0 UV-I 0 W/m -2,1 C -1,8 C 4,8 km/h (1 Bft) 100,00 %
25.11.2020 01:35 -1,8 C 98 % 1023,8 hPa 0,0 l/m 4,8 km/h (1 Bft) O-NO 67 0 min 0,000 mm 0,0 UV-I 0 W/m -2,1 C -3,5 C 6,4 km/h (2 Bft) 100,00 %
25.11.2020 01:34 -1,8 C 98 % 1023,9 hPa 0,0 l/m 4,8 km/h (1 Bft) O-NO 67 0 min 0,000 mm 0,0 UV-I 0 W/m -2,1 C -3,5 C 4,8 km/h (1 Bft) 100,00 %
25.11.2020 01:33 -1,8 C 98 % 1023,9 hPa 0,0 l/m 3,2 km/h (1 Bft) NO 45 0 min 0,000 mm 0,0 UV-I 0 W/m -2,1 C -1,8 C 4,8 km/h (1 Bft) 100,00 %
25.11.2020 01:32 -1,8 C 98 % 1023,8 hPa 0,0 l/m 1,6 km/h (1 Bft) NO 45 0 min 0,000 mm 0,0 UV-I 0 W/m -2,1 C -1,8 C 3,2 km/h (1 Bft) 100,00 %
25.11.2020 01:31 -1,8 C 98 % 1023,9 hPa 0,0 l/m 1,6 km/h (1 Bft) NO 45 0 min 0,000 mm 0,0 UV-I 0 W/m -2,1 C -1,8 C 3,2 km/h (1 Bft) 95,65 %
25.11.2020 01:30 -1,8 C 98 % 1023,8 hPa 0,0 l/m 3,2 km/h (1 Bft) NO 45 0 min 0,000 mm 0,0 UV-I 0 W/m -2,1 C -1,8 C 4,8 km/h (1 Bft) 100,00 %
25.11.2020 01:29 -1,8 C 98 % 1023,8 hPa 0,0 l/m 3,2 km/h (1 Bft) NO 45 0 min 0,000 mm 0,0 UV-I 0 W/m -2,1 C -1,8 C 3,2 km/h (1 Bft) 95,65 %
25.11.2020 01:28 -1,9 C 98 % 1023,8 hPa 0,0 l/m 4,8 km/h (1 Bft) O-NO 67 0 min 0,000 mm 0,0 UV-I 0 W/m -2,2 C -3,6 C 6,4 km/h (2 Bft) 100,00 %
25.11.2020 01:27 -1,9 C 98 % 1023,8 hPa 0,0 l/m 3,2 km/h (1 Bft) NO 45 0 min 0,000 mm 0,0 UV-I 0 W/m -2,2 C -1,9 C 6,4 km/h (2 Bft) 100,00 %
25.11.2020 01:26 -1,9 C 98 % 1023,8 hPa 0,0 l/m 1,6 km/h (1 Bft) NO 45 0 min 0,000 mm 0,0 UV-I 0 W/m -2,2 C -1,9 C 3,2 km/h (1 Bft) 100,00 %
25.11.2020 01:25 -1,9 C 98 % 1023,8 hPa 0,0 l/m 3,2 km/h (1 Bft) NO 45 0 min 0,000 mm 0,0 UV-I 0 W/m -2,2 C -1,9 C 6,4 km/h (2 Bft) 100,00 %
25.11.2020 01:24 -1,9 C 98 % 1023,8 hPa 0,0 l/m 6,4 km/h (2 Bft) NO 45 0 min 0,000 mm 0,0 UV-I 0 W/m -2,2 C -4,4 C 6,4 km/h (2 Bft) 100,00 %
25.11.2020 01:23 -1,9 C 98 % 1023,8 hPa 0,0 l/m 4,8 km/h (1 Bft) NO 45 0 min 0,000 mm 0,0 UV-I 0 W/m -2,2 C -3,6 C 8,0 km/h (2 Bft) 95,65 %
25.11.2020 01:22 -2,0 C 98 % 1023,8 hPa 0,0 l/m 3,2 km/h (1 Bft) NO 45 0 min 0,000 mm 0,0 UV-I 0 W/m -2,3 C -2,0 C 4,8 km/h (1 Bft) 95,65 %
25.11.2020 01:21 -2,0 C 98 % 1023,9 hPa 0,0 l/m 3,2 km/h (1 Bft) NO 45 0 min 0,000 mm 0,0 UV-I 0 W/m -2,3 C -2,0 C 4,8 km/h (1 Bft) 91,30 %
25.11.2020 01:20 -2,0 C 98 % 1023,7 hPa 0,0 l/m 3,2 km/h (1 Bft) NO 45 0 min 0,000 mm 0,0 UV-I 0 W/m -2,3 C -2,0 C 4,8 km/h (1 Bft) 100,00 %
25.11.2020 01:19 -2,0 C 98 % 1023,8 hPa 0,0 l/m 6,4 km/h (2 Bft) S-SO 157 0 min 0,000 mm 0,0 UV-I 0 W/m -2,3 C -4,5 C 9,7 km/h (2 Bft) 100,00 %
25.11.2020 01:18 -2,0 C 98 % 1023,7 hPa 0,0 l/m 8,0 km/h (2 Bft) S-SO 157 0 min 0,000 mm 0,0 UV-I 0 W/m -2,3 C -5,1 C 9,7 km/h (2 Bft) 100,00 %
25.11.2020 01:17 -2,0 C 98 % 1023,7 hPa 0,0 l/m 8,0 km/h (2 Bft) S-SO 157 0 min 0,000 mm 0,0 UV-I 0 W/m -2,3 C -5,1 C 11,3 km/h (2 Bft) 100,00 %
25.11.2020 01:16 -2,0 C 98 % 1023,8 hPa 0,0 l/m 8,0 km/h (2 Bft) S-SO 157 0 min 0,000 mm 0,0 UV-I 0 W/m -2,3 C -5,1 C 12,9 km/h (3 Bft) 95,65 %
25.11.2020 01:15 -2,0 C 98 % 1023,8 hPa 0,0 l/m 6,4 km/h (2 Bft) S-SO 157 0 min 0,000 mm 0,0 UV-I 0 W/m -2,3 C -4,5 C 8,0 km/h (2 Bft) 100,00 %
25.11.2020 01:14 -2,0 C 98 % 1023,7 hPa 0,0 l/m 6,4 km/h (2 Bft) S-SO 157 0 min 0,000 mm 0,0 UV-I 0 W/m -2,3 C -4,5 C 9,7 km/h (2 Bft) 100,00 %
25.11.2020 01:13 -2,0 C 98 % 1023,7 hPa 0,0 l/m 6,4 km/h (2 Bft) S-SO 157 0 min 0,000 mm 0,0 UV-I 0 W/m -2,3 C -4,5 C 6,4 km/h (2 Bft) 100,00 %
25.11.2020 01:12 -2,0 C 98 % 1023,8 hPa 0,0 l/m 8,0 km/h (2 Bft) S-SO 157 0 min 0,000 mm 0,0 UV-I 0 W/m -2,3 C -5,1 C 9,7 km/h (2 Bft) 95,65 %
25.11.2020 01:11 -2,0 C 98 % 1023,8 hPa 0,0 l/m 6,4 km/h (2 Bft) S-SO 157 0 min 0,000 mm 0,0 UV-I 0 W/m -2,3 C -4,5 C 8,0 km/h (2 Bft) 100,00 %
25.11.2020 01:10 -2,0 C 98 % 1023,7 hPa 0,0 l/m 6,4 km/h (2 Bft) S-SO 157 0 min 0,000 mm 0,0 UV-I 0 W/m -2,3 C -4,5 C 9,7 km/h (2 Bft) 95,65 %
25.11.2020 01:09 -2,0 C 98 % 1023,7 hPa 0,0 l/m 6,4 km/h (2 Bft) S-SO 157 0 min 0,000 mm 0,0 UV-I 0 W/m -2,3 C -4,5 C 8,0 km/h (2 Bft) 95,65 %
25.11.2020 01:08 -2,0 C 98 % 1023,7 hPa 0,0 l/m 4,8 km/h (1 Bft) S-SO 157 0 min 0,000 mm 0,0 UV-I 0 W/m -2,3 C -3,8 C 6,4 km/h (2 Bft) 100,00 %
25.11.2020 01:07 -2,0 C 98 % 1023,7 hPa 0,0 l/m 4,8 km/h (1 Bft) S-SO 157 0 min 0,000 mm 0,0 UV-I 0 W/m -2,3 C -3,8 C 6,4 km/h (2 Bft) 100,00 %
25.11.2020 01:06 -2,0 C 98 % 1023,8 hPa 0,0 l/m 4,8 km/h (1 Bft) S-SO 157 0 min 0,000 mm 0,0 UV-I 0 W/m -2,3 C -3,8 C 4,8 km/h (1 Bft) 100,00 %
25.11.2020 01:05 -2,0 C 98 % 1023,8 hPa 0,0 l/m 3,2 km/h (1 Bft) S-SO 157 0 min 0,000 mm 0,0 UV-I 0 W/m -2,3 C -2,0 C 4,8 km/h (1 Bft) 100,00 %
25.11.2020 01:04 -2,0 C 98 % 1023,8 hPa 0,0 l/m 3,2 km/h (1 Bft) S-SO 157 0 min 0,000 mm 0,0 UV-I 0 W/m -2,3 C -2,0 C 4,8 km/h (1 Bft) 100,00 %
25.11.2020 01:03 -2,0 C 98 % 1023,8 hPa 0,0 l/m 4,8 km/h (1 Bft) S-SO 157 0 min 0,000 mm 0,0 UV-I 0 W/m -2,3 C -3,8 C 4,8 km/h (1 Bft) 95,65 %
25.11.2020 01:02 -2,0 C 98 % 1023,8 hPa 0,0 l/m 1,6 km/h (1 Bft) S-SO 157 0 min 0,000 mm 0,0 UV-I 0 W/m -2,3 C -2,0 C 4,8 km/h (1 Bft) 100,00 %
25.11.2020 01:01 -1,9 C 98 % 1023,9 hPa 0,0 l/m 0,0 km/h (0 Bft) N 0 0 min 0,000 mm 0,0 UV-I 0 W/m -2,2 C -1,9 C 0,0 km/h (0 Bft) 100,00 %
25.11.2020 01:00 -2,0 C 98 % 1023,8 hPa 0,0 l/m 0,0 km/h (0 Bft) N 0 0 min 0,000 mm 0,0 UV-I 0 W/m -2,3 C -2,0 C 0,0 km/h (0 Bft) 95,65 %
25.11.2020 00:59 -2,0 C 98 % 1023,8 hPa 0,0 l/m 0,0 km/h (0 Bft) N 0 0 min 0,000 mm 0,0 UV-I 0 W/m -2,3 C -2,0 C 0,0 km/h (0 Bft) 100,00 %
25.11.2020 00:58 -1,9 C 98 % 1023,9 hPa 0,0 l/m 0,0 km/h (0 Bft) S-SO 157 0 min 0,000 mm 0,0 UV-I 0 W/m -2,2 C -1,9 C 1,6 km/h (1 Bft) 100,00 %
25.11.2020 00:57 -1,9 C 98 % 1023,9 hPa 0,0 l/m 0,0 km/h (0 Bft) S-SO 157 0 min 0,000 mm 0,0 UV-I 0 W/m -2,2 C -1,9 C 1,6 km/h (1 Bft) 95,65 %
25.11.2020 00:56 -1,9 C 98 % 1023,8 hPa 0,0 l/m 1,6 km/h (1 Bft) S-SO 157 0 min 0,000 mm 0,0 UV-I 0 W/m -2,2 C -1,9 C 4,8 km/h (1 Bft) 95,65 %
25.11.2020 00:55 -1,9 C 98 % 1024,0 hPa 0,0 l/m 3,2 km/h (1 Bft) S-SO 157 0 min 0,000 mm 0,0 UV-I 0 W/m -2,2 C -1,9 C 4,8 km/h (1 Bft) 100,00 %
25.11.2020 00:54 -1,9 C 98 % 1024,0 hPa 0,0 l/m 3,2 km/h (1 Bft) S-SO 157 0 min 0,000 mm 0,0 UV-I 0 W/m -2,2 C -1,9 C 4,8 km/h (1 Bft) 100,00 %
25.11.2020 00:53 -1,8 C 98 % 1023,9 hPa 0,0 l/m 4,8 km/h (1 Bft) S-SO 157 0 min 0,000 mm 0,0 UV-I 0 W/m -2,1 C -3,5 C 4,8 km/h (1 Bft) 100,00 %
25.11.2020 00:52 -1,8 C 98 % 1023,9 hPa 0,0 l/m 3,2 km/h (1 Bft) S-SO 157 0 min 0,000 mm 0,0 UV-I 0 W/m -2,1 C -1,8 C 4,8 km/h (1 Bft) 100,00 %
25.11.2020 00:51 -1,8 C 98 % 1024,0 hPa 0,0 l/m 0,0 km/h (0 Bft) S-SO 157 0 min 0,000 mm 0,0 UV-I 0 W/m -2,1 C -1,8 C 1,6 km/h (1 Bft) 100,00 %
25.11.2020 00:50 -1,7 C 98 % 1024,0 hPa 0,0 l/m 0,0 km/h (0 Bft) N 0 0 min 0,000 mm 0,0 UV-I 0 W/m -2,0 C -1,7 C 0,0 km/h (0 Bft) 100,00 %
25.11.2020 00:49 -1,7 C 98 % 1023,9 hPa 0,0 l/m 0,0 km/h (0 Bft) N 0 0 min 0,000 mm 0,0 UV-I 0 W/m -2,0 C -1,7 C 0,0 km/h (0 Bft) 100,00 %
25.11.2020 00:48 -1,7 C 98 % 1024,0 hPa 0,0 l/m 0,0 km/h (0 Bft) N 0 0 min 0,000 mm 0,0 UV-I 0 W/m -2,0 C -1,7 C 0,0 km/h (0 Bft) 100,00 %
25.11.2020 00:47 -1,7 C 98 % 1024,0 hPa 0,0 l/m 0,0 km/h (0 Bft) N 0 0 min 0,000 mm 0,0 UV-I 0 W/m -2,0 C -1,7 C 0,0 km/h (0 Bft) 100,00 %
25.11.2020 00:46 -1,7 C 98 % 1024,0 hPa 0,0 l/m 0,0 km/h (0 Bft) N 0 0 min 0,000 mm 0,0 UV-I 0 W/m -2,0 C -1,7 C 0,0 km/h (0 Bft) 91,30 %
25.11.2020 00:45 -1,7 C 98 % 1024,0 hPa 0,0 l/m 0,0 km/h (0 Bft) N 0 0 min 0,000 mm 0,0 UV-I 0 W/m -2,0 C -1,7 C 0,0 km/h (0 Bft) 100,00 %
25.11.2020 00:44 -1,7 C 98 % 1024,0 hPa 0,0 l/m 0,0 km/h (0 Bft) N 0 0 min 0,000 mm 0,0 UV-I 0 W/m -2,0 C -1,7 C 0,0 km/h (0 Bft) 100,00 %
25.11.2020 00:43 -1,7 C 98 % 1024,1 hPa 0,0 l/m 0,0 km/h (0 Bft) N 0 0 min 0,000 mm 0,0 UV-I 0 W/m -2,0 C -1,7 C 0,0 km/h (0 Bft) 95,65 %
25.11.2020 00:42 -1,7 C 98 % 1024,1 hPa 0,0 l/m 0,0 km/h (0 Bft) N 0 0 min 0,000 mm 0,0 UV-I 0 W/m -2,0 C -1,7 C 0,0 km/h (0 Bft) 100,00 %
25.11.2020 00:41 -1,6 C 98 % 1024,1 hPa 0,0 l/m 0,0 km/h (0 Bft) N 0 0 min 0,000 mm 0,0 UV-I 0 W/m -1,9 C -1,6 C 0,0 km/h (0 Bft) 95,65 %
25.11.2020 00:40 -1,6 C 98 % 1024,1 hPa 0,0 l/m 0,0 km/h (0 Bft) N 0 0 min 0,000 mm 0,0 UV-I 0 W/m -1,9 C -1,6 C 0,0 km/h (0 Bft) 100,00 %
25.11.2020 00:39 -1,6 C 98 % 1024,1 hPa 0,0 l/m 0,0 km/h (0 Bft) N 0 0 min 0,000 mm 0,0 UV-I 0 W/m -1,9 C -1,6 C 0,0 km/h (0 Bft) 100,00 %
25.11.2020 00:38 -1,6 C 98 % 1024,1 hPa 0,0 l/m 0,0 km/h (0 Bft) N 0 0 min 0,000 mm 0,0 UV-I 0 W/m -1,9 C -1,6 C 0,0 km/h (0 Bft) 95,65 %
25.11.2020 00:37 -1,5 C 98 % 1024,2 hPa 0,0 l/m 0,0 km/h (0 Bft) N 0 0 min 0,000 mm 0,0 UV-I 0 W/m -1,8 C -1,5 C 0,0 km/h (0 Bft) 100,00 %
25.11.2020 00:36 -1,5 C 98 % 1024,2 hPa 0,0 l/m 0,0 km/h (0 Bft) N 0 0 min 0,000 mm 0,0 UV-I 0 W/m -1,8 C -1,5 C 0,0 km/h (0 Bft) 100,00 %
25.11.2020 00:35 -1,4 C 98 % 1024,2 hPa 0,0 l/m 0,0 km/h (0 Bft) N 0 0 min 0,000 mm 0,0 UV-I 0 W/m -1,7 C -1,4 C 0,0 km/h (0 Bft) 95,65 %
25.11.2020 00:34 -1,4 C 98 % 1024,3 hPa 0,0 l/m 0,0 km/h (0 Bft) N 0 0 min 0,000 mm 0,0 UV-I 0 W/m -1,7 C -1,4 C 0,0 km/h (0 Bft) 100,00 %
25.11.2020 00:33 -1,4 C 98 % 1024,3 hPa 0,0 l/m 0,0 km/h (0 Bft) N 0 0 min 0,000 mm 0,0 UV-I 0 W/m -1,7 C -1,4 C 0,0 km/h (0 Bft) 91,30 %
25.11.2020 00:32 -1,4 C 98 % 1024,4 hPa 0,0 l/m 0,0 km/h (0 Bft) N 0 0 min 0,000 mm 0,0 UV-I 0 W/m -1,7 C -1,4 C 0,0 km/h (0 Bft) 95,65 %
25.11.2020 00:31 -1,4 C 98 % 1024,4 hPa 0,0 l/m 0,0 km/h (0 Bft) N 0 0 min 0,000 mm 0,0 UV-I 0 W/m -1,7 C -1,4 C 0,0 km/h (0 Bft) 91,30 %
25.11.2020 00:30 -1,4 C 98 % 1024,3 hPa 0,0 l/m 0,0 km/h (0 Bft) N 0 0 min 0,000 mm 0,0 UV-I 0 W/m -1,7 C -1,4 C 0,0 km/h (0 Bft) 100,00 %
25.11.2020 00:29 -1,4 C 98 % 1024,3 hPa 0,0 l/m 0,0 km/h (0 Bft) S-SO 157 0 min 0,000 mm 0,0 UV-I 0 W/m -1,7 C -1,4 C 1,6 km/h (1 Bft) 100,00 %
25.11.2020 00:28 -1,4 C 98 % 1024,3 hPa 0,0 l/m 1,6 km/h (1 Bft) S-SO 157 0 min 0,000 mm 0,0 UV-I 0 W/m -1,7 C -1,4 C 1,6 km/h (1 Bft) 100,00 %
25.11.2020 00:27 -1,3 C 98 % 1024,4 hPa 0,0 l/m 0,0 km/h (0 Bft) S-SO 157 0 min 0,000 mm 0,0 UV-I 0 W/m -1,6 C -1,3 C 1,6 km/h (1 Bft) 100,00 %
25.11.2020 00:26 -1,3 C 98 % 1024,3 hPa 0,0 l/m 0,0 km/h (0 Bft) N 0 0 min 0,000 mm 0,0 UV-I 0 W/m -1,6 C -1,3 C 0,0 km/h (0 Bft) 100,00 %
25.11.2020 00:25 -1,3 C 98 % 1024,3 hPa 0,0 l/m 0,0 km/h (0 Bft) N 0 0 min 0,000 mm 0,0 UV-I 0 W/m -1,6 C -1,3 C 0,0 km/h (0 Bft) 100,00 %
25.11.2020 00:24 -1,3 C 98 % 1024,4 hPa 0,0 l/m 0,0 km/h (0 Bft) N 0 0 min 0,000 mm 0,0 UV-I 0 W/m -1,6 C -1,3 C 0,0 km/h (0 Bft) 100,00 %
25.11.2020 00:23 -1,3 C 98 % 1024,3 hPa 0,0 l/m 0,0 km/h (0 Bft) N 0 0 min 0,000 mm 0,0 UV-I 0 W/m -1,6 C -1,3 C 0,0 km/h (0 Bft) 91,30 %
25.11.2020 00:22 -1,3 C 98 % 1024,3 hPa 0,0 l/m 0,0 km/h (0 Bft) N 0 0 min 0,000 mm 0,0 UV-I 0 W/m -1,6 C -1,3 C 0,0 km/h (0 Bft) 100,00 %
25.11.2020 00:21 -1,3 C 98 % 1024,4 hPa 0,0 l/m 0,0 km/h (0 Bft) N 0 0 min 0,000 mm 0,0 UV-I 0 W/m -1,6 C -1,3 C 0,0 km/h (0 Bft) 100,00 %
25.11.2020 00:20 -1,2 C 98 % 1024,4 hPa 0,0 l/m 0,0 km/h (0 Bft) N 0 0 min 0,000 mm 0,0 UV-I 0 W/m -1,5 C -1,2 C 0,0 km/h (0 Bft) 100,00 %
25.11.2020 00:19 -1,2 C 98 % 1024,4 hPa 0,0 l/m 1,6 km/h (1 Bft) S-SO 157 0 min 0,000 mm 0,0 UV-I 0 W/m -1,5 C -1,2 C 3,2 km/h (1 Bft) 100,00 %
25.11.2020 00:18 -1,2 C 98 % 1024,5 hPa 0,0 l/m 3,2 km/h (1 Bft) S-SO 157 0 min 0,000 mm 0,0 UV-I 0 W/m -1,5 C -1,2 C 4,8 km/h (1 Bft) 100,00 %
25.11.2020 00:17 -1,2 C 98 % 1024,5 hPa 0,0 l/m 1,6 km/h (1 Bft) S-SO 157 0 min 0,000 mm 0,0 UV-I 0 W/m -1,5 C -1,2 C 4,8 km/h (1 Bft) 100,00 %
25.11.2020 00:16 -1,2 C 98 % 1024,5 hPa 0,0 l/m 0,0 km/h (0 Bft) S-SO 157 0 min 0,000 mm 0,0 UV-I 0 W/m -1,5 C -1,2 C 1,6 km/h (1 Bft) 100,00 %
25.11.2020 00:15 -1,2 C 98 % 1024,4 hPa 0,0 l/m 0,0 km/h (0 Bft) S-SO 157 0 min 0,000 mm 0,0 UV-I 0 W/m -1,5 C -1,2 C 1,6 km/h (1 Bft) 100,00 %
25.11.2020 00:14 -1,1 C 98 % 1024,4 hPa 0,0 l/m 0,0 km/h (0 Bft) S-SO 157 0 min 0,000 mm 0,0 UV-I 0 W/m -1,4 C -1,1 C 1,6 km/h (1 Bft) 100,00 %
25.11.2020 00:13 -1,1 C 98 % 1024,5 hPa 0,0 l/m 0,0 km/h (0 Bft) S-SO 157 0 min 0,000 mm 0,0 UV-I 0 W/m -1,4 C -1,1 C 1,6 km/h (1 Bft) 100,00 %
25.11.2020 00:12 -1,1 C 98 % 1024,5 hPa 0,0 l/m 0,0 km/h (0 Bft) N 0 0 min 0,000 mm 0,0 UV-I 0 W/m -1,4 C -1,1 C 0,0 km/h (0 Bft) 100,00 %
25.11.2020 00:11 -1,1 C 98 % 1024,4 hPa 0,0 l/m 0,0 km/h (0 Bft) N 0 0 min 0,000 mm 0,0 UV-I 0 W/m -1,4 C -1,1 C 0,0 km/h (0 Bft) 100,00 %
25.11.2020 00:10 -1,1 C 98 % 1024,4 hPa 0,0 l/m 0,0 km/h (0 Bft) N 0 0 min 0,000 mm 0,0 UV-I 0 W/m -1,4 C -1,1 C 0,0 km/h (0 Bft) 100,00 %
25.11.2020 00:09 -1,1 C 98 % 1024,4 hPa 0,0 l/m 0,0 km/h (0 Bft) N 0 0 min 0,000 mm 0,0 UV-I 0 W/m -1,4 C -1,1 C 0,0 km/h (0 Bft) 100,00 %
25.11.2020 00:08 -1,1 C 98 % 1024,5 hPa 0,0 l/m 0,0 km/h (0 Bft) N 0 0 min 0,000 mm 0,0 UV-I 0 W/m -1,4 C -1,1 C 0,0 km/h (0 Bft) 100,00 %
25.11.2020 00:07 -1,1 C 98 % 1024,4 hPa 0,0 l/m 0,0 km/h (0 Bft) N 0 0 min 0,000 mm 0,0 UV-I 0 W/m -1,4 C -1,1 C 0,0 km/h (0 Bft) 100,00 %
25.11.2020 00:06 -1,1 C 98 % 1024,5 hPa 0,0 l/m 0,0 km/h (0 Bft) N 0 0 min 0,000 mm 0,0 UV-I 0 W/m -1,4 C -1,1 C 0,0 km/h (0 Bft) 100,00 %
25.11.2020 00:05 -1,1 C 98 % 1024,4 hPa 0,0 l/m 0,0 km/h (0 Bft) N 0 0 min 0,000 mm 0,0 UV-I 0 W/m -1,4 C -1,1 C 0,0 km/h (0 Bft) 95,65 %
25.11.2020 00:04 -1,1 C 98 % 1024,5 hPa 0,0 l/m 0,0 km/h (0 Bft) N 0 0 min 0,000 mm 0,0 UV-I 0 W/m -1,4 C -1,1 C 0,0 km/h (0 Bft) 95,65 %
25.11.2020 00:03 -1,1 C 98 % 1024,4 hPa 0,0 l/m 0,0 km/h (0 Bft) N 0 0 min 0,000 mm 0,0 UV-I 0 W/m -1,4 C -1,1 C 0,0 km/h (0 Bft) 100,00 %
25.11.2020 00:02 -1,1 C 98 % 1024,6 hPa 0,0 l/m 0,0 km/h (0 Bft) N 0 0 min 0,000 mm 0,0 UV-I 0 W/m -1,4 C -1,1 C 0,0 km/h (0 Bft) 100,00 %
25.11.2020 00:01 -1,1 C 98 % 1024,6 hPa 0,0 l/m 0,0 km/h (0 Bft) N 0 0 min 0,000 mm 0,0 UV-I 0 W/m -1,4 C -1,1 C 0,0 km/h (0 Bft) 95,65 %
25.11.2020 00:00 -1,1 C 98 % 1024,6 hPa 0,0 l/m 0,0 km/h (0 Bft) N 0 0 min 0,000 mm 0,0 UV-I 0 W/m -1,4 C -1,1 C 0,0 km/h (0 Bft) 100,00 %
_ Min-Zeit 07:27 06:57 02:58 - 00:00 - - - - - - 07:32 22:15 00:00 15:38
Minimum _ -3,3 C 97 % 1023,6 hPa - 0,0 km/h (0 Bft) - - - - - - -3,7 C -6,5 C 0,0 km/h (0 Bft) 8,70 %
_ Max-Zeit 12:00 11:42 20:46 09:47 01:12 - - 09:27 12:00 11:11 11:10 12:00 12:00 01:16 00:00
Maximum _ 1,1 C 99 % 1025,5 hPa 0,2 l/m 8,0 km/h
S-SO (2 Bft)
- - 1 min 0,102 mm 1,3 UV-I 485 W/m 1,0 C 1,1 C 12,9 km/h
S-SO (3 Bft)
100,00 %
Durchschnitt _ -1,8 C 98 % 1024,4 hPa #0,4 l/m 2,7 km/h (1 Bft) W-SW - #4:35 h #0,431 mm 0,9 UV-I 149 W/m -2,1 C -2,4 C 3,8 km/h (1 Bft) 98,74 %